<?xml version="1.0" encoding="UTF-8"?>
<gpx version="1.1" creator="RoadTrp.org" xmlns="http://www.topografix.com/GPX/1/1">
<trk><name>Bay Point Loop Trail — Harrison Bay State Park — August 1, 2026</name><trkseg>
<trkpt lat="35.168365" lon="-85.119738"><ele>217.0</ele><time>2026-08-01T18:27:19Z</time></trkpt>
<trkpt lat="35.168372" lon="-85.119772"><ele>218.2</ele><time>2026-08-01T18:27:25Z</time></trkpt>
<trkpt lat="35.168349" lon="-85.119755"><ele>219.5</ele><time>2026-08-01T18:27:31Z</time></trkpt>
<trkpt lat="35.168351" lon="-85.119758"><ele>219.5</ele><time>2026-08-01T18:27:32Z</time></trkpt>
<trkpt lat="35.16835" lon="-85.119755"><ele>219.8</ele><time>2026-08-01T18:27:33Z</time></trkpt>
<trkpt lat="35.16832" lon="-85.119731"><ele>219.2</ele><time>2026-08-01T18:27:37Z</time></trkpt>
<trkpt lat="35.168283" lon="-85.119734"><ele>217.3</ele><time>2026-08-01T18:27:40Z</time></trkpt>
<trkpt lat="35.168257" lon="-85.119745"><ele>218.2</ele><time>2026-08-01T18:27:42Z</time></trkpt>
<trkpt lat="35.168231" lon="-85.119776"><ele>219.2</ele><time>2026-08-01T18:27:45Z</time></trkpt>
<trkpt lat="35.168201" lon="-85.119783"><ele>219.2</ele><time>2026-08-01T18:27:50Z</time></trkpt>
<trkpt lat="35.168199" lon="-85.119784"><ele>219.2</ele><time>2026-08-01T18:27:51Z</time></trkpt>
<trkpt lat="35.168198" lon="-85.119784"><ele>218.8</ele><time>2026-08-01T18:27:52Z</time></trkpt>
<trkpt lat="35.168201" lon="-85.119779"><ele>218.8</ele><time>2026-08-01T18:27:53Z</time></trkpt>
<trkpt lat="35.168197" lon="-85.119765"><ele>217.6</ele><time>2026-08-01T18:27:57Z</time></trkpt>
<trkpt lat="35.168199" lon="-85.119767"><ele>217.3</ele><time>2026-08-01T18:27:58Z</time></trkpt>
<trkpt lat="35.168202" lon="-85.119775"><ele>216.7</ele><time>2026-08-01T18:28:04Z</time></trkpt>
<trkpt lat="35.168203" lon="-85.119778"><ele>216.7</ele><time>2026-08-01T18:28:05Z</time></trkpt>
<trkpt lat="35.168207" lon="-85.11973"><ele>216.4</ele><time>2026-08-01T18:28:08Z</time></trkpt>
<trkpt lat="35.168202" lon="-85.119696"><ele>216.4</ele><time>2026-08-01T18:28:10Z</time></trkpt>
<trkpt lat="35.168198" lon="-85.11966"><ele>216.7</ele><time>2026-08-01T18:28:12Z</time></trkpt>
<trkpt lat="35.168186" lon="-85.119628"><ele>217.3</ele><time>2026-08-01T18:28:14Z</time></trkpt>
<trkpt lat="35.168174" lon="-85.119582"><ele>217.9</ele><time>2026-08-01T18:28:17Z</time></trkpt>
<trkpt lat="35.168157" lon="-85.119555"><ele>217.9</ele><time>2026-08-01T18:28:19Z</time></trkpt>
<trkpt lat="35.168134" lon="-85.119517"><ele>217.9</ele><time>2026-08-01T18:28:22Z</time></trkpt>
<trkpt lat="35.168112" lon="-85.119478"><ele>217.0</ele><time>2026-08-01T18:28:25Z</time></trkpt>
<trkpt lat="35.168089" lon="-85.119442"><ele>218.2</ele><time>2026-08-01T18:28:28Z</time></trkpt>
<trkpt lat="35.168069" lon="-85.1194"><ele>218.5</ele><time>2026-08-01T18:28:31Z</time></trkpt>
<trkpt lat="35.168046" lon="-85.119363"><ele>217.9</ele><time>2026-08-01T18:28:34Z</time></trkpt>
<trkpt lat="35.168023" lon="-85.119329"><ele>215.8</ele><time>2026-08-01T18:28:37Z</time></trkpt>
<trkpt lat="35.168003" lon="-85.119286"><ele>216.1</ele><time>2026-08-01T18:28:40Z</time></trkpt>
<trkpt lat="35.167984" lon="-85.119261"><ele>216.1</ele><time>2026-08-01T18:28:42Z</time></trkpt>
<trkpt lat="35.167964" lon="-85.119238"><ele>216.1</ele><time>2026-08-01T18:28:44Z</time></trkpt>
<trkpt lat="35.167938" lon="-85.119203"><ele>216.4</ele><time>2026-08-01T18:28:47Z</time></trkpt>
<trkpt lat="35.167917" lon="-85.119175"><ele>216.4</ele><time>2026-08-01T18:28:49Z</time></trkpt>
<trkpt lat="35.167901" lon="-85.119148"><ele>215.8</ele><time>2026-08-01T18:28:51Z</time></trkpt>
<trkpt lat="35.167872" lon="-85.119118"><ele>217.0</ele><time>2026-08-01T18:28:54Z</time></trkpt>
<trkpt lat="35.167843" lon="-85.119082"><ele>218.8</ele><time>2026-08-01T18:28:57Z</time></trkpt>
<trkpt lat="35.167826" lon="-85.119056"><ele>217.9</ele><time>2026-08-01T18:28:59Z</time></trkpt>
<trkpt lat="35.167808" lon="-85.119029"><ele>217.3</ele><time>2026-08-01T18:29:01Z</time></trkpt>
<trkpt lat="35.16778" lon="-85.119013"><ele>218.2</ele><time>2026-08-01T18:29:03Z</time></trkpt>
<trkpt lat="35.167753" lon="-85.118996"><ele>218.8</ele><time>2026-08-01T18:29:05Z</time></trkpt>
<trkpt lat="35.167729" lon="-85.118978"><ele>217.3</ele><time>2026-08-01T18:29:07Z</time></trkpt>
<trkpt lat="35.167704" lon="-85.118961"><ele>217.0</ele><time>2026-08-01T18:29:09Z</time></trkpt>
<trkpt lat="35.167669" lon="-85.118939"><ele>216.7</ele><time>2026-08-01T18:29:12Z</time></trkpt>
<trkpt lat="35.16763" lon="-85.118922"><ele>217.9</ele><time>2026-08-01T18:29:15Z</time></trkpt>
<trkpt lat="35.167597" lon="-85.118894"><ele>218.8</ele><time>2026-08-01T18:29:18Z</time></trkpt>
<trkpt lat="35.167563" lon="-85.118874"><ele>217.3</ele><time>2026-08-01T18:29:21Z</time></trkpt>
<trkpt lat="35.167538" lon="-85.118859"><ele>218.5</ele><time>2026-08-01T18:29:23Z</time></trkpt>
<trkpt lat="35.167503" lon="-85.118837"><ele>218.8</ele><time>2026-08-01T18:29:26Z</time></trkpt>
<trkpt lat="35.167466" lon="-85.118819"><ele>220.1</ele><time>2026-08-01T18:29:29Z</time></trkpt>
<trkpt lat="35.167432" lon="-85.118807"><ele>220.4</ele><time>2026-08-01T18:29:32Z</time></trkpt>
<trkpt lat="35.167399" lon="-85.118816"><ele>220.7</ele><time>2026-08-01T18:29:35Z</time></trkpt>
<trkpt lat="35.167369" lon="-85.118838"><ele>219.2</ele><time>2026-08-01T18:29:38Z</time></trkpt>
<trkpt lat="35.167328" lon="-85.118847"><ele>219.5</ele><time>2026-08-01T18:29:41Z</time></trkpt>
<trkpt lat="35.167301" lon="-85.118859"><ele>219.5</ele><time>2026-08-01T18:29:43Z</time></trkpt>
<trkpt lat="35.167265" lon="-85.118874"><ele>218.5</ele><time>2026-08-01T18:29:46Z</time></trkpt>
<trkpt lat="35.167237" lon="-85.118888"><ele>217.9</ele><time>2026-08-01T18:29:49Z</time></trkpt>
<trkpt lat="35.167223" lon="-85.118918"><ele>218.5</ele><time>2026-08-01T18:29:51Z</time></trkpt>
<trkpt lat="35.167189" lon="-85.118934"><ele>216.7</ele><time>2026-08-01T18:29:54Z</time></trkpt>
<trkpt lat="35.167155" lon="-85.118938"><ele>216.4</ele><time>2026-08-01T18:29:56Z</time></trkpt>
<trkpt lat="35.167121" lon="-85.11895"><ele>216.7</ele><time>2026-08-01T18:29:58Z</time></trkpt>
<trkpt lat="35.167093" lon="-85.118978"><ele>214.9</ele><time>2026-08-01T18:30:01Z</time></trkpt>
<trkpt lat="35.167064" lon="-85.118992"><ele>214.6</ele><time>2026-08-01T18:30:03Z</time></trkpt>
<trkpt lat="35.16703" lon="-85.119018"><ele>214.0</ele><time>2026-08-01T18:30:06Z</time></trkpt>
<trkpt lat="35.166998" lon="-85.119036"><ele>214.0</ele><time>2026-08-01T18:30:09Z</time></trkpt>
<trkpt lat="35.16697" lon="-85.119039"><ele>214.6</ele><time>2026-08-01T18:30:11Z</time></trkpt>
<trkpt lat="35.166941" lon="-85.119051"><ele>214.6</ele><time>2026-08-01T18:30:13Z</time></trkpt>
<trkpt lat="35.166916" lon="-85.119064"><ele>214.6</ele><time>2026-08-01T18:30:15Z</time></trkpt>
<trkpt lat="35.166889" lon="-85.119082"><ele>215.2</ele><time>2026-08-01T18:30:17Z</time></trkpt>
<trkpt lat="35.166861" lon="-85.119104"><ele>215.2</ele><time>2026-08-01T18:30:19Z</time></trkpt>
<trkpt lat="35.166837" lon="-85.119128"><ele>215.8</ele><time>2026-08-01T18:30:21Z</time></trkpt>
<trkpt lat="35.166802" lon="-85.119151"><ele>215.5</ele><time>2026-08-01T18:30:24Z</time></trkpt>
<trkpt lat="35.166769" lon="-85.119177"><ele>217.0</ele><time>2026-08-01T18:30:27Z</time></trkpt>
<trkpt lat="35.166743" lon="-85.11919"><ele>216.4</ele><time>2026-08-01T18:30:29Z</time></trkpt>
<trkpt lat="35.166713" lon="-85.119201"><ele>218.8</ele><time>2026-08-01T18:30:31Z</time></trkpt>
<trkpt lat="35.166686" lon="-85.119212"><ele>219.8</ele><time>2026-08-01T18:30:33Z</time></trkpt>
<trkpt lat="35.16666" lon="-85.119228"><ele>221.3</ele><time>2026-08-01T18:30:35Z</time></trkpt>
<trkpt lat="35.166635" lon="-85.119247"><ele>221.3</ele><time>2026-08-01T18:30:37Z</time></trkpt>
<trkpt lat="35.166613" lon="-85.119275"><ele>221.0</ele><time>2026-08-01T18:30:39Z</time></trkpt>
<trkpt lat="35.166596" lon="-85.119303"><ele>219.5</ele><time>2026-08-01T18:30:41Z</time></trkpt>
<trkpt lat="35.166561" lon="-85.119323"><ele>219.2</ele><time>2026-08-01T18:30:44Z</time></trkpt>
<trkpt lat="35.166534" lon="-85.119347"><ele>217.9</ele><time>2026-08-01T18:30:47Z</time></trkpt>
<trkpt lat="35.166506" lon="-85.119355"><ele>219.5</ele><time>2026-08-01T18:30:49Z</time></trkpt>
<trkpt lat="35.166485" lon="-85.119383"><ele>218.2</ele><time>2026-08-01T18:30:51Z</time></trkpt>
<trkpt lat="35.166463" lon="-85.119407"><ele>217.9</ele><time>2026-08-01T18:30:53Z</time></trkpt>
<trkpt lat="35.166431" lon="-85.119437"><ele>218.5</ele><time>2026-08-01T18:30:56Z</time></trkpt>
<trkpt lat="35.166416" lon="-85.119466"><ele>217.6</ele><time>2026-08-01T18:30:58Z</time></trkpt>
<trkpt lat="35.166405" lon="-85.1195"><ele>215.5</ele><time>2026-08-01T18:31:00Z</time></trkpt>
<trkpt lat="35.166396" lon="-85.11954"><ele>216.4</ele><time>2026-08-01T18:31:03Z</time></trkpt>
<trkpt lat="35.166393" lon="-85.119589"><ele>217.0</ele><time>2026-08-01T18:31:06Z</time></trkpt>
<trkpt lat="35.166394" lon="-85.119641"><ele>215.5</ele><time>2026-08-01T18:31:09Z</time></trkpt>
<trkpt lat="35.166401" lon="-85.119675"><ele>217.0</ele><time>2026-08-01T18:31:11Z</time></trkpt>
<trkpt lat="35.166413" lon="-85.119718"><ele>217.3</ele><time>2026-08-01T18:31:14Z</time></trkpt>
<trkpt lat="35.16642" lon="-85.119751"><ele>217.3</ele><time>2026-08-01T18:31:16Z</time></trkpt>
<trkpt lat="35.166434" lon="-85.119797"><ele>217.9</ele><time>2026-08-01T18:31:19Z</time></trkpt>
<trkpt lat="35.166444" lon="-85.119832"><ele>215.2</ele><time>2026-08-01T18:31:21Z</time></trkpt>
<trkpt lat="35.166452" lon="-85.119866"><ele>213.7</ele><time>2026-08-01T18:31:23Z</time></trkpt>
<trkpt lat="35.166458" lon="-85.119899"><ele>214.0</ele><time>2026-08-01T18:31:25Z</time></trkpt>
<trkpt lat="35.166464" lon="-85.119933"><ele>214.0</ele><time>2026-08-01T18:31:27Z</time></trkpt>
<trkpt lat="35.166479" lon="-85.119963"><ele>213.7</ele><time>2026-08-01T18:31:29Z</time></trkpt>
<trkpt lat="35.166495" lon="-85.119992"><ele>214.3</ele><time>2026-08-01T18:31:31Z</time></trkpt>
<trkpt lat="35.166511" lon="-85.120021"><ele>214.9</ele><time>2026-08-01T18:31:33Z</time></trkpt>
<trkpt lat="35.166534" lon="-85.120066"><ele>217.3</ele><time>2026-08-01T18:31:36Z</time></trkpt>
<trkpt lat="35.166553" lon="-85.12009"><ele>219.2</ele><time>2026-08-01T18:31:38Z</time></trkpt>
<trkpt lat="35.166575" lon="-85.12011"><ele>220.1</ele><time>2026-08-01T18:31:40Z</time></trkpt>
<trkpt lat="35.166591" lon="-85.12014"><ele>221.0</ele><time>2026-08-01T18:31:42Z</time></trkpt>
<trkpt lat="35.16661" lon="-85.120169"><ele>219.8</ele><time>2026-08-01T18:31:44Z</time></trkpt>
<trkpt lat="35.166623" lon="-85.120214"><ele>218.2</ele><time>2026-08-01T18:31:47Z</time></trkpt>
<trkpt lat="35.166626" lon="-85.120258"><ele>215.8</ele><time>2026-08-01T18:31:50Z</time></trkpt>
<trkpt lat="35.166614" lon="-85.1203"><ele>216.1</ele><time>2026-08-01T18:31:53Z</time></trkpt>
<trkpt lat="35.166606" lon="-85.120332"><ele>214.9</ele><time>2026-08-01T18:31:55Z</time></trkpt>
<trkpt lat="35.16659" lon="-85.120376"><ele>214.3</ele><time>2026-08-01T18:31:58Z</time></trkpt>
<trkpt lat="35.166565" lon="-85.120413"><ele>215.8</ele><time>2026-08-01T18:32:01Z</time></trkpt>
<trkpt lat="35.166548" lon="-85.120456"><ele>214.3</ele><time>2026-08-01T18:32:04Z</time></trkpt>
<trkpt lat="35.166531" lon="-85.120497"><ele>214.3</ele><time>2026-08-01T18:32:07Z</time></trkpt>
<trkpt lat="35.166513" lon="-85.120536"><ele>215.5</ele><time>2026-08-01T18:32:10Z</time></trkpt>
<trkpt lat="35.166503" lon="-85.120578"><ele>216.1</ele><time>2026-08-01T18:32:13Z</time></trkpt>
<trkpt lat="35.166494" lon="-85.120611"><ele>215.8</ele><time>2026-08-01T18:32:15Z</time></trkpt>
<trkpt lat="35.166475" lon="-85.120654"><ele>216.4</ele><time>2026-08-01T18:32:18Z</time></trkpt>
<trkpt lat="35.166442" lon="-85.120681"><ele>217.6</ele><time>2026-08-01T18:32:21Z</time></trkpt>
<trkpt lat="35.16642" lon="-85.120704"><ele>217.9</ele><time>2026-08-01T18:32:23Z</time></trkpt>
<trkpt lat="35.166401" lon="-85.120728"><ele>218.5</ele><time>2026-08-01T18:32:25Z</time></trkpt>
<trkpt lat="35.166367" lon="-85.120754"><ele>217.6</ele><time>2026-08-01T18:32:28Z</time></trkpt>
<trkpt lat="35.166331" lon="-85.12078"><ele>216.4</ele><time>2026-08-01T18:32:31Z</time></trkpt>
<trkpt lat="35.166309" lon="-85.1208"><ele>217.0</ele><time>2026-08-01T18:32:33Z</time></trkpt>
<trkpt lat="35.166285" lon="-85.120816"><ele>216.7</ele><time>2026-08-01T18:32:35Z</time></trkpt>
<trkpt lat="35.166262" lon="-85.120837"><ele>215.5</ele><time>2026-08-01T18:32:37Z</time></trkpt>
<trkpt lat="35.166242" lon="-85.120864"><ele>216.4</ele><time>2026-08-01T18:32:39Z</time></trkpt>
<trkpt lat="35.166222" lon="-85.120887"><ele>217.3</ele><time>2026-08-01T18:32:41Z</time></trkpt>
<trkpt lat="35.166197" lon="-85.120907"><ele>217.3</ele><time>2026-08-01T18:32:43Z</time></trkpt>
<trkpt lat="35.16617" lon="-85.120916"><ele>217.9</ele><time>2026-08-01T18:32:45Z</time></trkpt>
<trkpt lat="35.166142" lon="-85.12092"><ele>218.2</ele><time>2026-08-01T18:32:47Z</time></trkpt>
<trkpt lat="35.166112" lon="-85.12091"><ele>216.7</ele><time>2026-08-01T18:32:49Z</time></trkpt>
<trkpt lat="35.166088" lon="-85.120892"><ele>215.2</ele><time>2026-08-01T18:32:51Z</time></trkpt>
<trkpt lat="35.166057" lon="-85.120873"><ele>215.2</ele><time>2026-08-01T18:32:54Z</time></trkpt>
<trkpt lat="35.166026" lon="-85.120838"><ele>214.0</ele><time>2026-08-01T18:32:57Z</time></trkpt>
<trkpt lat="35.166005" lon="-85.120811"><ele>213.4</ele><time>2026-08-01T18:32:59Z</time></trkpt>
<trkpt lat="35.165984" lon="-85.120786"><ele>214.3</ele><time>2026-08-01T18:33:01Z</time></trkpt>
<trkpt lat="35.165959" lon="-85.120772"><ele>214.6</ele><time>2026-08-01T18:33:03Z</time></trkpt>
<trkpt lat="35.165923" lon="-85.120755"><ele>215.2</ele><time>2026-08-01T18:33:06Z</time></trkpt>
<trkpt lat="35.165898" lon="-85.120735"><ele>214.3</ele><time>2026-08-01T18:33:08Z</time></trkpt>
<trkpt lat="35.165872" lon="-85.120718"><ele>214.3</ele><time>2026-08-01T18:33:10Z</time></trkpt>
<trkpt lat="35.165845" lon="-85.120706"><ele>214.3</ele><time>2026-08-01T18:33:12Z</time></trkpt>
<trkpt lat="35.165805" lon="-85.120697"><ele>215.8</ele><time>2026-08-01T18:33:15Z</time></trkpt>
<trkpt lat="35.165777" lon="-85.120698"><ele>216.4</ele><time>2026-08-01T18:33:17Z</time></trkpt>
<trkpt lat="35.165749" lon="-85.120704"><ele>215.5</ele><time>2026-08-01T18:33:19Z</time></trkpt>
<trkpt lat="35.165721" lon="-85.120709"><ele>216.7</ele><time>2026-08-01T18:33:21Z</time></trkpt>
<trkpt lat="35.165691" lon="-85.120722"><ele>218.2</ele><time>2026-08-01T18:33:23Z</time></trkpt>
<trkpt lat="35.165662" lon="-85.120716"><ele>217.6</ele><time>2026-08-01T18:33:25Z</time></trkpt>
<trkpt lat="35.165634" lon="-85.120716"><ele>216.7</ele><time>2026-08-01T18:33:27Z</time></trkpt>
<trkpt lat="35.165605" lon="-85.120712"><ele>215.8</ele><time>2026-08-01T18:33:29Z</time></trkpt>
<trkpt lat="35.165566" lon="-85.120701"><ele>217.3</ele><time>2026-08-01T18:33:32Z</time></trkpt>
<trkpt lat="35.165529" lon="-85.120683"><ele>218.2</ele><time>2026-08-01T18:33:35Z</time></trkpt>
<trkpt lat="35.165492" lon="-85.120659"><ele>216.7</ele><time>2026-08-01T18:33:38Z</time></trkpt>
<trkpt lat="35.165466" lon="-85.120641"><ele>216.1</ele><time>2026-08-01T18:33:40Z</time></trkpt>
<trkpt lat="35.16544" lon="-85.120622"><ele>216.1</ele><time>2026-08-01T18:33:42Z</time></trkpt>
<trkpt lat="35.165415" lon="-85.1206"><ele>214.3</ele><time>2026-08-01T18:33:44Z</time></trkpt>
<trkpt lat="35.165395" lon="-85.12057"><ele>214.3</ele><time>2026-08-01T18:33:46Z</time></trkpt>
<trkpt lat="35.165373" lon="-85.120545"><ele>214.6</ele><time>2026-08-01T18:33:48Z</time></trkpt>
<trkpt lat="35.165349" lon="-85.120526"><ele>214.9</ele><time>2026-08-01T18:33:50Z</time></trkpt>
<trkpt lat="35.165324" lon="-85.120508"><ele>214.6</ele><time>2026-08-01T18:33:52Z</time></trkpt>
<trkpt lat="35.165299" lon="-85.120488"><ele>216.1</ele><time>2026-08-01T18:33:54Z</time></trkpt>
<trkpt lat="35.165271" lon="-85.120473"><ele>215.8</ele><time>2026-08-01T18:33:56Z</time></trkpt>
<trkpt lat="35.165239" lon="-85.120477"><ele>216.4</ele><time>2026-08-01T18:33:58Z</time></trkpt>
<trkpt lat="35.165213" lon="-85.120496"><ele>215.5</ele><time>2026-08-01T18:34:00Z</time></trkpt>
<trkpt lat="35.165184" lon="-85.120503"><ele>215.5</ele><time>2026-08-01T18:34:02Z</time></trkpt>
<trkpt lat="35.165156" lon="-85.120516"><ele>214.6</ele><time>2026-08-01T18:34:04Z</time></trkpt>
<trkpt lat="35.165128" lon="-85.12053"><ele>214.9</ele><time>2026-08-01T18:34:06Z</time></trkpt>
<trkpt lat="35.165104" lon="-85.120549"><ele>215.2</ele><time>2026-08-01T18:34:08Z</time></trkpt>
<trkpt lat="35.165075" lon="-85.12056"><ele>215.2</ele><time>2026-08-01T18:34:10Z</time></trkpt>
<trkpt lat="35.165047" lon="-85.120577"><ele>214.6</ele><time>2026-08-01T18:34:12Z</time></trkpt>
<trkpt lat="35.16502" lon="-85.120593"><ele>213.1</ele><time>2026-08-01T18:34:14Z</time></trkpt>
<trkpt lat="35.164995" lon="-85.120613"><ele>213.1</ele><time>2026-08-01T18:34:16Z</time></trkpt>
<trkpt lat="35.164966" lon="-85.120628"><ele>213.4</ele><time>2026-08-01T18:34:18Z</time></trkpt>
<trkpt lat="35.164945" lon="-85.120655"><ele>214.0</ele><time>2026-08-01T18:34:20Z</time></trkpt>
<trkpt lat="35.164917" lon="-85.120668"><ele>214.6</ele><time>2026-08-01T18:34:22Z</time></trkpt>
<trkpt lat="35.164888" lon="-85.120673"><ele>214.0</ele><time>2026-08-01T18:34:24Z</time></trkpt>
<trkpt lat="35.16486" lon="-85.120682"><ele>213.4</ele><time>2026-08-01T18:34:26Z</time></trkpt>
<trkpt lat="35.164832" lon="-85.120677"><ele>215.2</ele><time>2026-08-01T18:34:28Z</time></trkpt>
<trkpt lat="35.164796" lon="-85.120692"><ele>216.1</ele><time>2026-08-01T18:34:31Z</time></trkpt>
<trkpt lat="35.164761" lon="-85.12071"><ele>214.9</ele><time>2026-08-01T18:34:34Z</time></trkpt>
<trkpt lat="35.164742" lon="-85.120737"><ele>216.4</ele><time>2026-08-01T18:34:36Z</time></trkpt>
<trkpt lat="35.164732" lon="-85.120774"><ele>216.1</ele><time>2026-08-01T18:34:38Z</time></trkpt>
<trkpt lat="35.164699" lon="-85.120797"><ele>214.9</ele><time>2026-08-01T18:34:41Z</time></trkpt>
<trkpt lat="35.164672" lon="-85.12082"><ele>215.8</ele><time>2026-08-01T18:34:43Z</time></trkpt>
<trkpt lat="35.164647" lon="-85.120837"><ele>215.8</ele><time>2026-08-01T18:34:45Z</time></trkpt>
<trkpt lat="35.164619" lon="-85.120867"><ele>214.6</ele><time>2026-08-01T18:34:47Z</time></trkpt>
<trkpt lat="35.164592" lon="-85.120878"><ele>214.6</ele><time>2026-08-01T18:34:49Z</time></trkpt>
<trkpt lat="35.164553" lon="-85.120888"><ele>214.3</ele><time>2026-08-01T18:34:52Z</time></trkpt>
<trkpt lat="35.164525" lon="-85.120895"><ele>214.6</ele><time>2026-08-01T18:34:54Z</time></trkpt>
<trkpt lat="35.164498" lon="-85.120912"><ele>215.8</ele><time>2026-08-01T18:34:56Z</time></trkpt>
<trkpt lat="35.164475" lon="-85.12093"><ele>214.6</ele><time>2026-08-01T18:34:58Z</time></trkpt>
<trkpt lat="35.164439" lon="-85.120959"><ele>212.1</ele><time>2026-08-01T18:35:01Z</time></trkpt>
<trkpt lat="35.164416" lon="-85.120983"><ele>210.9</ele><time>2026-08-01T18:35:03Z</time></trkpt>
<trkpt lat="35.164391" lon="-85.121004"><ele>212.4</ele><time>2026-08-01T18:35:05Z</time></trkpt>
<trkpt lat="35.164362" lon="-85.121013"><ele>213.4</ele><time>2026-08-01T18:35:07Z</time></trkpt>
<trkpt lat="35.164331" lon="-85.121017"><ele>212.4</ele><time>2026-08-01T18:35:09Z</time></trkpt>
<trkpt lat="35.164304" lon="-85.121003"><ele>212.4</ele><time>2026-08-01T18:35:11Z</time></trkpt>
<trkpt lat="35.164277" lon="-85.120997"><ele>213.7</ele><time>2026-08-01T18:35:13Z</time></trkpt>
<trkpt lat="35.164235" lon="-85.121005"><ele>212.4</ele><time>2026-08-01T18:35:16Z</time></trkpt>
<trkpt lat="35.164204" lon="-85.121011"><ele>213.1</ele><time>2026-08-01T18:35:18Z</time></trkpt>
<trkpt lat="35.164176" lon="-85.121017"><ele>212.8</ele><time>2026-08-01T18:35:20Z</time></trkpt>
<trkpt lat="35.164148" lon="-85.121023"><ele>212.4</ele><time>2026-08-01T18:35:22Z</time></trkpt>
<trkpt lat="35.164121" lon="-85.121033"><ele>211.8</ele><time>2026-08-01T18:35:24Z</time></trkpt>
<trkpt lat="35.16409" lon="-85.121022"><ele>212.8</ele><time>2026-08-01T18:35:26Z</time></trkpt>
<trkpt lat="35.164057" lon="-85.121017"><ele>212.4</ele><time>2026-08-01T18:35:28Z</time></trkpt>
<trkpt lat="35.164028" lon="-85.121009"><ele>212.1</ele><time>2026-08-01T18:35:30Z</time></trkpt>
<trkpt lat="35.164" lon="-85.121"><ele>212.8</ele><time>2026-08-01T18:35:32Z</time></trkpt>
<trkpt lat="35.163971" lon="-85.121015"><ele>212.8</ele><time>2026-08-01T18:35:34Z</time></trkpt>
<trkpt lat="35.163946" lon="-85.121032"><ele>213.4</ele><time>2026-08-01T18:35:36Z</time></trkpt>
<trkpt lat="35.163911" lon="-85.121059"><ele>212.4</ele><time>2026-08-01T18:35:39Z</time></trkpt>
<trkpt lat="35.163887" lon="-85.121084"><ele>212.1</ele><time>2026-08-01T18:35:41Z</time></trkpt>
<trkpt lat="35.163866" lon="-85.121113"><ele>210.6</ele><time>2026-08-01T18:35:43Z</time></trkpt>
<trkpt lat="35.163838" lon="-85.12113"><ele>212.1</ele><time>2026-08-01T18:35:45Z</time></trkpt>
<trkpt lat="35.163807" lon="-85.121133"><ele>211.5</ele><time>2026-08-01T18:35:47Z</time></trkpt>
<trkpt lat="35.16378" lon="-85.121143"><ele>214.0</ele><time>2026-08-01T18:35:49Z</time></trkpt>
<trkpt lat="35.163755" lon="-85.121162"><ele>214.9</ele><time>2026-08-01T18:35:51Z</time></trkpt>
<trkpt lat="35.163721" lon="-85.121185"><ele>213.7</ele><time>2026-08-01T18:35:54Z</time></trkpt>
<trkpt lat="35.163696" lon="-85.121201"><ele>214.3</ele><time>2026-08-01T18:35:56Z</time></trkpt>
<trkpt lat="35.163672" lon="-85.121222"><ele>213.4</ele><time>2026-08-01T18:35:58Z</time></trkpt>
<trkpt lat="35.163648" lon="-85.121245"><ele>211.8</ele><time>2026-08-01T18:36:00Z</time></trkpt>
<trkpt lat="35.163618" lon="-85.121257"><ele>211.8</ele><time>2026-08-01T18:36:02Z</time></trkpt>
<trkpt lat="35.163587" lon="-85.121269"><ele>212.8</ele><time>2026-08-01T18:36:04Z</time></trkpt>
<trkpt lat="35.163555" lon="-85.121278"><ele>214.0</ele><time>2026-08-01T18:36:06Z</time></trkpt>
<trkpt lat="35.163524" lon="-85.121288"><ele>214.0</ele><time>2026-08-01T18:36:08Z</time></trkpt>
<trkpt lat="35.163498" lon="-85.121302"><ele>214.3</ele><time>2026-08-01T18:36:10Z</time></trkpt>
<trkpt lat="35.163471" lon="-85.121319"><ele>216.4</ele><time>2026-08-01T18:36:12Z</time></trkpt>
<trkpt lat="35.163443" lon="-85.121334"><ele>216.7</ele><time>2026-08-01T18:36:14Z</time></trkpt>
<trkpt lat="35.163415" lon="-85.121349"><ele>218.2</ele><time>2026-08-01T18:36:16Z</time></trkpt>
<trkpt lat="35.163387" lon="-85.121362"><ele>218.5</ele><time>2026-08-01T18:36:18Z</time></trkpt>
<trkpt lat="35.163351" lon="-85.121376"><ele>217.3</ele><time>2026-08-01T18:36:21Z</time></trkpt>
<trkpt lat="35.163324" lon="-85.121393"><ele>216.4</ele><time>2026-08-01T18:36:23Z</time></trkpt>
<trkpt lat="35.163299" lon="-85.12141"><ele>216.7</ele><time>2026-08-01T18:36:25Z</time></trkpt>
<trkpt lat="35.163265" lon="-85.121436"><ele>216.4</ele><time>2026-08-01T18:36:28Z</time></trkpt>
<trkpt lat="35.163228" lon="-85.121452"><ele>217.0</ele><time>2026-08-01T18:36:31Z</time></trkpt>
<trkpt lat="35.163201" lon="-85.121459"><ele>217.3</ele><time>2026-08-01T18:36:33Z</time></trkpt>
<trkpt lat="35.163165" lon="-85.12147"><ele>216.7</ele><time>2026-08-01T18:36:36Z</time></trkpt>
<trkpt lat="35.163139" lon="-85.12148"><ele>216.4</ele><time>2026-08-01T18:36:38Z</time></trkpt>
<trkpt lat="35.163118" lon="-85.121503"><ele>215.8</ele><time>2026-08-01T18:36:40Z</time></trkpt>
<trkpt lat="35.163081" lon="-85.121512"><ele>214.9</ele><time>2026-08-01T18:36:43Z</time></trkpt>
<trkpt lat="35.163051" lon="-85.121527"><ele>214.9</ele><time>2026-08-01T18:36:46Z</time></trkpt>
<trkpt lat="35.163023" lon="-85.121544"><ele>214.0</ele><time>2026-08-01T18:36:49Z</time></trkpt>
<trkpt lat="35.162986" lon="-85.121559"><ele>213.4</ele><time>2026-08-01T18:36:52Z</time></trkpt>
<trkpt lat="35.162958" lon="-85.121562"><ele>213.4</ele><time>2026-08-01T18:36:54Z</time></trkpt>
<trkpt lat="35.162927" lon="-85.121568"><ele>213.1</ele><time>2026-08-01T18:36:56Z</time></trkpt>
<trkpt lat="35.162898" lon="-85.121584"><ele>214.6</ele><time>2026-08-01T18:36:58Z</time></trkpt>
<trkpt lat="35.162872" lon="-85.12162"><ele>215.5</ele><time>2026-08-01T18:37:00Z</time></trkpt>
<trkpt lat="35.162864" lon="-85.121657"><ele>214.3</ele><time>2026-08-01T18:37:02Z</time></trkpt>
<trkpt lat="35.16286" lon="-85.121698"><ele>214.9</ele><time>2026-08-01T18:37:04Z</time></trkpt>
<trkpt lat="35.162861" lon="-85.121737"><ele>214.9</ele><time>2026-08-01T18:37:06Z</time></trkpt>
<trkpt lat="35.162859" lon="-85.121786"><ele>213.7</ele><time>2026-08-01T18:37:09Z</time></trkpt>
<trkpt lat="35.16286" lon="-85.121823"><ele>213.4</ele><time>2026-08-01T18:37:11Z</time></trkpt>
<trkpt lat="35.162867" lon="-85.121861"><ele>213.1</ele><time>2026-08-01T18:37:13Z</time></trkpt>
<trkpt lat="35.16287" lon="-85.121897"><ele>211.8</ele><time>2026-08-01T18:37:15Z</time></trkpt>
<trkpt lat="35.162852" lon="-85.121931"><ele>213.4</ele><time>2026-08-01T18:37:17Z</time></trkpt>
<trkpt lat="35.162843" lon="-85.121969"><ele>212.8</ele><time>2026-08-01T18:37:19Z</time></trkpt>
<trkpt lat="35.162835" lon="-85.122005"><ele>211.8</ele><time>2026-08-01T18:37:21Z</time></trkpt>
<trkpt lat="35.162825" lon="-85.122038"><ele>212.1</ele><time>2026-08-01T18:37:23Z</time></trkpt>
<trkpt lat="35.162826" lon="-85.122073"><ele>213.4</ele><time>2026-08-01T18:37:25Z</time></trkpt>
<trkpt lat="35.162824" lon="-85.122115"><ele>210.3</ele><time>2026-08-01T18:37:28Z</time></trkpt>
<trkpt lat="35.162825" lon="-85.122159"><ele>212.1</ele><time>2026-08-01T18:37:31Z</time></trkpt>
<trkpt lat="35.162828" lon="-85.122193"><ele>211.2</ele><time>2026-08-01T18:37:33Z</time></trkpt>
<trkpt lat="35.162833" lon="-85.122227"><ele>210.9</ele><time>2026-08-01T18:37:35Z</time></trkpt>
<trkpt lat="35.162832" lon="-85.122275"><ele>210.3</ele><time>2026-08-01T18:37:38Z</time></trkpt>
<trkpt lat="35.162822" lon="-85.12232"><ele>210.3</ele><time>2026-08-01T18:37:41Z</time></trkpt>
<trkpt lat="35.16282" lon="-85.122365"><ele>211.2</ele><time>2026-08-01T18:37:44Z</time></trkpt>
<trkpt lat="35.162811" lon="-85.122412"><ele>211.5</ele><time>2026-08-01T18:37:47Z</time></trkpt>
<trkpt lat="35.1628" lon="-85.122461"><ele>212.1</ele><time>2026-08-01T18:37:50Z</time></trkpt>
<trkpt lat="35.162806" lon="-85.122509"><ele>212.4</ele><time>2026-08-01T18:37:53Z</time></trkpt>
<trkpt lat="35.162809" lon="-85.122557"><ele>212.1</ele><time>2026-08-01T18:37:56Z</time></trkpt>
<trkpt lat="35.162811" lon="-85.122602"><ele>211.8</ele><time>2026-08-01T18:37:59Z</time></trkpt>
<trkpt lat="35.162802" lon="-85.122647"><ele>212.8</ele><time>2026-08-01T18:38:02Z</time></trkpt>
<trkpt lat="35.162778" lon="-85.122688"><ele>213.1</ele><time>2026-08-01T18:38:05Z</time></trkpt>
<trkpt lat="35.162761" lon="-85.122728"><ele>213.4</ele><time>2026-08-01T18:38:08Z</time></trkpt>
<trkpt lat="35.162763" lon="-85.122778"><ele>212.8</ele><time>2026-08-01T18:38:11Z</time></trkpt>
<trkpt lat="35.162771" lon="-85.122812"><ele>212.8</ele><time>2026-08-01T18:38:13Z</time></trkpt>
<trkpt lat="35.162782" lon="-85.122847"><ele>212.1</ele><time>2026-08-01T18:38:15Z</time></trkpt>
<trkpt lat="35.162802" lon="-85.122889"><ele>214.6</ele><time>2026-08-01T18:38:18Z</time></trkpt>
<trkpt lat="35.16282" lon="-85.122915"><ele>214.9</ele><time>2026-08-01T18:38:20Z</time></trkpt>
<trkpt lat="35.16283" lon="-85.122949"><ele>216.4</ele><time>2026-08-01T18:38:22Z</time></trkpt>
<trkpt lat="35.162843" lon="-85.122983"><ele>215.8</ele><time>2026-08-01T18:38:24Z</time></trkpt>
<trkpt lat="35.162846" lon="-85.123018"><ele>214.6</ele><time>2026-08-01T18:38:26Z</time></trkpt>
<trkpt lat="35.16286" lon="-85.123049"><ele>213.7</ele><time>2026-08-01T18:38:28Z</time></trkpt>
<trkpt lat="35.162855" lon="-85.123099"><ele>214.3</ele><time>2026-08-01T18:38:31Z</time></trkpt>
<trkpt lat="35.162849" lon="-85.123141"><ele>213.7</ele><time>2026-08-01T18:38:34Z</time></trkpt>
<trkpt lat="35.162832" lon="-85.123173"><ele>214.0</ele><time>2026-08-01T18:38:37Z</time></trkpt>
<trkpt lat="35.162819" lon="-85.123204"><ele>213.4</ele><time>2026-08-01T18:38:40Z</time></trkpt>
<trkpt lat="35.162815" lon="-85.123248"><ele>214.0</ele><time>2026-08-01T18:38:43Z</time></trkpt>
<trkpt lat="35.16281" lon="-85.123291"><ele>215.2</ele><time>2026-08-01T18:38:46Z</time></trkpt>
<trkpt lat="35.162798" lon="-85.123337"><ele>213.1</ele><time>2026-08-01T18:38:49Z</time></trkpt>
<trkpt lat="35.162786" lon="-85.123383"><ele>210.6</ele><time>2026-08-01T18:38:52Z</time></trkpt>
<trkpt lat="35.162752" lon="-85.123416"><ele>212.1</ele><time>2026-08-01T18:38:55Z</time></trkpt>
<trkpt lat="35.162732" lon="-85.123439"><ele>213.1</ele><time>2026-08-01T18:38:57Z</time></trkpt>
<trkpt lat="35.162708" lon="-85.123461"><ele>214.0</ele><time>2026-08-01T18:38:59Z</time></trkpt>
<trkpt lat="35.162683" lon="-85.123481"><ele>214.3</ele><time>2026-08-01T18:39:01Z</time></trkpt>
<trkpt lat="35.162664" lon="-85.123505"><ele>214.3</ele><time>2026-08-01T18:39:03Z</time></trkpt>
<trkpt lat="35.162641" lon="-85.123527"><ele>214.3</ele><time>2026-08-01T18:39:05Z</time></trkpt>
<trkpt lat="35.162619" lon="-85.123551"><ele>214.3</ele><time>2026-08-01T18:39:07Z</time></trkpt>
<trkpt lat="35.162598" lon="-85.123575"><ele>213.7</ele><time>2026-08-01T18:39:09Z</time></trkpt>
<trkpt lat="35.162576" lon="-85.123595"><ele>213.1</ele><time>2026-08-01T18:39:11Z</time></trkpt>
<trkpt lat="35.162555" lon="-85.123617"><ele>213.4</ele><time>2026-08-01T18:39:13Z</time></trkpt>
<trkpt lat="35.162528" lon="-85.123653"><ele>214.3</ele><time>2026-08-01T18:39:16Z</time></trkpt>
<trkpt lat="35.162496" lon="-85.123677"><ele>214.9</ele><time>2026-08-01T18:39:19Z</time></trkpt>
<trkpt lat="35.162464" lon="-85.123693"><ele>214.6</ele><time>2026-08-01T18:39:22Z</time></trkpt>
<trkpt lat="35.162444" lon="-85.123732"><ele>214.6</ele><time>2026-08-01T18:39:25Z</time></trkpt>
<trkpt lat="35.162423" lon="-85.123768"><ele>214.3</ele><time>2026-08-01T18:39:28Z</time></trkpt>
<trkpt lat="35.162407" lon="-85.123813"><ele>215.5</ele><time>2026-08-01T18:39:31Z</time></trkpt>
<trkpt lat="35.162386" lon="-85.123837"><ele>214.9</ele><time>2026-08-01T18:39:33Z</time></trkpt>
<trkpt lat="35.162363" lon="-85.123865"><ele>214.6</ele><time>2026-08-01T18:39:36Z</time></trkpt>
<trkpt lat="35.162332" lon="-85.123882"><ele>215.2</ele><time>2026-08-01T18:39:39Z</time></trkpt>
<trkpt lat="35.162326" lon="-85.123889"><ele>215.2</ele><time>2026-08-01T18:39:40Z</time></trkpt>
<trkpt lat="35.162333" lon="-85.123893"><ele>214.6</ele><time>2026-08-01T18:39:41Z</time></trkpt>
<trkpt lat="35.162337" lon="-85.123894"><ele>214.6</ele><time>2026-08-01T18:39:42Z</time></trkpt>
<trkpt lat="35.162335" lon="-85.12391"><ele>214.9</ele><time>2026-08-01T18:39:43Z</time></trkpt>
<trkpt lat="35.162304" lon="-85.123895"><ele>216.4</ele><time>2026-08-01T18:39:46Z</time></trkpt>
<trkpt lat="35.162296" lon="-85.123857"><ele>216.7</ele><time>2026-08-01T18:39:48Z</time></trkpt>
<trkpt lat="35.162284" lon="-85.123822"><ele>217.6</ele><time>2026-08-01T18:39:51Z</time></trkpt>
<trkpt lat="35.162261" lon="-85.123795"><ele>217.3</ele><time>2026-08-01T18:39:54Z</time></trkpt>
<trkpt lat="35.162239" lon="-85.123765"><ele>216.4</ele><time>2026-08-01T18:39:57Z</time></trkpt>
<trkpt lat="35.16222" lon="-85.12373"><ele>215.8</ele><time>2026-08-01T18:40:00Z</time></trkpt>
<trkpt lat="35.16219" lon="-85.123695"><ele>217.6</ele><time>2026-08-01T18:40:03Z</time></trkpt>
<trkpt lat="35.162169" lon="-85.123657"><ele>217.0</ele><time>2026-08-01T18:40:06Z</time></trkpt>
<trkpt lat="35.16214" lon="-85.123622"><ele>215.8</ele><time>2026-08-01T18:40:09Z</time></trkpt>
<trkpt lat="35.162121" lon="-85.123592"><ele>216.1</ele><time>2026-08-01T18:40:11Z</time></trkpt>
<trkpt lat="35.162103" lon="-85.123561"><ele>215.8</ele><time>2026-08-01T18:40:13Z</time></trkpt>
<trkpt lat="35.162083" lon="-85.123539"><ele>216.7</ele><time>2026-08-01T18:40:15Z</time></trkpt>
<trkpt lat="35.162051" lon="-85.123507"><ele>216.4</ele><time>2026-08-01T18:40:18Z</time></trkpt>
<trkpt lat="35.162024" lon="-85.123486"><ele>216.4</ele><time>2026-08-01T18:40:20Z</time></trkpt>
<trkpt lat="35.162003" lon="-85.123463"><ele>216.4</ele><time>2026-08-01T18:40:22Z</time></trkpt>
<trkpt lat="35.161973" lon="-85.123439"><ele>216.4</ele><time>2026-08-01T18:40:25Z</time></trkpt>
<trkpt lat="35.161949" lon="-85.123421"><ele>215.8</ele><time>2026-08-01T18:40:27Z</time></trkpt>
<trkpt lat="35.161925" lon="-85.123402"><ele>215.5</ele><time>2026-08-01T18:40:29Z</time></trkpt>
<trkpt lat="35.161905" lon="-85.123378"><ele>216.4</ele><time>2026-08-01T18:40:31Z</time></trkpt>
<trkpt lat="35.161881" lon="-85.12336"><ele>214.3</ele><time>2026-08-01T18:40:33Z</time></trkpt>
<trkpt lat="35.161856" lon="-85.123329"><ele>213.7</ele><time>2026-08-01T18:40:36Z</time></trkpt>
<trkpt lat="35.161818" lon="-85.12331"><ele>214.3</ele><time>2026-08-01T18:40:39Z</time></trkpt>
<trkpt lat="35.161791" lon="-85.123302"><ele>215.5</ele><time>2026-08-01T18:40:41Z</time></trkpt>
<trkpt lat="35.161764" lon="-85.123296"><ele>214.9</ele><time>2026-08-01T18:40:43Z</time></trkpt>
<trkpt lat="35.161725" lon="-85.123288"><ele>216.7</ele><time>2026-08-01T18:40:46Z</time></trkpt>
<trkpt lat="35.161688" lon="-85.123275"><ele>216.7</ele><time>2026-08-01T18:40:49Z</time></trkpt>
<trkpt lat="35.161654" lon="-85.12325"><ele>214.9</ele><time>2026-08-01T18:40:52Z</time></trkpt>
<trkpt lat="35.16163" lon="-85.123218"><ele>215.5</ele><time>2026-08-01T18:40:55Z</time></trkpt>
<trkpt lat="35.161607" lon="-85.123178"><ele>216.1</ele><time>2026-08-01T18:40:58Z</time></trkpt>
<trkpt lat="35.161586" lon="-85.123142"><ele>215.2</ele><time>2026-08-01T18:41:01Z</time></trkpt>
<trkpt lat="35.161556" lon="-85.123115"><ele>216.1</ele><time>2026-08-01T18:41:04Z</time></trkpt>
<trkpt lat="35.16152" lon="-85.123103"><ele>217.6</ele><time>2026-08-01T18:41:07Z</time></trkpt>
<trkpt lat="35.161482" lon="-85.123105"><ele>218.8</ele><time>2026-08-01T18:41:10Z</time></trkpt>
<trkpt lat="35.161444" lon="-85.123117"><ele>219.5</ele><time>2026-08-01T18:41:13Z</time></trkpt>
<trkpt lat="35.161408" lon="-85.123136"><ele>219.8</ele><time>2026-08-01T18:41:16Z</time></trkpt>
<trkpt lat="35.161372" lon="-85.12315"><ele>219.5</ele><time>2026-08-01T18:41:19Z</time></trkpt>
<trkpt lat="35.16134" lon="-85.123147"><ele>219.2</ele><time>2026-08-01T18:41:21Z</time></trkpt>
<trkpt lat="35.161312" lon="-85.123129"><ele>219.5</ele><time>2026-08-01T18:41:23Z</time></trkpt>
<trkpt lat="35.161289" lon="-85.123108"><ele>219.5</ele><time>2026-08-01T18:41:25Z</time></trkpt>
<trkpt lat="35.161274" lon="-85.123078"><ele>219.8</ele><time>2026-08-01T18:41:27Z</time></trkpt>
<trkpt lat="35.161261" lon="-85.123037"><ele>220.1</ele><time>2026-08-01T18:41:30Z</time></trkpt>
<trkpt lat="35.161253" lon="-85.122997"><ele>220.4</ele><time>2026-08-01T18:41:33Z</time></trkpt>
<trkpt lat="35.161238" lon="-85.122958"><ele>220.4</ele><time>2026-08-01T18:41:36Z</time></trkpt>
<trkpt lat="35.161213" lon="-85.12292"><ele>220.1</ele><time>2026-08-01T18:41:39Z</time></trkpt>
<trkpt lat="35.161197" lon="-85.12288"><ele>218.8</ele><time>2026-08-01T18:41:42Z</time></trkpt>
<trkpt lat="35.1612" lon="-85.122835"><ele>218.5</ele><time>2026-08-01T18:41:45Z</time></trkpt>
<trkpt lat="35.161229" lon="-85.122818"><ele>219.2</ele><time>2026-08-01T18:41:47Z</time></trkpt>
<trkpt lat="35.161259" lon="-85.122818"><ele>219.2</ele><time>2026-08-01T18:41:49Z</time></trkpt>
<trkpt lat="35.161295" lon="-85.122808"><ele>220.1</ele><time>2026-08-01T18:41:52Z</time></trkpt>
<trkpt lat="35.161327" lon="-85.122793"><ele>221.6</ele><time>2026-08-01T18:41:55Z</time></trkpt>
<trkpt lat="35.161348" lon="-85.12277"><ele>221.9</ele><time>2026-08-01T18:41:57Z</time></trkpt>
<trkpt lat="35.161369" lon="-85.122749"><ele>221.3</ele><time>2026-08-01T18:41:59Z</time></trkpt>
<trkpt lat="35.161406" lon="-85.122737"><ele>221.9</ele><time>2026-08-01T18:42:02Z</time></trkpt>
<trkpt lat="35.161446" lon="-85.122725"><ele>220.7</ele><time>2026-08-01T18:42:05Z</time></trkpt>
<trkpt lat="35.161484" lon="-85.122708"><ele>220.1</ele><time>2026-08-01T18:42:08Z</time></trkpt>
<trkpt lat="35.161524" lon="-85.1227"><ele>219.5</ele><time>2026-08-01T18:42:11Z</time></trkpt>
<trkpt lat="35.161561" lon="-85.122685"><ele>219.8</ele><time>2026-08-01T18:42:14Z</time></trkpt>
<trkpt lat="35.161592" lon="-85.12266"><ele>219.8</ele><time>2026-08-01T18:42:17Z</time></trkpt>
<trkpt lat="35.161608" lon="-85.122632"><ele>217.9</ele><time>2026-08-01T18:42:19Z</time></trkpt>
<trkpt lat="35.161637" lon="-85.122598"><ele>216.7</ele><time>2026-08-01T18:42:22Z</time></trkpt>
<trkpt lat="35.161659" lon="-85.122574"><ele>215.8</ele><time>2026-08-01T18:42:24Z</time></trkpt>
<trkpt lat="35.161684" lon="-85.12256"><ele>215.2</ele><time>2026-08-01T18:42:26Z</time></trkpt>
<trkpt lat="35.161719" lon="-85.122543"><ele>215.5</ele><time>2026-08-01T18:42:29Z</time></trkpt>
<trkpt lat="35.161735" lon="-85.122513"><ele>215.5</ele><time>2026-08-01T18:42:31Z</time></trkpt>
<trkpt lat="35.161742" lon="-85.122476"><ele>212.8</ele><time>2026-08-01T18:42:33Z</time></trkpt>
<trkpt lat="35.161754" lon="-85.122445"><ele>213.1</ele><time>2026-08-01T18:42:35Z</time></trkpt>
<trkpt lat="35.161779" lon="-85.122428"><ele>214.3</ele><time>2026-08-01T18:42:37Z</time></trkpt>
<trkpt lat="35.161803" lon="-85.122389"><ele>214.9</ele><time>2026-08-01T18:42:40Z</time></trkpt>
<trkpt lat="35.161827" lon="-85.12237"><ele>214.9</ele><time>2026-08-01T18:42:42Z</time></trkpt>
<trkpt lat="35.161863" lon="-85.122347"><ele>214.9</ele><time>2026-08-01T18:42:45Z</time></trkpt>
<trkpt lat="35.161891" lon="-85.122335"><ele>213.4</ele><time>2026-08-01T18:42:47Z</time></trkpt>
<trkpt lat="35.161917" lon="-85.122327"><ele>214.0</ele><time>2026-08-01T18:42:49Z</time></trkpt>
<trkpt lat="35.161946" lon="-85.12233"><ele>211.5</ele><time>2026-08-01T18:42:51Z</time></trkpt>
<trkpt lat="35.161986" lon="-85.122325"><ele>210.6</ele><time>2026-08-01T18:42:54Z</time></trkpt>
<trkpt lat="35.162028" lon="-85.122332"><ele>211.2</ele><time>2026-08-01T18:42:57Z</time></trkpt>
<trkpt lat="35.162066" lon="-85.122332"><ele>211.5</ele><time>2026-08-01T18:43:00Z</time></trkpt>
<trkpt lat="35.162098" lon="-85.122322"><ele>211.8</ele><time>2026-08-01T18:43:03Z</time></trkpt>
<trkpt lat="35.162122" lon="-85.122305"><ele>213.7</ele><time>2026-08-01T18:43:05Z</time></trkpt>
<trkpt lat="35.162152" lon="-85.122287"><ele>213.7</ele><time>2026-08-01T18:43:08Z</time></trkpt>
<trkpt lat="35.162177" lon="-85.122266"><ele>214.3</ele><time>2026-08-01T18:43:11Z</time></trkpt>
<trkpt lat="35.162197" lon="-85.122238"><ele>214.3</ele><time>2026-08-01T18:43:14Z</time></trkpt>
<trkpt lat="35.162231" lon="-85.122214"><ele>211.8</ele><time>2026-08-01T18:43:17Z</time></trkpt>
<trkpt lat="35.162246" lon="-85.122184"><ele>210.9</ele><time>2026-08-01T18:43:19Z</time></trkpt>
<trkpt lat="35.162279" lon="-85.122168"><ele>210.6</ele><time>2026-08-01T18:43:21Z</time></trkpt>
<trkpt lat="35.162306" lon="-85.122151"><ele>209.7</ele><time>2026-08-01T18:43:23Z</time></trkpt>
<trkpt lat="35.162336" lon="-85.122132"><ele>213.1</ele><time>2026-08-01T18:43:26Z</time></trkpt>
<trkpt lat="35.162368" lon="-85.122124"><ele>213.7</ele><time>2026-08-01T18:43:29Z</time></trkpt>
<trkpt lat="35.162401" lon="-85.122128"><ele>212.8</ele><time>2026-08-01T18:43:32Z</time></trkpt>
<trkpt lat="35.162436" lon="-85.122123"><ele>213.4</ele><time>2026-08-01T18:43:35Z</time></trkpt>
<trkpt lat="35.162467" lon="-85.122124"><ele>212.4</ele><time>2026-08-01T18:43:37Z</time></trkpt>
<trkpt lat="35.162499" lon="-85.122127"><ele>213.4</ele><time>2026-08-01T18:43:39Z</time></trkpt>
<trkpt lat="35.162538" lon="-85.122124"><ele>214.3</ele><time>2026-08-01T18:43:42Z</time></trkpt>
<trkpt lat="35.162572" lon="-85.122107"><ele>211.5</ele><time>2026-08-01T18:43:45Z</time></trkpt>
<trkpt lat="35.162606" lon="-85.122077"><ele>210.9</ele><time>2026-08-01T18:43:48Z</time></trkpt>
<trkpt lat="35.162626" lon="-85.122033"><ele>211.8</ele><time>2026-08-01T18:43:51Z</time></trkpt>
<trkpt lat="35.162639" lon="-85.122003"><ele>211.5</ele><time>2026-08-01T18:43:53Z</time></trkpt>
<trkpt lat="35.162646" lon="-85.121956"><ele>211.2</ele><time>2026-08-01T18:43:56Z</time></trkpt>
<trkpt lat="35.162642" lon="-85.121922"><ele>211.8</ele><time>2026-08-01T18:43:58Z</time></trkpt>
<trkpt lat="35.162637" lon="-85.121888"><ele>212.1</ele><time>2026-08-01T18:44:00Z</time></trkpt>
<trkpt lat="35.162635" lon="-85.121854"><ele>212.1</ele><time>2026-08-01T18:44:02Z</time></trkpt>
<trkpt lat="35.162624" lon="-85.121804"><ele>212.4</ele><time>2026-08-01T18:44:05Z</time></trkpt>
<trkpt lat="35.162612" lon="-85.121762"><ele>210.9</ele><time>2026-08-01T18:44:08Z</time></trkpt>
<trkpt lat="35.162607" lon="-85.121727"><ele>210.6</ele><time>2026-08-01T18:44:10Z</time></trkpt>
<trkpt lat="35.162593" lon="-85.121684"><ele>210.0</ele><time>2026-08-01T18:44:13Z</time></trkpt>
<trkpt lat="35.162582" lon="-85.121639"><ele>213.1</ele><time>2026-08-01T18:44:16Z</time></trkpt>
<trkpt lat="35.16258" lon="-85.121592"><ele>212.1</ele><time>2026-08-01T18:44:19Z</time></trkpt>
<trkpt lat="35.162562" lon="-85.121564"><ele>213.1</ele><time>2026-08-01T18:44:21Z</time></trkpt>
<trkpt lat="35.162537" lon="-85.121537"><ele>212.8</ele><time>2026-08-01T18:44:23Z</time></trkpt>
<trkpt lat="35.162519" lon="-85.121491"><ele>211.2</ele><time>2026-08-01T18:44:26Z</time></trkpt>
<trkpt lat="35.162518" lon="-85.121452"><ele>212.8</ele><time>2026-08-01T18:44:28Z</time></trkpt>
<trkpt lat="35.162529" lon="-85.121414"><ele>215.2</ele><time>2026-08-01T18:44:30Z</time></trkpt>
<trkpt lat="35.162518" lon="-85.12138"><ele>216.7</ele><time>2026-08-01T18:44:32Z</time></trkpt>
<trkpt lat="35.162501" lon="-85.121349"><ele>217.9</ele><time>2026-08-01T18:44:34Z</time></trkpt>
<trkpt lat="35.162501" lon="-85.121315"><ele>218.5</ele><time>2026-08-01T18:44:37Z</time></trkpt>
<trkpt lat="35.162474" lon="-85.1213"><ele>220.1</ele><time>2026-08-01T18:44:41Z</time></trkpt>
<trkpt lat="35.162445" lon="-85.121269"><ele>219.8</ele><time>2026-08-01T18:44:44Z</time></trkpt>
<trkpt lat="35.162412" lon="-85.121242"><ele>219.8</ele><time>2026-08-01T18:44:47Z</time></trkpt>
<trkpt lat="35.162379" lon="-85.121217"><ele>219.5</ele><time>2026-08-01T18:44:50Z</time></trkpt>
<trkpt lat="35.162344" lon="-85.12119"><ele>219.5</ele><time>2026-08-01T18:44:53Z</time></trkpt>
<trkpt lat="35.162317" lon="-85.121174"><ele>217.9</ele><time>2026-08-01T18:44:55Z</time></trkpt>
<trkpt lat="35.162291" lon="-85.121161"><ele>216.7</ele><time>2026-08-01T18:44:57Z</time></trkpt>
<trkpt lat="35.162262" lon="-85.121143"><ele>215.8</ele><time>2026-08-01T18:45:00Z</time></trkpt>
<trkpt lat="35.162235" lon="-85.121132"><ele>214.6</ele><time>2026-08-01T18:45:02Z</time></trkpt>
<trkpt lat="35.162207" lon="-85.121118"><ele>215.5</ele><time>2026-08-01T18:45:04Z</time></trkpt>
<trkpt lat="35.162179" lon="-85.121105"><ele>214.9</ele><time>2026-08-01T18:45:06Z</time></trkpt>
<trkpt lat="35.162154" lon="-85.121087"><ele>214.0</ele><time>2026-08-01T18:45:08Z</time></trkpt>
<trkpt lat="35.162128" lon="-85.121075"><ele>213.4</ele><time>2026-08-01T18:45:10Z</time></trkpt>
<trkpt lat="35.162088" lon="-85.121082"><ele>214.6</ele><time>2026-08-01T18:45:13Z</time></trkpt>
<trkpt lat="35.162057" lon="-85.121086"><ele>214.3</ele><time>2026-08-01T18:45:15Z</time></trkpt>
<trkpt lat="35.162029" lon="-85.121081"><ele>216.1</ele><time>2026-08-01T18:45:17Z</time></trkpt>
<trkpt lat="35.162002" lon="-85.121069"><ele>217.6</ele><time>2026-08-01T18:45:19Z</time></trkpt>
<trkpt lat="35.161977" lon="-85.121054"><ele>217.9</ele><time>2026-08-01T18:45:21Z</time></trkpt>
<trkpt lat="35.161951" lon="-85.121036"><ele>218.8</ele><time>2026-08-01T18:45:23Z</time></trkpt>
<trkpt lat="35.161928" lon="-85.121016"><ele>219.2</ele><time>2026-08-01T18:45:25Z</time></trkpt>
<trkpt lat="35.161897" lon="-85.121003"><ele>219.8</ele><time>2026-08-01T18:45:27Z</time></trkpt>
<trkpt lat="35.16187" lon="-85.12101"><ele>218.5</ele><time>2026-08-01T18:45:29Z</time></trkpt>
<trkpt lat="35.16184" lon="-85.12104"><ele>216.4</ele><time>2026-08-01T18:45:32Z</time></trkpt>
<trkpt lat="35.161808" lon="-85.121065"><ele>214.3</ele><time>2026-08-01T18:45:35Z</time></trkpt>
<trkpt lat="35.16179" lon="-85.121107"><ele>214.0</ele><time>2026-08-01T18:45:38Z</time></trkpt>
<trkpt lat="35.161763" lon="-85.121141"><ele>212.8</ele><time>2026-08-01T18:45:41Z</time></trkpt>
<trkpt lat="35.161737" lon="-85.121154"><ele>213.4</ele><time>2026-08-01T18:45:43Z</time></trkpt>
<trkpt lat="35.1617" lon="-85.121159"><ele>215.5</ele><time>2026-08-01T18:45:46Z</time></trkpt>
<trkpt lat="35.161672" lon="-85.121146"><ele>215.5</ele><time>2026-08-01T18:45:48Z</time></trkpt>
<trkpt lat="35.161647" lon="-85.121129"><ele>215.5</ele><time>2026-08-01T18:45:50Z</time></trkpt>
<trkpt lat="35.161617" lon="-85.121096"><ele>215.5</ele><time>2026-08-01T18:45:53Z</time></trkpt>
<trkpt lat="35.161597" lon="-85.12107"><ele>215.8</ele><time>2026-08-01T18:45:55Z</time></trkpt>
<trkpt lat="35.161579" lon="-85.12104"><ele>217.3</ele><time>2026-08-01T18:45:57Z</time></trkpt>
<trkpt lat="35.161567" lon="-85.121009"><ele>219.8</ele><time>2026-08-01T18:45:59Z</time></trkpt>
<trkpt lat="35.161554" lon="-85.120964"><ele>218.8</ele><time>2026-08-01T18:46:02Z</time></trkpt>
<trkpt lat="35.161535" lon="-85.120939"><ele>218.8</ele><time>2026-08-01T18:46:04Z</time></trkpt>
<trkpt lat="35.161513" lon="-85.120918"><ele>218.5</ele><time>2026-08-01T18:46:06Z</time></trkpt>
<trkpt lat="35.161481" lon="-85.120887"><ele>219.2</ele><time>2026-08-01T18:46:09Z</time></trkpt>
<trkpt lat="35.161448" lon="-85.120859"><ele>220.4</ele><time>2026-08-01T18:46:12Z</time></trkpt>
<trkpt lat="35.161421" lon="-85.120825"><ele>221.0</ele><time>2026-08-01T18:46:15Z</time></trkpt>
<trkpt lat="35.161399" lon="-85.120801"><ele>221.6</ele><time>2026-08-01T18:46:17Z</time></trkpt>
<trkpt lat="35.161395" lon="-85.120757"><ele>219.2</ele><time>2026-08-01T18:46:20Z</time></trkpt>
<trkpt lat="35.161403" lon="-85.120711"><ele>219.2</ele><time>2026-08-01T18:46:23Z</time></trkpt>
<trkpt lat="35.16141" lon="-85.120672"><ele>218.2</ele><time>2026-08-01T18:46:25Z</time></trkpt>
<trkpt lat="35.161412" lon="-85.120627"><ele>219.2</ele><time>2026-08-01T18:46:28Z</time></trkpt>
<trkpt lat="35.161412" lon="-85.120583"><ele>219.5</ele><time>2026-08-01T18:46:31Z</time></trkpt>
<trkpt lat="35.161386" lon="-85.120562"><ele>219.2</ele><time>2026-08-01T18:46:33Z</time></trkpt>
<trkpt lat="35.16136" lon="-85.120548"><ele>220.1</ele><time>2026-08-01T18:46:35Z</time></trkpt>
<trkpt lat="35.161341" lon="-85.120523"><ele>221.9</ele><time>2026-08-01T18:46:37Z</time></trkpt>
<trkpt lat="35.161312" lon="-85.12049"><ele>222.5</ele><time>2026-08-01T18:46:39Z</time></trkpt>
<trkpt lat="35.161286" lon="-85.120469"><ele>223.7</ele><time>2026-08-01T18:46:41Z</time></trkpt>
<trkpt lat="35.161263" lon="-85.12044"><ele>224.6</ele><time>2026-08-01T18:46:43Z</time></trkpt>
<trkpt lat="35.161238" lon="-85.120412"><ele>224.9</ele><time>2026-08-01T18:46:45Z</time></trkpt>
<trkpt lat="35.161214" lon="-85.120393"><ele>224.9</ele><time>2026-08-01T18:46:47Z</time></trkpt>
<trkpt lat="35.161189" lon="-85.120371"><ele>222.5</ele><time>2026-08-01T18:46:50Z</time></trkpt>
<trkpt lat="35.161164" lon="-85.120336"><ele>221.6</ele><time>2026-08-01T18:46:53Z</time></trkpt>
<trkpt lat="35.161134" lon="-85.120315"><ele>221.3</ele><time>2026-08-01T18:46:56Z</time></trkpt>
<trkpt lat="35.161098" lon="-85.120302"><ele>221.3</ele><time>2026-08-01T18:46:59Z</time></trkpt>
<trkpt lat="35.161058" lon="-85.120304"><ele>223.4</ele><time>2026-08-01T18:47:02Z</time></trkpt>
<trkpt lat="35.161024" lon="-85.120292"><ele>223.7</ele><time>2026-08-01T18:47:05Z</time></trkpt>
<trkpt lat="35.160994" lon="-85.120257"><ele>221.6</ele><time>2026-08-01T18:47:08Z</time></trkpt>
<trkpt lat="35.160969" lon="-85.120242"><ele>221.3</ele><time>2026-08-01T18:47:10Z</time></trkpt>
<trkpt lat="35.160931" lon="-85.120223"><ele>222.2</ele><time>2026-08-01T18:47:13Z</time></trkpt>
<trkpt lat="35.160905" lon="-85.120213"><ele>221.3</ele><time>2026-08-01T18:47:15Z</time></trkpt>
<trkpt lat="35.160864" lon="-85.120206"><ele>221.3</ele><time>2026-08-01T18:47:18Z</time></trkpt>
<trkpt lat="35.160828" lon="-85.120191"><ele>219.2</ele><time>2026-08-01T18:47:21Z</time></trkpt>
<trkpt lat="35.1608" lon="-85.120189"><ele>217.6</ele><time>2026-08-01T18:47:23Z</time></trkpt>
<trkpt lat="35.160771" lon="-85.120197"><ele>218.2</ele><time>2026-08-01T18:47:25Z</time></trkpt>
<trkpt lat="35.160744" lon="-85.120212"><ele>216.4</ele><time>2026-08-01T18:47:27Z</time></trkpt>
<trkpt lat="35.160722" lon="-85.120237"><ele>216.1</ele><time>2026-08-01T18:47:29Z</time></trkpt>
<trkpt lat="35.160689" lon="-85.120266"><ele>215.8</ele><time>2026-08-01T18:47:32Z</time></trkpt>
<trkpt lat="35.160657" lon="-85.120291"><ele>213.7</ele><time>2026-08-01T18:47:35Z</time></trkpt>
<trkpt lat="35.160622" lon="-85.120312"><ele>213.1</ele><time>2026-08-01T18:47:38Z</time></trkpt>
<trkpt lat="35.160591" lon="-85.120331"><ele>212.4</ele><time>2026-08-01T18:47:41Z</time></trkpt>
<trkpt lat="35.160557" lon="-85.120353"><ele>213.4</ele><time>2026-08-01T18:47:44Z</time></trkpt>
<trkpt lat="35.160517" lon="-85.120358"><ele>215.5</ele><time>2026-08-01T18:47:47Z</time></trkpt>
<trkpt lat="35.160493" lon="-85.12038"><ele>215.5</ele><time>2026-08-01T18:47:49Z</time></trkpt>
<trkpt lat="35.160464" lon="-85.120412"><ele>213.7</ele><time>2026-08-01T18:47:52Z</time></trkpt>
<trkpt lat="35.160435" lon="-85.120448"><ele>216.7</ele><time>2026-08-01T18:47:55Z</time></trkpt>
<trkpt lat="35.160416" lon="-85.120474"><ele>217.9</ele><time>2026-08-01T18:47:57Z</time></trkpt>
<trkpt lat="35.160396" lon="-85.120498"><ele>218.5</ele><time>2026-08-01T18:47:59Z</time></trkpt>
<trkpt lat="35.16037" lon="-85.120536"><ele>218.8</ele><time>2026-08-01T18:48:02Z</time></trkpt>
<trkpt lat="35.160339" lon="-85.120555"><ele>216.7</ele><time>2026-08-01T18:48:06Z</time></trkpt>
<trkpt lat="35.160324" lon="-85.120602"><ele>216.7</ele><time>2026-08-01T18:48:09Z</time></trkpt>
<trkpt lat="35.160318" lon="-85.120639"><ele>217.3</ele><time>2026-08-01T18:48:11Z</time></trkpt>
<trkpt lat="35.160318" lon="-85.120689"><ele>217.6</ele><time>2026-08-01T18:48:14Z</time></trkpt>
<trkpt lat="35.160313" lon="-85.120736"><ele>216.7</ele><time>2026-08-01T18:48:16Z</time></trkpt>
<trkpt lat="35.160317" lon="-85.120775"><ele>216.1</ele><time>2026-08-01T18:48:18Z</time></trkpt>
<trkpt lat="35.160311" lon="-85.120827"><ele>218.5</ele><time>2026-08-01T18:48:20Z</time></trkpt>
<trkpt lat="35.160312" lon="-85.12087"><ele>218.8</ele><time>2026-08-01T18:48:22Z</time></trkpt>
<trkpt lat="35.160314" lon="-85.120913"><ele>217.9</ele><time>2026-08-01T18:48:24Z</time></trkpt>
<trkpt lat="35.160309" lon="-85.120961"><ele>216.4</ele><time>2026-08-01T18:48:27Z</time></trkpt>
<trkpt lat="35.1603" lon="-85.121004"><ele>216.1</ele><time>2026-08-01T18:48:30Z</time></trkpt>
<trkpt lat="35.160287" lon="-85.121043"><ele>214.0</ele><time>2026-08-01T18:48:33Z</time></trkpt>
<trkpt lat="35.160279" lon="-85.121081"><ele>212.8</ele><time>2026-08-01T18:48:36Z</time></trkpt>
<trkpt lat="35.160275" lon="-85.121123"><ele>213.1</ele><time>2026-08-01T18:48:39Z</time></trkpt>
<trkpt lat="35.160257" lon="-85.12116"><ele>215.5</ele><time>2026-08-01T18:48:42Z</time></trkpt>
<trkpt lat="35.160238" lon="-85.121201"><ele>216.4</ele><time>2026-08-01T18:48:45Z</time></trkpt>
<trkpt lat="35.160233" lon="-85.121237"><ele>217.3</ele><time>2026-08-01T18:48:47Z</time></trkpt>
<trkpt lat="35.160228" lon="-85.121277"><ele>218.2</ele><time>2026-08-01T18:48:49Z</time></trkpt>
<trkpt lat="35.160228" lon="-85.12131"><ele>218.5</ele><time>2026-08-01T18:48:51Z</time></trkpt>
<trkpt lat="35.160235" lon="-85.121357"><ele>219.2</ele><time>2026-08-01T18:48:54Z</time></trkpt>
<trkpt lat="35.160236" lon="-85.121391"><ele>219.5</ele><time>2026-08-01T18:48:56Z</time></trkpt>
<trkpt lat="35.160236" lon="-85.121428"><ele>219.8</ele><time>2026-08-01T18:48:58Z</time></trkpt>
<trkpt lat="35.160238" lon="-85.121462"><ele>220.4</ele><time>2026-08-01T18:49:00Z</time></trkpt>
<trkpt lat="35.160227" lon="-85.121497"><ele>220.1</ele><time>2026-08-01T18:49:02Z</time></trkpt>
<trkpt lat="35.160226" lon="-85.121548"><ele>221.0</ele><time>2026-08-01T18:49:05Z</time></trkpt>
<trkpt lat="35.160233" lon="-85.121584"><ele>219.8</ele><time>2026-08-01T18:49:07Z</time></trkpt>
<trkpt lat="35.160244" lon="-85.121615"><ele>219.5</ele><time>2026-08-01T18:49:09Z</time></trkpt>
<trkpt lat="35.160255" lon="-85.121654"><ele>220.4</ele><time>2026-08-01T18:49:12Z</time></trkpt>
<trkpt lat="35.160286" lon="-85.121681"><ele>219.2</ele><time>2026-08-01T18:49:14Z</time></trkpt>
<trkpt lat="35.160294" lon="-85.121716"><ele>217.6</ele><time>2026-08-01T18:49:16Z</time></trkpt>
<trkpt lat="35.160267" lon="-85.121753"><ele>217.0</ele><time>2026-08-01T18:49:20Z</time></trkpt>
<trkpt lat="35.160241" lon="-85.121772"><ele>217.0</ele><time>2026-08-01T18:49:22Z</time></trkpt>
<trkpt lat="35.160205" lon="-85.121775"><ele>215.8</ele><time>2026-08-01T18:49:24Z</time></trkpt>
<trkpt lat="35.16017" lon="-85.121788"><ele>214.3</ele><time>2026-08-01T18:49:27Z</time></trkpt>
<trkpt lat="35.160135" lon="-85.121786"><ele>214.3</ele><time>2026-08-01T18:49:30Z</time></trkpt>
<trkpt lat="35.160096" lon="-85.121795"><ele>215.8</ele><time>2026-08-01T18:49:33Z</time></trkpt>
<trkpt lat="35.160067" lon="-85.121811"><ele>217.0</ele><time>2026-08-01T18:49:35Z</time></trkpt>
<trkpt lat="35.160038" lon="-85.12182"><ele>216.4</ele><time>2026-08-01T18:49:37Z</time></trkpt>
<trkpt lat="35.160014" lon="-85.121836"><ele>217.0</ele><time>2026-08-01T18:49:39Z</time></trkpt>
<trkpt lat="35.159984" lon="-85.121871"><ele>217.9</ele><time>2026-08-01T18:49:42Z</time></trkpt>
<trkpt lat="35.159959" lon="-85.121885"><ele>217.9</ele><time>2026-08-01T18:49:44Z</time></trkpt>
<trkpt lat="35.159922" lon="-85.121896"><ele>216.4</ele><time>2026-08-01T18:49:47Z</time></trkpt>
<trkpt lat="35.159885" lon="-85.121918"><ele>216.4</ele><time>2026-08-01T18:49:50Z</time></trkpt>
<trkpt lat="35.159858" lon="-85.121931"><ele>217.0</ele><time>2026-08-01T18:49:52Z</time></trkpt>
<trkpt lat="35.159832" lon="-85.121942"><ele>216.1</ele><time>2026-08-01T18:49:54Z</time></trkpt>
<trkpt lat="35.1598" lon="-85.121945"><ele>217.9</ele><time>2026-08-01T18:49:56Z</time></trkpt>
<trkpt lat="35.159764" lon="-85.121939"><ele>218.2</ele><time>2026-08-01T18:49:59Z</time></trkpt>
<trkpt lat="35.159732" lon="-85.121934"><ele>217.9</ele><time>2026-08-01T18:50:02Z</time></trkpt>
<trkpt lat="35.159694" lon="-85.121944"><ele>217.3</ele><time>2026-08-01T18:50:05Z</time></trkpt>
<trkpt lat="35.159653" lon="-85.121951"><ele>214.9</ele><time>2026-08-01T18:50:08Z</time></trkpt>
<trkpt lat="35.159618" lon="-85.121936"><ele>215.8</ele><time>2026-08-01T18:50:11Z</time></trkpt>
<trkpt lat="35.159582" lon="-85.12191"><ele>217.9</ele><time>2026-08-01T18:50:14Z</time></trkpt>
<trkpt lat="35.15956" lon="-85.121888"><ele>219.5</ele><time>2026-08-01T18:50:16Z</time></trkpt>
<trkpt lat="35.15953" lon="-85.121858"><ele>219.2</ele><time>2026-08-01T18:50:19Z</time></trkpt>
<trkpt lat="35.15951" lon="-85.121834"><ele>217.6</ele><time>2026-08-01T18:50:21Z</time></trkpt>
<trkpt lat="35.159475" lon="-85.121818"><ele>215.2</ele><time>2026-08-01T18:50:24Z</time></trkpt>
<trkpt lat="35.159439" lon="-85.121813"><ele>216.7</ele><time>2026-08-01T18:50:27Z</time></trkpt>
<trkpt lat="35.159407" lon="-85.121798"><ele>216.1</ele><time>2026-08-01T18:50:30Z</time></trkpt>
<trkpt lat="35.159373" lon="-85.12177"><ele>217.6</ele><time>2026-08-01T18:50:33Z</time></trkpt>
<trkpt lat="35.159335" lon="-85.121748"><ele>217.3</ele><time>2026-08-01T18:50:36Z</time></trkpt>
<trkpt lat="35.159308" lon="-85.121738"><ele>218.5</ele><time>2026-08-01T18:50:38Z</time></trkpt>
<trkpt lat="35.15928" lon="-85.121726"><ele>218.8</ele><time>2026-08-01T18:50:40Z</time></trkpt>
<trkpt lat="35.159241" lon="-85.121733"><ele>218.5</ele><time>2026-08-01T18:50:43Z</time></trkpt>
<trkpt lat="35.159201" lon="-85.121736"><ele>217.9</ele><time>2026-08-01T18:50:46Z</time></trkpt>
<trkpt lat="35.159171" lon="-85.121732"><ele>215.8</ele><time>2026-08-01T18:50:48Z</time></trkpt>
<trkpt lat="35.159136" lon="-85.121717"><ele>214.6</ele><time>2026-08-01T18:50:51Z</time></trkpt>
<trkpt lat="35.15911" lon="-85.121701"><ele>214.0</ele><time>2026-08-01T18:50:53Z</time></trkpt>
<trkpt lat="35.159085" lon="-85.121686"><ele>214.3</ele><time>2026-08-01T18:50:55Z</time></trkpt>
<trkpt lat="35.159059" lon="-85.121668"><ele>214.6</ele><time>2026-08-01T18:50:57Z</time></trkpt>
<trkpt lat="35.159031" lon="-85.121661"><ele>216.7</ele><time>2026-08-01T18:50:59Z</time></trkpt>
<trkpt lat="35.159003" lon="-85.121649"><ele>217.0</ele><time>2026-08-01T18:51:01Z</time></trkpt>
<trkpt lat="35.158967" lon="-85.121628"><ele>217.9</ele><time>2026-08-01T18:51:04Z</time></trkpt>
<trkpt lat="35.158941" lon="-85.121592"><ele>217.9</ele><time>2026-08-01T18:51:07Z</time></trkpt>
<trkpt lat="35.158917" lon="-85.121555"><ele>218.8</ele><time>2026-08-01T18:51:10Z</time></trkpt>
<trkpt lat="35.158894" lon="-85.12152"><ele>217.9</ele><time>2026-08-01T18:51:13Z</time></trkpt>
<trkpt lat="35.158869" lon="-85.121483"><ele>217.0</ele><time>2026-08-01T18:51:16Z</time></trkpt>
<trkpt lat="35.158864" lon="-85.121445"><ele>214.6</ele><time>2026-08-01T18:51:18Z</time></trkpt>
<trkpt lat="35.158859" lon="-85.121409"><ele>213.7</ele><time>2026-08-01T18:51:20Z</time></trkpt>
<trkpt lat="35.158846" lon="-85.121361"><ele>214.6</ele><time>2026-08-01T18:51:23Z</time></trkpt>
<trkpt lat="35.15883" lon="-85.121333"><ele>215.5</ele><time>2026-08-01T18:51:25Z</time></trkpt>
<trkpt lat="35.158805" lon="-85.121292"><ele>216.7</ele><time>2026-08-01T18:51:28Z</time></trkpt>
<trkpt lat="35.158787" lon="-85.121265"><ele>216.4</ele><time>2026-08-01T18:51:30Z</time></trkpt>
<trkpt lat="35.158761" lon="-85.121246"><ele>216.1</ele><time>2026-08-01T18:51:32Z</time></trkpt>
<trkpt lat="35.158738" lon="-85.121222"><ele>215.2</ele><time>2026-08-01T18:51:34Z</time></trkpt>
<trkpt lat="35.158717" lon="-85.121196"><ele>215.5</ele><time>2026-08-01T18:51:36Z</time></trkpt>
<trkpt lat="35.158693" lon="-85.121166"><ele>214.0</ele><time>2026-08-01T18:51:39Z</time></trkpt>
<trkpt lat="35.158672" lon="-85.121133"><ele>214.9</ele><time>2026-08-01T18:51:42Z</time></trkpt>
<trkpt lat="35.158647" lon="-85.121099"><ele>217.0</ele><time>2026-08-01T18:51:45Z</time></trkpt>
<trkpt lat="35.158613" lon="-85.121078"><ele>217.6</ele><time>2026-08-01T18:51:48Z</time></trkpt>
<trkpt lat="35.158583" lon="-85.121051"><ele>217.0</ele><time>2026-08-01T18:51:51Z</time></trkpt>
<trkpt lat="35.158553" lon="-85.121024"><ele>215.5</ele><time>2026-08-01T18:51:54Z</time></trkpt>
<trkpt lat="35.158515" lon="-85.121014"><ele>216.7</ele><time>2026-08-01T18:51:57Z</time></trkpt>
<trkpt lat="35.158488" lon="-85.121002"><ele>216.4</ele><time>2026-08-01T18:51:59Z</time></trkpt>
<trkpt lat="35.158458" lon="-85.120998"><ele>216.4</ele><time>2026-08-01T18:52:01Z</time></trkpt>
<trkpt lat="35.158429" lon="-85.12099"><ele>216.1</ele><time>2026-08-01T18:52:03Z</time></trkpt>
<trkpt lat="35.158396" lon="-85.120962"><ele>216.7</ele><time>2026-08-01T18:52:06Z</time></trkpt>
<trkpt lat="35.158377" lon="-85.120922"><ele>216.7</ele><time>2026-08-01T18:52:09Z</time></trkpt>
<trkpt lat="35.158365" lon="-85.120878"><ele>217.6</ele><time>2026-08-01T18:52:12Z</time></trkpt>
<trkpt lat="35.158367" lon="-85.120829"><ele>217.6</ele><time>2026-08-01T18:52:15Z</time></trkpt>
<trkpt lat="35.158366" lon="-85.120783"><ele>217.6</ele><time>2026-08-01T18:52:18Z</time></trkpt>
<trkpt lat="35.158362" lon="-85.120737"><ele>218.2</ele><time>2026-08-01T18:52:21Z</time></trkpt>
<trkpt lat="35.15836" lon="-85.120691"><ele>217.3</ele><time>2026-08-01T18:52:24Z</time></trkpt>
<trkpt lat="35.158348" lon="-85.120652"><ele>215.8</ele><time>2026-08-01T18:52:27Z</time></trkpt>
<trkpt lat="35.158341" lon="-85.120608"><ele>215.2</ele><time>2026-08-01T18:52:30Z</time></trkpt>
<trkpt lat="35.158318" lon="-85.120574"><ele>215.8</ele><time>2026-08-01T18:52:33Z</time></trkpt>
<trkpt lat="35.158295" lon="-85.120538"><ele>214.6</ele><time>2026-08-01T18:52:36Z</time></trkpt>
<trkpt lat="35.158279" lon="-85.120507"><ele>214.3</ele><time>2026-08-01T18:52:38Z</time></trkpt>
<trkpt lat="35.158266" lon="-85.120473"><ele>214.3</ele><time>2026-08-01T18:52:40Z</time></trkpt>
<trkpt lat="35.158262" lon="-85.12043"><ele>215.2</ele><time>2026-08-01T18:52:43Z</time></trkpt>
<trkpt lat="35.158277" lon="-85.120384"><ele>215.8</ele><time>2026-08-01T18:52:46Z</time></trkpt>
<trkpt lat="35.158281" lon="-85.120345"><ele>214.3</ele><time>2026-08-01T18:52:48Z</time></trkpt>
<trkpt lat="35.15826" lon="-85.120314"><ele>214.0</ele><time>2026-08-01T18:52:50Z</time></trkpt>
<trkpt lat="35.158224" lon="-85.120298"><ele>213.4</ele><time>2026-08-01T18:52:53Z</time></trkpt>
<trkpt lat="35.158192" lon="-85.120276"><ele>213.1</ele><time>2026-08-01T18:52:56Z</time></trkpt>
<trkpt lat="35.158154" lon="-85.120256"><ele>214.0</ele><time>2026-08-01T18:52:59Z</time></trkpt>
<trkpt lat="35.158126" lon="-85.120253"><ele>213.7</ele><time>2026-08-01T18:53:01Z</time></trkpt>
<trkpt lat="35.158097" lon="-85.120259"><ele>214.6</ele><time>2026-08-01T18:53:03Z</time></trkpt>
<trkpt lat="35.158068" lon="-85.120259"><ele>214.6</ele><time>2026-08-01T18:53:05Z</time></trkpt>
<trkpt lat="35.158038" lon="-85.12026"><ele>214.3</ele><time>2026-08-01T18:53:07Z</time></trkpt>
<trkpt lat="35.158007" lon="-85.120263"><ele>215.2</ele><time>2026-08-01T18:53:09Z</time></trkpt>
<trkpt lat="35.157978" lon="-85.12025"><ele>216.1</ele><time>2026-08-01T18:53:11Z</time></trkpt>
<trkpt lat="35.157957" lon="-85.120229"><ele>215.5</ele><time>2026-08-01T18:53:13Z</time></trkpt>
<trkpt lat="35.157927" lon="-85.120197"><ele>215.8</ele><time>2026-08-01T18:53:16Z</time></trkpt>
<trkpt lat="35.157901" lon="-85.120171"><ele>214.9</ele><time>2026-08-01T18:53:19Z</time></trkpt>
<trkpt lat="35.157878" lon="-85.120131"><ele>214.3</ele><time>2026-08-01T18:53:22Z</time></trkpt>
<trkpt lat="35.157864" lon="-85.120088"><ele>214.6</ele><time>2026-08-01T18:53:25Z</time></trkpt>
<trkpt lat="35.157855" lon="-85.120054"><ele>214.9</ele><time>2026-08-01T18:53:27Z</time></trkpt>
<trkpt lat="35.15785" lon="-85.120007"><ele>214.9</ele><time>2026-08-01T18:53:30Z</time></trkpt>
<trkpt lat="35.157846" lon="-85.119972"><ele>215.2</ele><time>2026-08-01T18:53:32Z</time></trkpt>
<trkpt lat="35.157839" lon="-85.119938"><ele>215.5</ele><time>2026-08-01T18:53:34Z</time></trkpt>
<trkpt lat="35.157826" lon="-85.119892"><ele>216.1</ele><time>2026-08-01T18:53:37Z</time></trkpt>
<trkpt lat="35.15782" lon="-85.119843"><ele>216.7</ele><time>2026-08-01T18:53:40Z</time></trkpt>
<trkpt lat="35.157829" lon="-85.119793"><ele>216.7</ele><time>2026-08-01T18:53:43Z</time></trkpt>
<trkpt lat="35.157829" lon="-85.11976"><ele>216.4</ele><time>2026-08-01T18:53:45Z</time></trkpt>
<trkpt lat="35.157829" lon="-85.119726"><ele>216.4</ele><time>2026-08-01T18:53:47Z</time></trkpt>
<trkpt lat="35.157836" lon="-85.119693"><ele>216.1</ele><time>2026-08-01T18:53:49Z</time></trkpt>
<trkpt lat="35.157847" lon="-85.119647"><ele>216.7</ele><time>2026-08-01T18:53:52Z</time></trkpt>
<trkpt lat="35.157849" lon="-85.119613"><ele>217.9</ele><time>2026-08-01T18:53:54Z</time></trkpt>
<trkpt lat="35.157843" lon="-85.119577"><ele>217.6</ele><time>2026-08-01T18:53:56Z</time></trkpt>
<trkpt lat="35.157826" lon="-85.119533"><ele>218.8</ele><time>2026-08-01T18:53:59Z</time></trkpt>
<trkpt lat="35.157798" lon="-85.119499"><ele>218.8</ele><time>2026-08-01T18:54:02Z</time></trkpt>
<trkpt lat="35.157773" lon="-85.119459"><ele>218.8</ele><time>2026-08-01T18:54:05Z</time></trkpt>
<trkpt lat="35.157754" lon="-85.119433"><ele>218.5</ele><time>2026-08-01T18:54:07Z</time></trkpt>
<trkpt lat="35.157735" lon="-85.119409"><ele>217.9</ele><time>2026-08-01T18:54:09Z</time></trkpt>
<trkpt lat="35.157716" lon="-85.119379"><ele>218.8</ele><time>2026-08-01T18:54:11Z</time></trkpt>
<trkpt lat="35.157701" lon="-85.119346"><ele>217.3</ele><time>2026-08-01T18:54:13Z</time></trkpt>
<trkpt lat="35.157675" lon="-85.119325"><ele>216.7</ele><time>2026-08-01T18:54:15Z</time></trkpt>
<trkpt lat="35.157655" lon="-85.119298"><ele>216.1</ele><time>2026-08-01T18:54:17Z</time></trkpt>
<trkpt lat="35.15763" lon="-85.119261"><ele>214.6</ele><time>2026-08-01T18:54:20Z</time></trkpt>
<trkpt lat="35.157608" lon="-85.119235"><ele>214.6</ele><time>2026-08-01T18:54:22Z</time></trkpt>
<trkpt lat="35.157582" lon="-85.119246"><ele>217.0</ele><time>2026-08-01T18:54:23Z</time></trkpt>
<trkpt lat="35.157585" lon="-85.119207"><ele>216.1</ele><time>2026-08-01T18:54:25Z</time></trkpt>
<trkpt lat="35.157573" lon="-85.119159"><ele>216.1</ele><time>2026-08-01T18:54:27Z</time></trkpt>
<trkpt lat="35.157545" lon="-85.119122"><ele>216.7</ele><time>2026-08-01T18:54:30Z</time></trkpt>
<trkpt lat="35.157516" lon="-85.11912"><ele>216.4</ele><time>2026-08-01T18:54:32Z</time></trkpt>
<trkpt lat="35.157481" lon="-85.119121"><ele>217.0</ele><time>2026-08-01T18:54:34Z</time></trkpt>
<trkpt lat="35.157449" lon="-85.119111"><ele>217.9</ele><time>2026-08-01T18:54:36Z</time></trkpt>
<trkpt lat="35.157417" lon="-85.119097"><ele>215.8</ele><time>2026-08-01T18:54:39Z</time></trkpt>
<trkpt lat="35.15738" lon="-85.119097"><ele>215.2</ele><time>2026-08-01T18:54:42Z</time></trkpt>
<trkpt lat="35.15734" lon="-85.119098"><ele>215.2</ele><time>2026-08-01T18:54:45Z</time></trkpt>
<trkpt lat="35.157312" lon="-85.119102"><ele>214.9</ele><time>2026-08-01T18:54:47Z</time></trkpt>
<trkpt lat="35.157278" lon="-85.119106"><ele>214.3</ele><time>2026-08-01T18:54:50Z</time></trkpt>
<trkpt lat="35.157239" lon="-85.119102"><ele>215.8</ele><time>2026-08-01T18:54:53Z</time></trkpt>
<trkpt lat="35.15721" lon="-85.119095"><ele>216.7</ele><time>2026-08-01T18:54:55Z</time></trkpt>
<trkpt lat="35.157183" lon="-85.119088"><ele>217.0</ele><time>2026-08-01T18:54:57Z</time></trkpt>
<trkpt lat="35.157154" lon="-85.119077"><ele>217.6</ele><time>2026-08-01T18:54:59Z</time></trkpt>
<trkpt lat="35.157123" lon="-85.119061"><ele>217.3</ele><time>2026-08-01T18:55:01Z</time></trkpt>
<trkpt lat="35.157097" lon="-85.119038"><ele>217.0</ele><time>2026-08-01T18:55:03Z</time></trkpt>
<trkpt lat="35.157064" lon="-85.119012"><ele>216.1</ele><time>2026-08-01T18:55:06Z</time></trkpt>
<trkpt lat="35.157033" lon="-85.11898"><ele>216.7</ele><time>2026-08-01T18:55:09Z</time></trkpt>
<trkpt lat="35.157015" lon="-85.118939"><ele>216.7</ele><time>2026-08-01T18:55:12Z</time></trkpt>
<trkpt lat="35.156992" lon="-85.118916"><ele>216.1</ele><time>2026-08-01T18:55:14Z</time></trkpt>
<trkpt lat="35.156957" lon="-85.11889"><ele>215.8</ele><time>2026-08-01T18:55:17Z</time></trkpt>
<trkpt lat="35.156924" lon="-85.118865"><ele>216.1</ele><time>2026-08-01T18:55:20Z</time></trkpt>
<trkpt lat="35.156897" lon="-85.118831"><ele>216.7</ele><time>2026-08-01T18:55:23Z</time></trkpt>
<trkpt lat="35.156889" lon="-85.118786"><ele>215.8</ele><time>2026-08-01T18:55:26Z</time></trkpt>
<trkpt lat="35.156881" lon="-85.118746"><ele>217.3</ele><time>2026-08-01T18:55:29Z</time></trkpt>
<trkpt lat="35.156887" lon="-85.118713"><ele>217.3</ele><time>2026-08-01T18:55:31Z</time></trkpt>
<trkpt lat="35.156902" lon="-85.118682"><ele>217.3</ele><time>2026-08-01T18:55:33Z</time></trkpt>
<trkpt lat="35.156922" lon="-85.118651"><ele>216.7</ele><time>2026-08-01T18:55:35Z</time></trkpt>
<trkpt lat="35.156951" lon="-85.118634"><ele>218.2</ele><time>2026-08-01T18:55:37Z</time></trkpt>
<trkpt lat="35.156975" lon="-85.118615"><ele>217.3</ele><time>2026-08-01T18:55:39Z</time></trkpt>
<trkpt lat="35.157002" lon="-85.118577"><ele>215.8</ele><time>2026-08-01T18:55:42Z</time></trkpt>
<trkpt lat="35.157026" lon="-85.118561"><ele>215.2</ele><time>2026-08-01T18:55:44Z</time></trkpt>
<trkpt lat="35.157062" lon="-85.118537"><ele>214.9</ele><time>2026-08-01T18:55:47Z</time></trkpt>
<trkpt lat="35.157091" lon="-85.118532"><ele>214.9</ele><time>2026-08-01T18:55:49Z</time></trkpt>
<trkpt lat="35.157122" lon="-85.118527"><ele>215.8</ele><time>2026-08-01T18:55:51Z</time></trkpt>
<trkpt lat="35.157151" lon="-85.118525"><ele>214.6</ele><time>2026-08-01T18:55:53Z</time></trkpt>
<trkpt lat="35.157179" lon="-85.118519"><ele>214.3</ele><time>2026-08-01T18:55:55Z</time></trkpt>
<trkpt lat="35.157205" lon="-85.118502"><ele>215.2</ele><time>2026-08-01T18:55:57Z</time></trkpt>
<trkpt lat="35.157227" lon="-85.118481"><ele>215.5</ele><time>2026-08-01T18:55:59Z</time></trkpt>
<trkpt lat="35.15726" lon="-85.118453"><ele>214.3</ele><time>2026-08-01T18:56:02Z</time></trkpt>
<trkpt lat="35.157283" lon="-85.118434"><ele>215.2</ele><time>2026-08-01T18:56:04Z</time></trkpt>
<trkpt lat="35.157314" lon="-85.118438"><ele>214.9</ele><time>2026-08-01T18:56:06Z</time></trkpt>
<trkpt lat="35.157343" lon="-85.118446"><ele>214.6</ele><time>2026-08-01T18:56:08Z</time></trkpt>
<trkpt lat="35.157374" lon="-85.118453"><ele>215.2</ele><time>2026-08-01T18:56:10Z</time></trkpt>
<trkpt lat="35.157406" lon="-85.11846"><ele>215.2</ele><time>2026-08-01T18:56:12Z</time></trkpt>
<trkpt lat="35.157438" lon="-85.11846"><ele>213.4</ele><time>2026-08-01T18:56:14Z</time></trkpt>
<trkpt lat="35.157468" lon="-85.118471"><ele>213.7</ele><time>2026-08-01T18:56:16Z</time></trkpt>
<trkpt lat="35.157501" lon="-85.118472"><ele>214.9</ele><time>2026-08-01T18:56:18Z</time></trkpt>
<trkpt lat="35.157532" lon="-85.118461"><ele>214.6</ele><time>2026-08-01T18:56:20Z</time></trkpt>
<trkpt lat="35.157562" lon="-85.118459"><ele>216.1</ele><time>2026-08-01T18:56:22Z</time></trkpt>
<trkpt lat="35.157589" lon="-85.118479"><ele>216.1</ele><time>2026-08-01T18:56:24Z</time></trkpt>
<trkpt lat="35.157605" lon="-85.118522"><ele>215.2</ele><time>2026-08-01T18:56:26Z</time></trkpt>
<trkpt lat="35.157621" lon="-85.118561"><ele>214.3</ele><time>2026-08-01T18:56:28Z</time></trkpt>
<trkpt lat="35.157646" lon="-85.11859"><ele>215.2</ele><time>2026-08-01T18:56:30Z</time></trkpt>
<trkpt lat="35.157677" lon="-85.118598"><ele>214.9</ele><time>2026-08-01T18:56:32Z</time></trkpt>
<trkpt lat="35.157716" lon="-85.118604"><ele>212.4</ele><time>2026-08-01T18:56:35Z</time></trkpt>
<trkpt lat="35.157746" lon="-85.118611"><ele>213.1</ele><time>2026-08-01T18:56:37Z</time></trkpt>
<trkpt lat="35.157774" lon="-85.118624"><ele>213.4</ele><time>2026-08-01T18:56:39Z</time></trkpt>
<trkpt lat="35.157798" lon="-85.11865"><ele>213.7</ele><time>2026-08-01T18:56:41Z</time></trkpt>
<trkpt lat="35.157825" lon="-85.118669"><ele>213.7</ele><time>2026-08-01T18:56:43Z</time></trkpt>
<trkpt lat="35.157847" lon="-85.118691"><ele>213.7</ele><time>2026-08-01T18:56:45Z</time></trkpt>
<trkpt lat="35.157876" lon="-85.118705"><ele>213.4</ele><time>2026-08-01T18:56:47Z</time></trkpt>
<trkpt lat="35.157903" lon="-85.118718"><ele>214.0</ele><time>2026-08-01T18:56:49Z</time></trkpt>
<trkpt lat="35.157926" lon="-85.118739"><ele>213.4</ele><time>2026-08-01T18:56:51Z</time></trkpt>
<trkpt lat="35.157953" lon="-85.118761"><ele>212.8</ele><time>2026-08-01T18:56:53Z</time></trkpt>
<trkpt lat="35.157979" lon="-85.118776"><ele>213.1</ele><time>2026-08-01T18:56:55Z</time></trkpt>
<trkpt lat="35.158015" lon="-85.118793"><ele>212.8</ele><time>2026-08-01T18:56:58Z</time></trkpt>
<trkpt lat="35.158053" lon="-85.118808"><ele>212.4</ele><time>2026-08-01T18:57:01Z</time></trkpt>
<trkpt lat="35.158092" lon="-85.118807"><ele>212.1</ele><time>2026-08-01T18:57:04Z</time></trkpt>
<trkpt lat="35.15812" lon="-85.11881"><ele>213.7</ele><time>2026-08-01T18:57:06Z</time></trkpt>
<trkpt lat="35.158152" lon="-85.118815"><ele>215.5</ele><time>2026-08-01T18:57:08Z</time></trkpt>
<trkpt lat="35.158178" lon="-85.118831"><ele>216.1</ele><time>2026-08-01T18:57:10Z</time></trkpt>
<trkpt lat="35.158205" lon="-85.118843"><ele>215.8</ele><time>2026-08-01T18:57:12Z</time></trkpt>
<trkpt lat="35.15823" lon="-85.118855"><ele>215.5</ele><time>2026-08-01T18:57:14Z</time></trkpt>
<trkpt lat="35.158263" lon="-85.118883"><ele>216.4</ele><time>2026-08-01T18:57:17Z</time></trkpt>
<trkpt lat="35.158285" lon="-85.118904"><ele>215.5</ele><time>2026-08-01T18:57:19Z</time></trkpt>
<trkpt lat="35.15831" lon="-85.11892"><ele>215.2</ele><time>2026-08-01T18:57:21Z</time></trkpt>
<trkpt lat="35.158338" lon="-85.118932"><ele>215.5</ele><time>2026-08-01T18:57:23Z</time></trkpt>
<trkpt lat="35.158369" lon="-85.118934"><ele>215.8</ele><time>2026-08-01T18:57:25Z</time></trkpt>
<trkpt lat="35.158397" lon="-85.118935"><ele>217.9</ele><time>2026-08-01T18:57:27Z</time></trkpt>
<trkpt lat="35.158435" lon="-85.118951"><ele>217.3</ele><time>2026-08-01T18:57:30Z</time></trkpt>
<trkpt lat="35.158462" lon="-85.118964"><ele>216.1</ele><time>2026-08-01T18:57:32Z</time></trkpt>
<trkpt lat="35.158495" lon="-85.11899"><ele>215.5</ele><time>2026-08-01T18:57:35Z</time></trkpt>
<trkpt lat="35.158518" lon="-85.119012"><ele>215.2</ele><time>2026-08-01T18:57:37Z</time></trkpt>
<trkpt lat="35.158551" lon="-85.119042"><ele>215.8</ele><time>2026-08-01T18:57:40Z</time></trkpt>
<trkpt lat="35.158574" lon="-85.119068"><ele>216.1</ele><time>2026-08-01T18:57:42Z</time></trkpt>
<trkpt lat="35.158609" lon="-85.119093"><ele>216.4</ele><time>2026-08-01T18:57:45Z</time></trkpt>
<trkpt lat="35.158643" lon="-85.119117"><ele>215.8</ele><time>2026-08-01T18:57:48Z</time></trkpt>
<trkpt lat="35.158662" lon="-85.119143"><ele>215.8</ele><time>2026-08-01T18:57:50Z</time></trkpt>
<trkpt lat="35.158699" lon="-85.119167"><ele>217.0</ele><time>2026-08-01T18:57:53Z</time></trkpt>
<trkpt lat="35.158729" lon="-85.119165"><ele>215.8</ele><time>2026-08-01T18:57:55Z</time></trkpt>
<trkpt lat="35.158767" lon="-85.119147"><ele>214.3</ele><time>2026-08-01T18:57:58Z</time></trkpt>
<trkpt lat="35.1588" lon="-85.119149"><ele>214.9</ele><time>2026-08-01T18:58:00Z</time></trkpt>
<trkpt lat="35.158827" lon="-85.119175"><ele>213.4</ele><time>2026-08-01T18:58:02Z</time></trkpt>
<trkpt lat="35.158852" lon="-85.119201"><ele>213.7</ele><time>2026-08-01T18:58:04Z</time></trkpt>
<trkpt lat="35.158871" lon="-85.119239"><ele>214.0</ele><time>2026-08-01T18:58:06Z</time></trkpt>
<trkpt lat="35.158893" lon="-85.119273"><ele>212.1</ele><time>2026-08-01T18:58:08Z</time></trkpt>
<trkpt lat="35.158915" lon="-85.119299"><ele>213.1</ele><time>2026-08-01T18:58:10Z</time></trkpt>
<trkpt lat="35.158937" lon="-85.119329"><ele>211.2</ele><time>2026-08-01T18:58:12Z</time></trkpt>
<trkpt lat="35.158958" lon="-85.119353"><ele>212.1</ele><time>2026-08-01T18:58:14Z</time></trkpt>
<trkpt lat="35.158977" lon="-85.11938"><ele>211.8</ele><time>2026-08-01T18:58:16Z</time></trkpt>
<trkpt lat="35.159009" lon="-85.119407"><ele>213.7</ele><time>2026-08-01T18:58:19Z</time></trkpt>
<trkpt lat="35.159033" lon="-85.119429"><ele>216.1</ele><time>2026-08-01T18:58:21Z</time></trkpt>
<trkpt lat="35.159054" lon="-85.119455"><ele>216.7</ele><time>2026-08-01T18:58:23Z</time></trkpt>
<trkpt lat="35.159088" lon="-85.119478"><ele>217.6</ele><time>2026-08-01T18:58:26Z</time></trkpt>
<trkpt lat="35.159114" lon="-85.119492"><ele>216.4</ele><time>2026-08-01T18:58:28Z</time></trkpt>
<trkpt lat="35.15914" lon="-85.119516"><ele>216.4</ele><time>2026-08-01T18:58:31Z</time></trkpt>
<trkpt lat="35.15917" lon="-85.119536"><ele>219.2</ele><time>2026-08-01T18:58:34Z</time></trkpt>
<trkpt lat="35.159204" lon="-85.119551"><ele>219.2</ele><time>2026-08-01T18:58:37Z</time></trkpt>
<trkpt lat="35.159243" lon="-85.119562"><ele>220.1</ele><time>2026-08-01T18:58:40Z</time></trkpt>
<trkpt lat="35.159277" lon="-85.119586"><ele>219.8</ele><time>2026-08-01T18:58:43Z</time></trkpt>
<trkpt lat="35.159305" lon="-85.119598"><ele>219.5</ele><time>2026-08-01T18:58:45Z</time></trkpt>
<trkpt lat="35.159339" lon="-85.119587"><ele>219.2</ele><time>2026-08-01T18:58:48Z</time></trkpt>
<trkpt lat="35.159364" lon="-85.119554"><ele>217.9</ele><time>2026-08-01T18:58:51Z</time></trkpt>
<trkpt lat="35.159391" lon="-85.119523"><ele>218.2</ele><time>2026-08-01T18:58:54Z</time></trkpt>
<trkpt lat="35.159402" lon="-85.119487"><ele>220.4</ele><time>2026-08-01T18:58:57Z</time></trkpt>
<trkpt lat="35.159397" lon="-85.119448"><ele>218.8</ele><time>2026-08-01T18:59:01Z</time></trkpt>
<trkpt lat="35.159381" lon="-85.119417"><ele>217.9</ele><time>2026-08-01T18:59:04Z</time></trkpt>
<trkpt lat="35.159361" lon="-85.119382"><ele>218.5</ele><time>2026-08-01T18:59:07Z</time></trkpt>
<trkpt lat="35.159329" lon="-85.119359"><ele>216.7</ele><time>2026-08-01T18:59:10Z</time></trkpt>
<trkpt lat="35.159299" lon="-85.119333"><ele>219.8</ele><time>2026-08-01T18:59:13Z</time></trkpt>
<trkpt lat="35.159278" lon="-85.119295"><ele>221.0</ele><time>2026-08-01T18:59:16Z</time></trkpt>
<trkpt lat="35.159258" lon="-85.119269"><ele>221.6</ele><time>2026-08-01T18:59:18Z</time></trkpt>
<trkpt lat="35.159236" lon="-85.11923"><ele>221.6</ele><time>2026-08-01T18:59:21Z</time></trkpt>
<trkpt lat="35.1592" lon="-85.119207"><ele>221.9</ele><time>2026-08-01T18:59:24Z</time></trkpt>
<trkpt lat="35.159175" lon="-85.119188"><ele>221.6</ele><time>2026-08-01T18:59:26Z</time></trkpt>
<trkpt lat="35.159159" lon="-85.119157"><ele>223.4</ele><time>2026-08-01T18:59:28Z</time></trkpt>
<trkpt lat="35.159154" lon="-85.119118"><ele>223.4</ele><time>2026-08-01T18:59:30Z</time></trkpt>
<trkpt lat="35.159134" lon="-85.119078"><ele>224.3</ele><time>2026-08-01T18:59:33Z</time></trkpt>
<trkpt lat="35.159121" lon="-85.119033"><ele>223.4</ele><time>2026-08-01T18:59:36Z</time></trkpt>
<trkpt lat="35.159109" lon="-85.119003"><ele>222.5</ele><time>2026-08-01T18:59:38Z</time></trkpt>
<trkpt lat="35.15909" lon="-85.118965"><ele>222.5</ele><time>2026-08-01T18:59:41Z</time></trkpt>
<trkpt lat="35.159081" lon="-85.118933"><ele>221.6</ele><time>2026-08-01T18:59:43Z</time></trkpt>
<trkpt lat="35.159064" lon="-85.118887"><ele>221.9</ele><time>2026-08-01T18:59:46Z</time></trkpt>
<trkpt lat="35.15905" lon="-85.118855"><ele>222.5</ele><time>2026-08-01T18:59:48Z</time></trkpt>
<trkpt lat="35.159035" lon="-85.118826"><ele>222.5</ele><time>2026-08-01T18:59:50Z</time></trkpt>
<trkpt lat="35.159015" lon="-85.1188"><ele>221.9</ele><time>2026-08-01T18:59:52Z</time></trkpt>
<trkpt lat="35.158999" lon="-85.118772"><ele>220.1</ele><time>2026-08-01T18:59:54Z</time></trkpt>
<trkpt lat="35.158983" lon="-85.118743"><ele>219.5</ele><time>2026-08-01T18:59:56Z</time></trkpt>
<trkpt lat="35.158972" lon="-85.11871"><ele>219.8</ele><time>2026-08-01T18:59:58Z</time></trkpt>
<trkpt lat="35.158955" lon="-85.118663"><ele>219.2</ele><time>2026-08-01T19:00:01Z</time></trkpt>
<trkpt lat="35.158942" lon="-85.118618"><ele>218.2</ele><time>2026-08-01T19:00:04Z</time></trkpt>
<trkpt lat="35.158936" lon="-85.118571"><ele>215.8</ele><time>2026-08-01T19:00:07Z</time></trkpt>
<trkpt lat="35.158919" lon="-85.118528"><ele>217.6</ele><time>2026-08-01T19:00:10Z</time></trkpt>
<trkpt lat="35.158894" lon="-85.118488"><ele>217.6</ele><time>2026-08-01T19:00:13Z</time></trkpt>
<trkpt lat="35.158864" lon="-85.118457"><ele>218.2</ele><time>2026-08-01T19:00:16Z</time></trkpt>
<trkpt lat="35.158829" lon="-85.118439"><ele>217.3</ele><time>2026-08-01T19:00:19Z</time></trkpt>
<trkpt lat="35.158793" lon="-85.11842"><ele>216.7</ele><time>2026-08-01T19:00:22Z</time></trkpt>
<trkpt lat="35.158762" lon="-85.118389"><ele>214.9</ele><time>2026-08-01T19:00:25Z</time></trkpt>
<trkpt lat="35.158734" lon="-85.118373"><ele>215.2</ele><time>2026-08-01T19:00:27Z</time></trkpt>
<trkpt lat="35.158714" lon="-85.118348"><ele>212.8</ele><time>2026-08-01T19:00:29Z</time></trkpt>
<trkpt lat="35.158691" lon="-85.118328"><ele>213.1</ele><time>2026-08-01T19:00:31Z</time></trkpt>
<trkpt lat="35.15867" lon="-85.118299"><ele>212.8</ele><time>2026-08-01T19:00:33Z</time></trkpt>
<trkpt lat="35.15865" lon="-85.118271"><ele>214.3</ele><time>2026-08-01T19:00:35Z</time></trkpt>
<trkpt lat="35.158629" lon="-85.118245"><ele>214.6</ele><time>2026-08-01T19:00:37Z</time></trkpt>
<trkpt lat="35.158613" lon="-85.11821"><ele>212.8</ele><time>2026-08-01T19:00:39Z</time></trkpt>
<trkpt lat="35.15861" lon="-85.118169"><ele>213.1</ele><time>2026-08-01T19:00:41Z</time></trkpt>
<trkpt lat="35.158615" lon="-85.118133"><ele>215.5</ele><time>2026-08-01T19:00:43Z</time></trkpt>
<trkpt lat="35.158636" lon="-85.1181"><ele>214.3</ele><time>2026-08-01T19:00:45Z</time></trkpt>
<trkpt lat="35.158661" lon="-85.118076"><ele>214.0</ele><time>2026-08-01T19:00:47Z</time></trkpt>
<trkpt lat="35.158688" lon="-85.118065"><ele>215.2</ele><time>2026-08-01T19:00:49Z</time></trkpt>
<trkpt lat="35.158721" lon="-85.118072"><ele>214.9</ele><time>2026-08-01T19:00:51Z</time></trkpt>
<trkpt lat="35.158751" lon="-85.118075"><ele>214.6</ele><time>2026-08-01T19:00:53Z</time></trkpt>
<trkpt lat="35.158781" lon="-85.118065"><ele>215.2</ele><time>2026-08-01T19:00:55Z</time></trkpt>
<trkpt lat="35.158812" lon="-85.118065"><ele>215.2</ele><time>2026-08-01T19:00:57Z</time></trkpt>
<trkpt lat="35.158842" lon="-85.118066"><ele>215.2</ele><time>2026-08-01T19:00:59Z</time></trkpt>
<trkpt lat="35.158872" lon="-85.118062"><ele>214.9</ele><time>2026-08-01T19:01:01Z</time></trkpt>
<trkpt lat="35.158902" lon="-85.118065"><ele>215.2</ele><time>2026-08-01T19:01:03Z</time></trkpt>
<trkpt lat="35.158932" lon="-85.118069"><ele>214.9</ele><time>2026-08-01T19:01:05Z</time></trkpt>
<trkpt lat="35.15896" lon="-85.118082"><ele>215.2</ele><time>2026-08-01T19:01:07Z</time></trkpt>
<trkpt lat="35.158986" lon="-85.118094"><ele>214.9</ele><time>2026-08-01T19:01:09Z</time></trkpt>
<trkpt lat="35.159011" lon="-85.118113"><ele>214.9</ele><time>2026-08-01T19:01:11Z</time></trkpt>
<trkpt lat="35.159031" lon="-85.118142"><ele>214.6</ele><time>2026-08-01T19:01:13Z</time></trkpt>
<trkpt lat="35.159052" lon="-85.118166"><ele>215.8</ele><time>2026-08-01T19:01:15Z</time></trkpt>
<trkpt lat="35.159072" lon="-85.118194"><ele>216.7</ele><time>2026-08-01T19:01:17Z</time></trkpt>
<trkpt lat="35.159089" lon="-85.118224"><ele>216.4</ele><time>2026-08-01T19:01:19Z</time></trkpt>
<trkpt lat="35.159112" lon="-85.118242"><ele>216.4</ele><time>2026-08-01T19:01:21Z</time></trkpt>
<trkpt lat="35.159146" lon="-85.118269"><ele>217.0</ele><time>2026-08-01T19:01:24Z</time></trkpt>
<trkpt lat="35.15917" lon="-85.118288"><ele>217.6</ele><time>2026-08-01T19:01:26Z</time></trkpt>
<trkpt lat="35.159195" lon="-85.118303"><ele>219.5</ele><time>2026-08-01T19:01:28Z</time></trkpt>
<trkpt lat="35.159215" lon="-85.118328"><ele>218.8</ele><time>2026-08-01T19:01:30Z</time></trkpt>
<trkpt lat="35.159231" lon="-85.11836"><ele>217.6</ele><time>2026-08-01T19:01:32Z</time></trkpt>
<trkpt lat="35.15924" lon="-85.118399"><ele>217.3</ele><time>2026-08-01T19:01:34Z</time></trkpt>
<trkpt lat="35.159255" lon="-85.118429"><ele>217.6</ele><time>2026-08-01T19:01:36Z</time></trkpt>
<trkpt lat="35.159288" lon="-85.118437"><ele>215.5</ele><time>2026-08-01T19:01:38Z</time></trkpt>
<trkpt lat="35.159313" lon="-85.118464"><ele>215.5</ele><time>2026-08-01T19:01:40Z</time></trkpt>
<trkpt lat="35.159322" lon="-85.118497"><ele>215.5</ele><time>2026-08-01T19:01:42Z</time></trkpt>
<trkpt lat="35.159319" lon="-85.118538"><ele>213.7</ele><time>2026-08-01T19:01:44Z</time></trkpt>
<trkpt lat="35.159329" lon="-85.11857"><ele>212.8</ele><time>2026-08-01T19:01:46Z</time></trkpt>
<trkpt lat="35.159355" lon="-85.11861"><ele>213.1</ele><time>2026-08-01T19:01:49Z</time></trkpt>
<trkpt lat="35.159383" lon="-85.118625"><ele>214.9</ele><time>2026-08-01T19:01:51Z</time></trkpt>
<trkpt lat="35.159413" lon="-85.118635"><ele>216.7</ele><time>2026-08-01T19:01:53Z</time></trkpt>
<trkpt lat="35.159449" lon="-85.118653"><ele>216.1</ele><time>2026-08-01T19:01:56Z</time></trkpt>
<trkpt lat="35.159477" lon="-85.118687"><ele>216.7</ele><time>2026-08-01T19:01:59Z</time></trkpt>
<trkpt lat="35.15949" lon="-85.118719"><ele>217.9</ele><time>2026-08-01T19:02:01Z</time></trkpt>
<trkpt lat="35.159501" lon="-85.11875"><ele>219.5</ele><time>2026-08-01T19:02:03Z</time></trkpt>
<trkpt lat="35.159525" lon="-85.118784"><ele>221.0</ele><time>2026-08-01T19:02:06Z</time></trkpt>
<trkpt lat="35.159554" lon="-85.11881"><ele>219.5</ele><time>2026-08-01T19:02:09Z</time></trkpt>
<trkpt lat="35.159592" lon="-85.118829"><ele>217.3</ele><time>2026-08-01T19:02:12Z</time></trkpt>
<trkpt lat="35.159626" lon="-85.118847"><ele>218.5</ele><time>2026-08-01T19:02:15Z</time></trkpt>
<trkpt lat="35.159665" lon="-85.118864"><ele>218.2</ele><time>2026-08-01T19:02:18Z</time></trkpt>
<trkpt lat="35.159703" lon="-85.118882"><ele>220.1</ele><time>2026-08-01T19:02:21Z</time></trkpt>
<trkpt lat="35.15973" lon="-85.118893"><ele>220.4</ele><time>2026-08-01T19:02:23Z</time></trkpt>
<trkpt lat="35.159758" lon="-85.118908"><ele>221.3</ele><time>2026-08-01T19:02:25Z</time></trkpt>
<trkpt lat="35.159787" lon="-85.118911"><ele>221.9</ele><time>2026-08-01T19:02:27Z</time></trkpt>
<trkpt lat="35.159822" lon="-85.118933"><ele>221.0</ele><time>2026-08-01T19:02:30Z</time></trkpt>
<trkpt lat="35.159848" lon="-85.118958"><ele>220.1</ele><time>2026-08-01T19:02:32Z</time></trkpt>
<trkpt lat="35.159875" lon="-85.118971"><ele>219.5</ele><time>2026-08-01T19:02:34Z</time></trkpt>
<trkpt lat="35.159902" lon="-85.118983"><ele>220.7</ele><time>2026-08-01T19:02:36Z</time></trkpt>
<trkpt lat="35.15993" lon="-85.118986"><ele>221.3</ele><time>2026-08-01T19:02:38Z</time></trkpt>
<trkpt lat="35.159971" lon="-85.118991"><ele>220.7</ele><time>2026-08-01T19:02:41Z</time></trkpt>
<trkpt lat="35.16" lon="-85.118988"><ele>221.0</ele><time>2026-08-01T19:02:43Z</time></trkpt>
<trkpt lat="35.160029" lon="-85.118995"><ele>221.6</ele><time>2026-08-01T19:02:45Z</time></trkpt>
<trkpt lat="35.160058" lon="-85.119009"><ele>222.2</ele><time>2026-08-01T19:02:47Z</time></trkpt>
<trkpt lat="35.160089" lon="-85.119018"><ele>222.8</ele><time>2026-08-01T19:02:49Z</time></trkpt>
<trkpt lat="35.160115" lon="-85.119044"><ele>222.2</ele><time>2026-08-01T19:02:51Z</time></trkpt>
<trkpt lat="35.160144" lon="-85.119061"><ele>221.9</ele><time>2026-08-01T19:02:53Z</time></trkpt>
<trkpt lat="35.16017" lon="-85.119084"><ele>221.6</ele><time>2026-08-01T19:02:55Z</time></trkpt>
<trkpt lat="35.160192" lon="-85.119128"><ele>222.5</ele><time>2026-08-01T19:02:57Z</time></trkpt>
<trkpt lat="35.160214" lon="-85.11916"><ele>222.2</ele><time>2026-08-01T19:02:59Z</time></trkpt>
<trkpt lat="35.160237" lon="-85.119186"><ele>222.8</ele><time>2026-08-01T19:03:01Z</time></trkpt>
<trkpt lat="35.160262" lon="-85.119209"><ele>222.8</ele><time>2026-08-01T19:03:03Z</time></trkpt>
<trkpt lat="35.160282" lon="-85.119239"><ele>221.9</ele><time>2026-08-01T19:03:05Z</time></trkpt>
<trkpt lat="35.160309" lon="-85.119252"><ele>223.1</ele><time>2026-08-01T19:03:07Z</time></trkpt>
<trkpt lat="35.160337" lon="-85.119263"><ele>222.2</ele><time>2026-08-01T19:03:09Z</time></trkpt>
<trkpt lat="35.160374" lon="-85.119278"><ele>222.8</ele><time>2026-08-01T19:03:12Z</time></trkpt>
<trkpt lat="35.160413" lon="-85.11929"><ele>222.2</ele><time>2026-08-01T19:03:15Z</time></trkpt>
<trkpt lat="35.160442" lon="-85.119296"><ele>221.6</ele><time>2026-08-01T19:03:17Z</time></trkpt>
<trkpt lat="35.160474" lon="-85.119296"><ele>221.0</ele><time>2026-08-01T19:03:19Z</time></trkpt>
<trkpt lat="35.160501" lon="-85.119304"><ele>221.3</ele><time>2026-08-01T19:03:21Z</time></trkpt>
<trkpt lat="35.160529" lon="-85.119313"><ele>221.9</ele><time>2026-08-01T19:03:23Z</time></trkpt>
<trkpt lat="35.160557" lon="-85.119316"><ele>223.4</ele><time>2026-08-01T19:03:25Z</time></trkpt>
<trkpt lat="35.160587" lon="-85.119315"><ele>222.2</ele><time>2026-08-01T19:03:27Z</time></trkpt>
<trkpt lat="35.160619" lon="-85.119316"><ele>221.6</ele><time>2026-08-01T19:03:29Z</time></trkpt>
<trkpt lat="35.160652" lon="-85.119331"><ele>221.6</ele><time>2026-08-01T19:03:31Z</time></trkpt>
<trkpt lat="35.160683" lon="-85.119343"><ele>224.9</ele><time>2026-08-01T19:03:33Z</time></trkpt>
<trkpt lat="35.160712" lon="-85.119366"><ele>224.3</ele><time>2026-08-01T19:03:35Z</time></trkpt>
<trkpt lat="35.160742" lon="-85.119392"><ele>223.7</ele><time>2026-08-01T19:03:38Z</time></trkpt>
<trkpt lat="35.160769" lon="-85.119416"><ele>223.1</ele><time>2026-08-01T19:03:40Z</time></trkpt>
<trkpt lat="35.160795" lon="-85.119443"><ele>222.5</ele><time>2026-08-01T19:03:42Z</time></trkpt>
<trkpt lat="35.160829" lon="-85.119471"><ele>224.0</ele><time>2026-08-01T19:03:45Z</time></trkpt>
<trkpt lat="35.160857" lon="-85.119496"><ele>223.4</ele><time>2026-08-01T19:03:47Z</time></trkpt>
<trkpt lat="35.160886" lon="-85.119521"><ele>223.7</ele><time>2026-08-01T19:03:49Z</time></trkpt>
<trkpt lat="35.1609" lon="-85.119557"><ele>223.4</ele><time>2026-08-01T19:03:51Z</time></trkpt>
<trkpt lat="35.16093" lon="-85.119586"><ele>220.4</ele><time>2026-08-01T19:03:53Z</time></trkpt>
<trkpt lat="35.160955" lon="-85.119624"><ele>218.8</ele><time>2026-08-01T19:03:55Z</time></trkpt>
<trkpt lat="35.160979" lon="-85.119654"><ele>218.2</ele><time>2026-08-01T19:03:57Z</time></trkpt>
<trkpt lat="35.161006" lon="-85.119669"><ele>216.4</ele><time>2026-08-01T19:03:59Z</time></trkpt>
<trkpt lat="35.161037" lon="-85.119691"><ele>217.9</ele><time>2026-08-01T19:04:01Z</time></trkpt>
<trkpt lat="35.161071" lon="-85.11971"><ele>217.3</ele><time>2026-08-01T19:04:03Z</time></trkpt>
<trkpt lat="35.161104" lon="-85.119719"><ele>218.2</ele><time>2026-08-01T19:04:05Z</time></trkpt>
<trkpt lat="35.16114" lon="-85.119728"><ele>219.8</ele><time>2026-08-01T19:04:07Z</time></trkpt>
<trkpt lat="35.161176" lon="-85.119744"><ele>220.1</ele><time>2026-08-01T19:04:09Z</time></trkpt>
<trkpt lat="35.161209" lon="-85.119751"><ele>220.1</ele><time>2026-08-01T19:04:11Z</time></trkpt>
<trkpt lat="35.161241" lon="-85.119771"><ele>220.1</ele><time>2026-08-01T19:04:13Z</time></trkpt>
<trkpt lat="35.161271" lon="-85.119782"><ele>221.6</ele><time>2026-08-01T19:04:15Z</time></trkpt>
<trkpt lat="35.161301" lon="-85.119813"><ele>220.7</ele><time>2026-08-01T19:04:17Z</time></trkpt>
<trkpt lat="35.16134" lon="-85.119822"><ele>220.4</ele><time>2026-08-01T19:04:19Z</time></trkpt>
<trkpt lat="35.161378" lon="-85.119829"><ele>219.8</ele><time>2026-08-01T19:04:21Z</time></trkpt>
<trkpt lat="35.161414" lon="-85.119823"><ele>220.1</ele><time>2026-08-01T19:04:23Z</time></trkpt>
<trkpt lat="35.16145" lon="-85.119807"><ele>221.0</ele><time>2026-08-01T19:04:25Z</time></trkpt>
<trkpt lat="35.161488" lon="-85.119789"><ele>222.2</ele><time>2026-08-01T19:04:28Z</time></trkpt>
<trkpt lat="35.161522" lon="-85.119808"><ele>221.3</ele><time>2026-08-01T19:04:30Z</time></trkpt>
<trkpt lat="35.161554" lon="-85.119805"><ele>218.8</ele><time>2026-08-01T19:04:32Z</time></trkpt>
<trkpt lat="35.16158" lon="-85.119789"><ele>217.6</ele><time>2026-08-01T19:04:34Z</time></trkpt>
<trkpt lat="35.161602" lon="-85.119744"><ele>217.0</ele><time>2026-08-01T19:04:37Z</time></trkpt>
<trkpt lat="35.161626" lon="-85.119717"><ele>217.0</ele><time>2026-08-01T19:04:39Z</time></trkpt>
<trkpt lat="35.161652" lon="-85.11969"><ele>216.7</ele><time>2026-08-01T19:04:41Z</time></trkpt>
<trkpt lat="35.161692" lon="-85.119677"><ele>217.3</ele><time>2026-08-01T19:04:43Z</time></trkpt>
<trkpt lat="35.16173" lon="-85.119669"><ele>216.7</ele><time>2026-08-01T19:04:45Z</time></trkpt>
<trkpt lat="35.161769" lon="-85.119652"><ele>215.2</ele><time>2026-08-01T19:04:47Z</time></trkpt>
<trkpt lat="35.161808" lon="-85.119653"><ele>214.3</ele><time>2026-08-01T19:04:49Z</time></trkpt>
<trkpt lat="35.161846" lon="-85.11966"><ele>214.6</ele><time>2026-08-01T19:04:51Z</time></trkpt>
<trkpt lat="35.161877" lon="-85.119677"><ele>213.7</ele><time>2026-08-01T19:04:54Z</time></trkpt>
<trkpt lat="35.161905" lon="-85.11968"><ele>213.7</ele><time>2026-08-01T19:04:56Z</time></trkpt>
<trkpt lat="35.161932" lon="-85.119685"><ele>213.4</ele><time>2026-08-01T19:04:58Z</time></trkpt>
<trkpt lat="35.161966" lon="-85.119696"><ele>212.1</ele><time>2026-08-01T19:05:00Z</time></trkpt>
<trkpt lat="35.162" lon="-85.119706"><ele>212.8</ele><time>2026-08-01T19:05:02Z</time></trkpt>
<trkpt lat="35.162029" lon="-85.119711"><ele>211.8</ele><time>2026-08-01T19:05:04Z</time></trkpt>
<trkpt lat="35.162063" lon="-85.119722"><ele>210.0</ele><time>2026-08-01T19:05:07Z</time></trkpt>
<trkpt lat="35.162087" lon="-85.119742"><ele>210.0</ele><time>2026-08-01T19:05:09Z</time></trkpt>
<trkpt lat="35.162115" lon="-85.119772"><ele>210.3</ele><time>2026-08-01T19:05:12Z</time></trkpt>
<trkpt lat="35.162143" lon="-85.119796"><ele>210.0</ele><time>2026-08-01T19:05:14Z</time></trkpt>
<trkpt lat="35.162166" lon="-85.119822"><ele>210.3</ele><time>2026-08-01T19:05:16Z</time></trkpt>
<trkpt lat="35.162194" lon="-85.119839"><ele>210.9</ele><time>2026-08-01T19:05:18Z</time></trkpt>
<trkpt lat="35.162229" lon="-85.119845"><ele>213.1</ele><time>2026-08-01T19:05:20Z</time></trkpt>
<trkpt lat="35.162263" lon="-85.119861"><ele>214.0</ele><time>2026-08-01T19:05:22Z</time></trkpt>
<trkpt lat="35.162294" lon="-85.119867"><ele>212.4</ele><time>2026-08-01T19:05:24Z</time></trkpt>
<trkpt lat="35.162324" lon="-85.119876"><ele>215.2</ele><time>2026-08-01T19:05:26Z</time></trkpt>
<trkpt lat="35.162351" lon="-85.119887"><ele>214.9</ele><time>2026-08-01T19:05:28Z</time></trkpt>
<trkpt lat="35.16239" lon="-85.119902"><ele>215.5</ele><time>2026-08-01T19:05:31Z</time></trkpt>
<trkpt lat="35.162418" lon="-85.119925"><ele>215.2</ele><time>2026-08-01T19:05:33Z</time></trkpt>
<trkpt lat="35.162439" lon="-85.119953"><ele>214.0</ele><time>2026-08-01T19:05:35Z</time></trkpt>
<trkpt lat="35.162465" lon="-85.119973"><ele>213.7</ele><time>2026-08-01T19:05:37Z</time></trkpt>
<trkpt lat="35.162492" lon="-85.119995"><ele>213.7</ele><time>2026-08-01T19:05:39Z</time></trkpt>
<trkpt lat="35.162518" lon="-85.120017"><ele>213.7</ele><time>2026-08-01T19:05:41Z</time></trkpt>
<trkpt lat="35.162536" lon="-85.120045"><ele>211.8</ele><time>2026-08-01T19:05:43Z</time></trkpt>
<trkpt lat="35.162556" lon="-85.120069"><ele>211.5</ele><time>2026-08-01T19:05:45Z</time></trkpt>
<trkpt lat="35.162582" lon="-85.120093"><ele>211.8</ele><time>2026-08-01T19:05:47Z</time></trkpt>
<trkpt lat="35.162611" lon="-85.120101"><ele>213.7</ele><time>2026-08-01T19:05:49Z</time></trkpt>
<trkpt lat="35.162645" lon="-85.120113"><ele>212.8</ele><time>2026-08-01T19:05:51Z</time></trkpt>
<trkpt lat="35.162677" lon="-85.120138"><ele>211.8</ele><time>2026-08-01T19:05:53Z</time></trkpt>
<trkpt lat="35.162718" lon="-85.120142"><ele>215.2</ele><time>2026-08-01T19:05:56Z</time></trkpt>
<trkpt lat="35.162754" lon="-85.120158"><ele>216.4</ele><time>2026-08-01T19:05:59Z</time></trkpt>
<trkpt lat="35.162782" lon="-85.120169"><ele>216.4</ele><time>2026-08-01T19:06:01Z</time></trkpt>
<trkpt lat="35.162811" lon="-85.120179"><ele>217.6</ele><time>2026-08-01T19:06:03Z</time></trkpt>
<trkpt lat="35.162843" lon="-85.120173"><ele>216.1</ele><time>2026-08-01T19:06:06Z</time></trkpt>
<trkpt lat="35.162873" lon="-85.120168"><ele>214.0</ele><time>2026-08-01T19:06:09Z</time></trkpt>
<trkpt lat="35.162905" lon="-85.120151"><ele>211.8</ele><time>2026-08-01T19:06:13Z</time></trkpt>
<trkpt lat="35.162934" lon="-85.120152"><ele>214.0</ele><time>2026-08-01T19:06:15Z</time></trkpt>
<trkpt lat="35.162971" lon="-85.120155"><ele>213.4</ele><time>2026-08-01T19:06:17Z</time></trkpt>
<trkpt lat="35.163001" lon="-85.120167"><ele>211.8</ele><time>2026-08-01T19:06:19Z</time></trkpt>
<trkpt lat="35.163027" lon="-85.120192"><ele>212.4</ele><time>2026-08-01T19:06:21Z</time></trkpt>
<trkpt lat="35.16305" lon="-85.120218"><ele>210.6</ele><time>2026-08-01T19:06:23Z</time></trkpt>
<trkpt lat="35.163066" lon="-85.120251"><ele>209.4</ele><time>2026-08-01T19:06:25Z</time></trkpt>
<trkpt lat="35.163085" lon="-85.120278"><ele>209.4</ele><time>2026-08-01T19:06:27Z</time></trkpt>
<trkpt lat="35.16311" lon="-85.1203"><ele>209.4</ele><time>2026-08-01T19:06:29Z</time></trkpt>
<trkpt lat="35.163144" lon="-85.120323"><ele>212.4</ele><time>2026-08-01T19:06:32Z</time></trkpt>
<trkpt lat="35.163184" lon="-85.120333"><ele>212.4</ele><time>2026-08-01T19:06:35Z</time></trkpt>
<trkpt lat="35.163213" lon="-85.120333"><ele>214.3</ele><time>2026-08-01T19:06:37Z</time></trkpt>
<trkpt lat="35.163254" lon="-85.120326"><ele>216.1</ele><time>2026-08-01T19:06:40Z</time></trkpt>
<trkpt lat="35.163288" lon="-85.120327"><ele>216.1</ele><time>2026-08-01T19:06:42Z</time></trkpt>
<trkpt lat="35.163327" lon="-85.120319"><ele>217.0</ele><time>2026-08-01T19:06:45Z</time></trkpt>
<trkpt lat="35.163359" lon="-85.120334"><ele>215.5</ele><time>2026-08-01T19:06:47Z</time></trkpt>
<trkpt lat="35.163386" lon="-85.120343"><ele>214.9</ele><time>2026-08-01T19:06:49Z</time></trkpt>
<trkpt lat="35.163416" lon="-85.120343"><ele>213.1</ele><time>2026-08-01T19:06:51Z</time></trkpt>
<trkpt lat="35.163448" lon="-85.120333"><ele>213.7</ele><time>2026-08-01T19:06:53Z</time></trkpt>
<trkpt lat="35.163492" lon="-85.12033"><ele>214.0</ele><time>2026-08-01T19:06:56Z</time></trkpt>
<trkpt lat="35.163521" lon="-85.120339"><ele>214.0</ele><time>2026-08-01T19:06:58Z</time></trkpt>
<trkpt lat="35.163552" lon="-85.120348"><ele>214.6</ele><time>2026-08-01T19:07:00Z</time></trkpt>
<trkpt lat="35.163591" lon="-85.120361"><ele>213.7</ele><time>2026-08-01T19:07:03Z</time></trkpt>
<trkpt lat="35.163628" lon="-85.120381"><ele>213.7</ele><time>2026-08-01T19:07:06Z</time></trkpt>
<trkpt lat="35.163666" lon="-85.120394"><ele>215.2</ele><time>2026-08-01T19:07:09Z</time></trkpt>
<trkpt lat="35.163697" lon="-85.120398"><ele>214.3</ele><time>2026-08-01T19:07:11Z</time></trkpt>
<trkpt lat="35.163724" lon="-85.120396"><ele>214.3</ele><time>2026-08-01T19:07:13Z</time></trkpt>
<trkpt lat="35.163751" lon="-85.120377"><ele>212.1</ele><time>2026-08-01T19:07:16Z</time></trkpt>
<trkpt lat="35.163784" lon="-85.120355"><ele>213.4</ele><time>2026-08-01T19:07:19Z</time></trkpt>
<trkpt lat="35.163821" lon="-85.120343"><ele>213.1</ele><time>2026-08-01T19:07:22Z</time></trkpt>
<trkpt lat="35.163847" lon="-85.120333"><ele>213.7</ele><time>2026-08-01T19:07:24Z</time></trkpt>
<trkpt lat="35.163875" lon="-85.120325"><ele>213.4</ele><time>2026-08-01T19:07:26Z</time></trkpt>
<trkpt lat="35.163901" lon="-85.120314"><ele>213.1</ele><time>2026-08-01T19:07:28Z</time></trkpt>
<trkpt lat="35.16393" lon="-85.12031"><ele>214.3</ele><time>2026-08-01T19:07:30Z</time></trkpt>
<trkpt lat="35.163959" lon="-85.120307"><ele>214.9</ele><time>2026-08-01T19:07:32Z</time></trkpt>
<trkpt lat="35.163993" lon="-85.120286"><ele>215.2</ele><time>2026-08-01T19:07:35Z</time></trkpt>
<trkpt lat="35.164031" lon="-85.120273"><ele>215.2</ele><time>2026-08-01T19:07:38Z</time></trkpt>
<trkpt lat="35.16406" lon="-85.120263"><ele>213.4</ele><time>2026-08-01T19:07:40Z</time></trkpt>
<trkpt lat="35.164091" lon="-85.120257"><ele>213.4</ele><time>2026-08-01T19:07:42Z</time></trkpt>
<trkpt lat="35.16412" lon="-85.120249"><ele>214.6</ele><time>2026-08-01T19:07:44Z</time></trkpt>
<trkpt lat="35.164157" lon="-85.120224"><ele>212.4</ele><time>2026-08-01T19:07:47Z</time></trkpt>
<trkpt lat="35.164185" lon="-85.120207"><ele>209.4</ele><time>2026-08-01T19:07:49Z</time></trkpt>
<trkpt lat="35.164212" lon="-85.120191"><ele>210.0</ele><time>2026-08-01T19:07:51Z</time></trkpt>
<trkpt lat="35.164241" lon="-85.12018"><ele>212.1</ele><time>2026-08-01T19:07:53Z</time></trkpt>
<trkpt lat="35.164273" lon="-85.120186"><ele>211.8</ele><time>2026-08-01T19:07:55Z</time></trkpt>
<trkpt lat="35.164303" lon="-85.120186"><ele>211.2</ele><time>2026-08-01T19:07:57Z</time></trkpt>
<trkpt lat="35.164332" lon="-85.120179"><ele>212.8</ele><time>2026-08-01T19:07:59Z</time></trkpt>
<trkpt lat="35.164361" lon="-85.120171"><ele>212.8</ele><time>2026-08-01T19:08:01Z</time></trkpt>
<trkpt lat="35.164389" lon="-85.120164"><ele>212.4</ele><time>2026-08-01T19:08:03Z</time></trkpt>
<trkpt lat="35.164429" lon="-85.120158"><ele>212.1</ele><time>2026-08-01T19:08:06Z</time></trkpt>
<trkpt lat="35.16446" lon="-85.120155"><ele>212.1</ele><time>2026-08-01T19:08:08Z</time></trkpt>
<trkpt lat="35.164499" lon="-85.120143"><ele>212.1</ele><time>2026-08-01T19:08:11Z</time></trkpt>
<trkpt lat="35.164524" lon="-85.120127"><ele>211.5</ele><time>2026-08-01T19:08:13Z</time></trkpt>
<trkpt lat="35.164556" lon="-85.120102"><ele>211.8</ele><time>2026-08-01T19:08:16Z</time></trkpt>
<trkpt lat="35.164593" lon="-85.120085"><ele>212.8</ele><time>2026-08-01T19:08:19Z</time></trkpt>
<trkpt lat="35.164618" lon="-85.120066"><ele>212.1</ele><time>2026-08-01T19:08:21Z</time></trkpt>
<trkpt lat="35.164654" lon="-85.120042"><ele>213.4</ele><time>2026-08-01T19:08:24Z</time></trkpt>
<trkpt lat="35.164682" lon="-85.120024"><ele>210.9</ele><time>2026-08-01T19:08:26Z</time></trkpt>
<trkpt lat="35.164711" lon="-85.120012"><ele>210.0</ele><time>2026-08-01T19:08:28Z</time></trkpt>
<trkpt lat="35.164738" lon="-85.119995"><ele>210.6</ele><time>2026-08-01T19:08:30Z</time></trkpt>
<trkpt lat="35.164764" lon="-85.119977"><ele>212.1</ele><time>2026-08-01T19:08:32Z</time></trkpt>
<trkpt lat="35.164789" lon="-85.119961"><ele>212.8</ele><time>2026-08-01T19:08:34Z</time></trkpt>
<trkpt lat="35.164819" lon="-85.119945"><ele>212.4</ele><time>2026-08-01T19:08:36Z</time></trkpt>
<trkpt lat="35.164851" lon="-85.119938"><ele>212.8</ele><time>2026-08-01T19:08:38Z</time></trkpt>
<trkpt lat="35.16488" lon="-85.119934"><ele>211.8</ele><time>2026-08-01T19:08:40Z</time></trkpt>
<trkpt lat="35.164913" lon="-85.119928"><ele>211.8</ele><time>2026-08-01T19:08:42Z</time></trkpt>
<trkpt lat="35.164941" lon="-85.119917"><ele>211.8</ele><time>2026-08-01T19:08:44Z</time></trkpt>
<trkpt lat="35.164969" lon="-85.1199"><ele>211.8</ele><time>2026-08-01T19:08:46Z</time></trkpt>
<trkpt lat="35.164998" lon="-85.119885"><ele>211.5</ele><time>2026-08-01T19:08:48Z</time></trkpt>
<trkpt lat="35.165025" lon="-85.119871"><ele>210.0</ele><time>2026-08-01T19:08:50Z</time></trkpt>
<trkpt lat="35.165049" lon="-85.119846"><ele>209.7</ele><time>2026-08-01T19:08:52Z</time></trkpt>
<trkpt lat="35.165072" lon="-85.119823"><ele>210.0</ele><time>2026-08-01T19:08:54Z</time></trkpt>
<trkpt lat="35.165096" lon="-85.119801"><ele>209.7</ele><time>2026-08-01T19:08:56Z</time></trkpt>
<trkpt lat="35.165125" lon="-85.11977"><ele>210.3</ele><time>2026-08-01T19:08:59Z</time></trkpt>
<trkpt lat="35.165143" lon="-85.119742"><ele>212.4</ele><time>2026-08-01T19:09:01Z</time></trkpt>
<trkpt lat="35.165154" lon="-85.119693"><ele>213.7</ele><time>2026-08-01T19:09:04Z</time></trkpt>
<trkpt lat="35.165158" lon="-85.119657"><ele>212.4</ele><time>2026-08-01T19:09:06Z</time></trkpt>
<trkpt lat="35.165161" lon="-85.119618"><ele>212.1</ele><time>2026-08-01T19:09:08Z</time></trkpt>
<trkpt lat="35.165163" lon="-85.119583"><ele>213.4</ele><time>2026-08-01T19:09:10Z</time></trkpt>
<trkpt lat="35.165158" lon="-85.119536"><ele>212.8</ele><time>2026-08-01T19:09:13Z</time></trkpt>
<trkpt lat="35.165135" lon="-85.119508"><ele>212.1</ele><time>2026-08-01T19:09:15Z</time></trkpt>
<trkpt lat="35.165112" lon="-85.119484"><ele>211.8</ele><time>2026-08-01T19:09:17Z</time></trkpt>
<trkpt lat="35.165089" lon="-85.119461"><ele>211.5</ele><time>2026-08-01T19:09:19Z</time></trkpt>
<trkpt lat="35.165061" lon="-85.119453"><ele>211.8</ele><time>2026-08-01T19:09:21Z</time></trkpt>
<trkpt lat="35.165034" lon="-85.119437"><ele>213.1</ele><time>2026-08-01T19:09:23Z</time></trkpt>
<trkpt lat="35.165006" lon="-85.119426"><ele>212.8</ele><time>2026-08-01T19:09:25Z</time></trkpt>
<trkpt lat="35.16498" lon="-85.119404"><ele>212.1</ele><time>2026-08-01T19:09:27Z</time></trkpt>
<trkpt lat="35.164948" lon="-85.119396"><ele>210.6</ele><time>2026-08-01T19:09:29Z</time></trkpt>
<trkpt lat="35.164922" lon="-85.119387"><ele>210.6</ele><time>2026-08-01T19:09:31Z</time></trkpt>
<trkpt lat="35.164894" lon="-85.11938"><ele>213.1</ele><time>2026-08-01T19:09:33Z</time></trkpt>
<trkpt lat="35.164856" lon="-85.119365"><ele>211.5</ele><time>2026-08-01T19:09:36Z</time></trkpt>
<trkpt lat="35.164832" lon="-85.119346"><ele>213.1</ele><time>2026-08-01T19:09:38Z</time></trkpt>
<trkpt lat="35.164803" lon="-85.11934"><ele>212.1</ele><time>2026-08-01T19:09:40Z</time></trkpt>
<trkpt lat="35.164764" lon="-85.119355"><ele>210.0</ele><time>2026-08-01T19:09:43Z</time></trkpt>
<trkpt lat="35.164735" lon="-85.119368"><ele>210.0</ele><time>2026-08-01T19:09:45Z</time></trkpt>
<trkpt lat="35.164706" lon="-85.119375"><ele>209.7</ele><time>2026-08-01T19:09:47Z</time></trkpt>
<trkpt lat="35.164677" lon="-85.119379"><ele>209.7</ele><time>2026-08-01T19:09:49Z</time></trkpt>
<trkpt lat="35.164646" lon="-85.119377"><ele>208.8</ele><time>2026-08-01T19:09:51Z</time></trkpt>
<trkpt lat="35.164617" lon="-85.119369"><ele>207.9</ele><time>2026-08-01T19:09:53Z</time></trkpt>
<trkpt lat="35.164586" lon="-85.119366"><ele>208.2</ele><time>2026-08-01T19:09:55Z</time></trkpt>
<trkpt lat="35.164558" lon="-85.119351"><ele>209.7</ele><time>2026-08-01T19:09:57Z</time></trkpt>
<trkpt lat="35.164532" lon="-85.119342"><ele>210.3</ele><time>2026-08-01T19:09:59Z</time></trkpt>
<trkpt lat="35.164501" lon="-85.119333"><ele>210.3</ele><time>2026-08-01T19:10:01Z</time></trkpt>
<trkpt lat="35.164472" lon="-85.119322"><ele>210.6</ele><time>2026-08-01T19:10:03Z</time></trkpt>
<trkpt lat="35.164444" lon="-85.119308"><ele>211.8</ele><time>2026-08-01T19:10:05Z</time></trkpt>
<trkpt lat="35.164411" lon="-85.119286"><ele>211.8</ele><time>2026-08-01T19:10:08Z</time></trkpt>
<trkpt lat="35.164379" lon="-85.119278"><ele>211.2</ele><time>2026-08-01T19:10:11Z</time></trkpt>
<trkpt lat="35.164347" lon="-85.119278"><ele>211.8</ele><time>2026-08-01T19:10:13Z</time></trkpt>
<trkpt lat="35.164319" lon="-85.119278"><ele>212.4</ele><time>2026-08-01T19:10:15Z</time></trkpt>
<trkpt lat="35.164289" lon="-85.119272"><ele>212.8</ele><time>2026-08-01T19:10:17Z</time></trkpt>
<trkpt lat="35.164258" lon="-85.119267"><ele>212.4</ele><time>2026-08-01T19:10:19Z</time></trkpt>
<trkpt lat="35.164228" lon="-85.119263"><ele>212.4</ele><time>2026-08-01T19:10:21Z</time></trkpt>
<trkpt lat="35.164196" lon="-85.119257"><ele>214.3</ele><time>2026-08-01T19:10:23Z</time></trkpt>
<trkpt lat="35.164166" lon="-85.119251"><ele>215.2</ele><time>2026-08-01T19:10:25Z</time></trkpt>
<trkpt lat="35.164133" lon="-85.119239"><ele>216.1</ele><time>2026-08-01T19:10:27Z</time></trkpt>
<trkpt lat="35.164103" lon="-85.119229"><ele>216.7</ele><time>2026-08-01T19:10:29Z</time></trkpt>
<trkpt lat="35.164069" lon="-85.119219"><ele>216.7</ele><time>2026-08-01T19:10:31Z</time></trkpt>
<trkpt lat="35.164034" lon="-85.119206"><ele>216.7</ele><time>2026-08-01T19:10:33Z</time></trkpt>
<trkpt lat="35.164002" lon="-85.119192"><ele>217.0</ele><time>2026-08-01T19:10:35Z</time></trkpt>
<trkpt lat="35.163969" lon="-85.119179"><ele>217.6</ele><time>2026-08-01T19:10:37Z</time></trkpt>
<trkpt lat="35.163934" lon="-85.119169"><ele>219.5</ele><time>2026-08-01T19:10:39Z</time></trkpt>
<trkpt lat="35.163907" lon="-85.119156"><ele>219.5</ele><time>2026-08-01T19:10:41Z</time></trkpt>
<trkpt lat="35.163874" lon="-85.119147"><ele>219.5</ele><time>2026-08-01T19:10:43Z</time></trkpt>
<trkpt lat="35.163844" lon="-85.11915"><ele>219.2</ele><time>2026-08-01T19:10:45Z</time></trkpt>
<trkpt lat="35.163807" lon="-85.119146"><ele>217.9</ele><time>2026-08-01T19:10:48Z</time></trkpt>
<trkpt lat="35.16377" lon="-85.119142"><ele>215.2</ele><time>2026-08-01T19:10:51Z</time></trkpt>
<trkpt lat="35.163727" lon="-85.119146"><ele>214.6</ele><time>2026-08-01T19:10:54Z</time></trkpt>
<trkpt lat="35.163698" lon="-85.119153"><ele>214.9</ele><time>2026-08-01T19:10:56Z</time></trkpt>
<trkpt lat="35.16366" lon="-85.119169"><ele>215.2</ele><time>2026-08-01T19:10:59Z</time></trkpt>
<trkpt lat="35.163636" lon="-85.119186"><ele>216.4</ele><time>2026-08-01T19:11:01Z</time></trkpt>
<trkpt lat="35.163614" lon="-85.119206"><ele>216.4</ele><time>2026-08-01T19:11:03Z</time></trkpt>
<trkpt lat="35.163588" lon="-85.119236"><ele>215.8</ele><time>2026-08-01T19:11:06Z</time></trkpt>
<trkpt lat="35.163553" lon="-85.119262"><ele>214.0</ele><time>2026-08-01T19:11:09Z</time></trkpt>
<trkpt lat="35.16352" lon="-85.119272"><ele>213.1</ele><time>2026-08-01T19:11:11Z</time></trkpt>
<trkpt lat="35.163489" lon="-85.119282"><ele>213.4</ele><time>2026-08-01T19:11:13Z</time></trkpt>
<trkpt lat="35.163464" lon="-85.119297"><ele>213.1</ele><time>2026-08-01T19:11:15Z</time></trkpt>
<trkpt lat="35.163437" lon="-85.119311"><ele>213.1</ele><time>2026-08-01T19:11:17Z</time></trkpt>
<trkpt lat="35.163407" lon="-85.119328"><ele>211.8</ele><time>2026-08-01T19:11:19Z</time></trkpt>
<trkpt lat="35.163378" lon="-85.119337"><ele>211.5</ele><time>2026-08-01T19:11:21Z</time></trkpt>
<trkpt lat="35.163348" lon="-85.11935"><ele>212.4</ele><time>2026-08-01T19:11:23Z</time></trkpt>
<trkpt lat="35.163318" lon="-85.119361"><ele>211.8</ele><time>2026-08-01T19:11:25Z</time></trkpt>
<trkpt lat="35.16329" lon="-85.119372"><ele>212.8</ele><time>2026-08-01T19:11:27Z</time></trkpt>
<trkpt lat="35.16326" lon="-85.119376"><ele>213.1</ele><time>2026-08-01T19:11:29Z</time></trkpt>
<trkpt lat="35.163231" lon="-85.119373"><ele>214.9</ele><time>2026-08-01T19:11:31Z</time></trkpt>
<trkpt lat="35.163205" lon="-85.119354"><ele>217.0</ele><time>2026-08-01T19:11:33Z</time></trkpt>
<trkpt lat="35.163186" lon="-85.119325"><ele>216.7</ele><time>2026-08-01T19:11:35Z</time></trkpt>
<trkpt lat="35.163162" lon="-85.119303"><ele>216.1</ele><time>2026-08-01T19:11:37Z</time></trkpt>
<trkpt lat="35.163133" lon="-85.119293"><ele>215.8</ele><time>2026-08-01T19:11:39Z</time></trkpt>
<trkpt lat="35.163104" lon="-85.119293"><ele>215.8</ele><time>2026-08-01T19:11:41Z</time></trkpt>
<trkpt lat="35.163066" lon="-85.119288"><ele>215.8</ele><time>2026-08-01T19:11:44Z</time></trkpt>
<trkpt lat="35.163039" lon="-85.119271"><ele>216.4</ele><time>2026-08-01T19:11:46Z</time></trkpt>
<trkpt lat="35.163015" lon="-85.11925"><ele>215.8</ele><time>2026-08-01T19:11:48Z</time></trkpt>
<trkpt lat="35.162981" lon="-85.119229"><ele>213.4</ele><time>2026-08-01T19:11:51Z</time></trkpt>
<trkpt lat="35.162942" lon="-85.119223"><ele>214.9</ele><time>2026-08-01T19:11:54Z</time></trkpt>
<trkpt lat="35.162912" lon="-85.119222"><ele>215.2</ele><time>2026-08-01T19:11:56Z</time></trkpt>
<trkpt lat="35.162883" lon="-85.119221"><ele>215.8</ele><time>2026-08-01T19:11:58Z</time></trkpt>
<trkpt lat="35.162852" lon="-85.119219"><ele>214.0</ele><time>2026-08-01T19:12:00Z</time></trkpt>
<trkpt lat="35.162824" lon="-85.119219"><ele>214.9</ele><time>2026-08-01T19:12:02Z</time></trkpt>
<trkpt lat="35.162785" lon="-85.119214"><ele>214.6</ele><time>2026-08-01T19:12:05Z</time></trkpt>
<trkpt lat="35.162757" lon="-85.119208"><ele>214.9</ele><time>2026-08-01T19:12:07Z</time></trkpt>
<trkpt lat="35.162718" lon="-85.119194"><ele>214.9</ele><time>2026-08-01T19:12:10Z</time></trkpt>
<trkpt lat="35.162679" lon="-85.119186"><ele>216.1</ele><time>2026-08-01T19:12:13Z</time></trkpt>
<trkpt lat="35.162652" lon="-85.119175"><ele>215.8</ele><time>2026-08-01T19:12:15Z</time></trkpt>
<trkpt lat="35.162623" lon="-85.119167"><ele>216.1</ele><time>2026-08-01T19:12:17Z</time></trkpt>
<trkpt lat="35.162583" lon="-85.119155"><ele>216.4</ele><time>2026-08-01T19:12:20Z</time></trkpt>
<trkpt lat="35.162552" lon="-85.119148"><ele>217.9</ele><time>2026-08-01T19:12:22Z</time></trkpt>
<trkpt lat="35.162524" lon="-85.119138"><ele>217.3</ele><time>2026-08-01T19:12:24Z</time></trkpt>
<trkpt lat="35.162497" lon="-85.11912"><ele>215.5</ele><time>2026-08-01T19:12:26Z</time></trkpt>
<trkpt lat="35.162467" lon="-85.119114"><ele>216.1</ele><time>2026-08-01T19:12:28Z</time></trkpt>
<trkpt lat="35.16244" lon="-85.119106"><ele>215.5</ele><time>2026-08-01T19:12:30Z</time></trkpt>
<trkpt lat="35.162409" lon="-85.1191"><ele>214.6</ele><time>2026-08-01T19:12:32Z</time></trkpt>
<trkpt lat="35.16238" lon="-85.119081"><ele>215.2</ele><time>2026-08-01T19:12:34Z</time></trkpt>
<trkpt lat="35.162356" lon="-85.119059"><ele>216.1</ele><time>2026-08-01T19:12:36Z</time></trkpt>
<trkpt lat="35.16233" lon="-85.119046"><ele>216.7</ele><time>2026-08-01T19:12:38Z</time></trkpt>
<trkpt lat="35.162305" lon="-85.119024"><ele>216.4</ele><time>2026-08-01T19:12:40Z</time></trkpt>
<trkpt lat="35.162278" lon="-85.119003"><ele>215.8</ele><time>2026-08-01T19:12:42Z</time></trkpt>
<trkpt lat="35.162253" lon="-85.11899"><ele>216.1</ele><time>2026-08-01T19:12:44Z</time></trkpt>
<trkpt lat="35.162215" lon="-85.118975"><ele>217.0</ele><time>2026-08-01T19:12:47Z</time></trkpt>
<trkpt lat="35.162189" lon="-85.118959"><ele>216.1</ele><time>2026-08-01T19:12:49Z</time></trkpt>
<trkpt lat="35.162163" lon="-85.118947"><ele>216.7</ele><time>2026-08-01T19:12:51Z</time></trkpt>
<trkpt lat="35.162124" lon="-85.118924"><ele>216.4</ele><time>2026-08-01T19:12:54Z</time></trkpt>
<trkpt lat="35.162096" lon="-85.118911"><ele>215.2</ele><time>2026-08-01T19:12:56Z</time></trkpt>
<trkpt lat="35.162071" lon="-85.118894"><ele>214.0</ele><time>2026-08-01T19:12:58Z</time></trkpt>
<trkpt lat="35.162048" lon="-85.118871"><ele>214.0</ele><time>2026-08-01T19:13:00Z</time></trkpt>
<trkpt lat="35.162028" lon="-85.118844"><ele>213.7</ele><time>2026-08-01T19:13:02Z</time></trkpt>
<trkpt lat="35.162011" lon="-85.118812"><ele>213.7</ele><time>2026-08-01T19:13:04Z</time></trkpt>
<trkpt lat="35.16199" lon="-85.118786"><ele>214.3</ele><time>2026-08-01T19:13:06Z</time></trkpt>
<trkpt lat="35.161968" lon="-85.118763"><ele>215.5</ele><time>2026-08-01T19:13:08Z</time></trkpt>
<trkpt lat="35.161946" lon="-85.118739"><ele>214.3</ele><time>2026-08-01T19:13:10Z</time></trkpt>
<trkpt lat="35.161926" lon="-85.118716"><ele>217.9</ele><time>2026-08-01T19:13:12Z</time></trkpt>
<trkpt lat="35.161895" lon="-85.118689"><ele>219.2</ele><time>2026-08-01T19:13:15Z</time></trkpt>
<trkpt lat="35.161867" lon="-85.11868"><ele>219.8</ele><time>2026-08-01T19:13:17Z</time></trkpt>
<trkpt lat="35.161835" lon="-85.118677"><ele>218.2</ele><time>2026-08-01T19:13:19Z</time></trkpt>
<trkpt lat="35.161804" lon="-85.118671"><ele>217.0</ele><time>2026-08-01T19:13:21Z</time></trkpt>
<trkpt lat="35.161774" lon="-85.118667"><ele>216.4</ele><time>2026-08-01T19:13:23Z</time></trkpt>
<trkpt lat="35.161746" lon="-85.118667"><ele>215.5</ele><time>2026-08-01T19:13:25Z</time></trkpt>
<trkpt lat="35.161716" lon="-85.118666"><ele>214.9</ele><time>2026-08-01T19:13:27Z</time></trkpt>
<trkpt lat="35.161683" lon="-85.11866"><ele>214.3</ele><time>2026-08-01T19:13:29Z</time></trkpt>
<trkpt lat="35.161654" lon="-85.118649"><ele>212.8</ele><time>2026-08-01T19:13:31Z</time></trkpt>
<trkpt lat="35.161627" lon="-85.118625"><ele>213.1</ele><time>2026-08-01T19:13:33Z</time></trkpt>
<trkpt lat="35.161605" lon="-85.118598"><ele>214.0</ele><time>2026-08-01T19:13:35Z</time></trkpt>
<trkpt lat="35.161584" lon="-85.11857"><ele>214.3</ele><time>2026-08-01T19:13:37Z</time></trkpt>
<trkpt lat="35.161565" lon="-85.118545"><ele>213.7</ele><time>2026-08-01T19:13:39Z</time></trkpt>
<trkpt lat="35.16153" lon="-85.118518"><ele>214.6</ele><time>2026-08-01T19:13:42Z</time></trkpt>
<trkpt lat="35.161497" lon="-85.118488"><ele>215.5</ele><time>2026-08-01T19:13:45Z</time></trkpt>
<trkpt lat="35.161482" lon="-85.118457"><ele>215.2</ele><time>2026-08-01T19:13:47Z</time></trkpt>
<trkpt lat="35.161473" lon="-85.118424"><ele>215.2</ele><time>2026-08-01T19:13:49Z</time></trkpt>
<trkpt lat="35.161466" lon="-85.118375"><ele>214.6</ele><time>2026-08-01T19:13:52Z</time></trkpt>
<trkpt lat="35.161473" lon="-85.118327"><ele>214.0</ele><time>2026-08-01T19:13:55Z</time></trkpt>
<trkpt lat="35.161486" lon="-85.118293"><ele>213.7</ele><time>2026-08-01T19:13:57Z</time></trkpt>
<trkpt lat="35.161491" lon="-85.118244"><ele>214.0</ele><time>2026-08-01T19:14:00Z</time></trkpt>
<trkpt lat="35.161501" lon="-85.118195"><ele>214.9</ele><time>2026-08-01T19:14:03Z</time></trkpt>
<trkpt lat="35.161498" lon="-85.118158"><ele>216.1</ele><time>2026-08-01T19:14:05Z</time></trkpt>
<trkpt lat="35.161487" lon="-85.118124"><ele>216.4</ele><time>2026-08-01T19:14:07Z</time></trkpt>
<trkpt lat="35.161466" lon="-85.118092"><ele>215.8</ele><time>2026-08-01T19:14:09Z</time></trkpt>
<trkpt lat="35.161438" lon="-85.118068"><ele>214.9</ele><time>2026-08-01T19:14:11Z</time></trkpt>
<trkpt lat="35.161414" lon="-85.118048"><ele>215.5</ele><time>2026-08-01T19:14:13Z</time></trkpt>
<trkpt lat="35.16139" lon="-85.118029"><ele>216.1</ele><time>2026-08-01T19:14:15Z</time></trkpt>
<trkpt lat="35.161353" lon="-85.118012"><ele>218.2</ele><time>2026-08-01T19:14:18Z</time></trkpt>
<trkpt lat="35.161325" lon="-85.118004"><ele>217.9</ele><time>2026-08-01T19:14:20Z</time></trkpt>
<trkpt lat="35.161295" lon="-85.118008"><ele>217.0</ele><time>2026-08-01T19:14:22Z</time></trkpt>
<trkpt lat="35.161266" lon="-85.118007"><ele>217.3</ele><time>2026-08-01T19:14:24Z</time></trkpt>
<trkpt lat="35.161238" lon="-85.118"><ele>217.6</ele><time>2026-08-01T19:14:26Z</time></trkpt>
<trkpt lat="35.161209" lon="-85.118001"><ele>218.5</ele><time>2026-08-01T19:14:28Z</time></trkpt>
<trkpt lat="35.161181" lon="-85.117993"><ele>218.5</ele><time>2026-08-01T19:14:30Z</time></trkpt>
<trkpt lat="35.161139" lon="-85.117994"><ele>219.5</ele><time>2026-08-01T19:14:33Z</time></trkpt>
<trkpt lat="35.16111" lon="-85.118"><ele>217.9</ele><time>2026-08-01T19:14:35Z</time></trkpt>
<trkpt lat="35.161077" lon="-85.118007"><ele>217.9</ele><time>2026-08-01T19:14:37Z</time></trkpt>
<trkpt lat="35.161049" lon="-85.118013"><ele>218.5</ele><time>2026-08-01T19:14:39Z</time></trkpt>
<trkpt lat="35.16102" lon="-85.118017"><ele>218.5</ele><time>2026-08-01T19:14:41Z</time></trkpt>
<trkpt lat="35.160989" lon="-85.118014"><ele>217.9</ele><time>2026-08-01T19:14:43Z</time></trkpt>
<trkpt lat="35.160957" lon="-85.118009"><ele>217.6</ele><time>2026-08-01T19:14:45Z</time></trkpt>
<trkpt lat="35.160928" lon="-85.118003"><ele>216.4</ele><time>2026-08-01T19:14:47Z</time></trkpt>
<trkpt lat="35.1609" lon="-85.118001"><ele>216.4</ele><time>2026-08-01T19:14:49Z</time></trkpt>
<trkpt lat="35.160871" lon="-85.117998"><ele>215.8</ele><time>2026-08-01T19:14:51Z</time></trkpt>
<trkpt lat="35.160844" lon="-85.117992"><ele>214.9</ele><time>2026-08-01T19:14:53Z</time></trkpt>
<trkpt lat="35.160819" lon="-85.117975"><ele>214.9</ele><time>2026-08-01T19:14:55Z</time></trkpt>
<trkpt lat="35.160798" lon="-85.117952"><ele>214.3</ele><time>2026-08-01T19:14:57Z</time></trkpt>
<trkpt lat="35.160779" lon="-85.117925"><ele>214.9</ele><time>2026-08-01T19:14:59Z</time></trkpt>
<trkpt lat="35.160765" lon="-85.117893"><ele>212.8</ele><time>2026-08-01T19:15:01Z</time></trkpt>
<trkpt lat="35.160741" lon="-85.117854"><ele>211.8</ele><time>2026-08-01T19:15:04Z</time></trkpt>
<trkpt lat="35.160727" lon="-85.117821"><ele>211.8</ele><time>2026-08-01T19:15:06Z</time></trkpt>
<trkpt lat="35.160726" lon="-85.117775"><ele>213.7</ele><time>2026-08-01T19:15:08Z</time></trkpt>
<trkpt lat="35.160708" lon="-85.117746"><ele>213.4</ele><time>2026-08-01T19:15:10Z</time></trkpt>
<trkpt lat="35.160687" lon="-85.117719"><ele>213.4</ele><time>2026-08-01T19:15:12Z</time></trkpt>
<trkpt lat="35.160658" lon="-85.117704"><ele>213.1</ele><time>2026-08-01T19:15:15Z</time></trkpt>
<trkpt lat="35.160629" lon="-85.117674"><ele>213.4</ele><time>2026-08-01T19:15:18Z</time></trkpt>
<trkpt lat="35.1606" lon="-85.117636"><ele>212.8</ele><time>2026-08-01T19:15:21Z</time></trkpt>
<trkpt lat="35.16058" lon="-85.117608"><ele>212.4</ele><time>2026-08-01T19:15:23Z</time></trkpt>
<trkpt lat="35.160548" lon="-85.117579"><ele>211.8</ele><time>2026-08-01T19:15:26Z</time></trkpt>
<trkpt lat="35.160525" lon="-85.117558"><ele>211.8</ele><time>2026-08-01T19:15:28Z</time></trkpt>
<trkpt lat="35.160498" lon="-85.117523"><ele>212.1</ele><time>2026-08-01T19:15:30Z</time></trkpt>
<trkpt lat="35.160469" lon="-85.117503"><ele>214.0</ele><time>2026-08-01T19:15:32Z</time></trkpt>
<trkpt lat="35.160443" lon="-85.117489"><ele>212.8</ele><time>2026-08-01T19:15:34Z</time></trkpt>
<trkpt lat="35.16042" lon="-85.117467"><ele>212.4</ele><time>2026-08-01T19:15:36Z</time></trkpt>
<trkpt lat="35.160397" lon="-85.117446"><ele>212.1</ele><time>2026-08-01T19:15:38Z</time></trkpt>
<trkpt lat="35.16036" lon="-85.117418"><ele>211.8</ele><time>2026-08-01T19:15:41Z</time></trkpt>
<trkpt lat="35.160328" lon="-85.117395"><ele>212.4</ele><time>2026-08-01T19:15:43Z</time></trkpt>
<trkpt lat="35.160299" lon="-85.117375"><ele>213.1</ele><time>2026-08-01T19:15:45Z</time></trkpt>
<trkpt lat="35.160269" lon="-85.117351"><ele>214.0</ele><time>2026-08-01T19:15:47Z</time></trkpt>
<trkpt lat="35.160244" lon="-85.117333"><ele>213.7</ele><time>2026-08-01T19:15:49Z</time></trkpt>
<trkpt lat="35.160205" lon="-85.117319"><ele>214.6</ele><time>2026-08-01T19:15:52Z</time></trkpt>
<trkpt lat="35.160177" lon="-85.117315"><ele>215.2</ele><time>2026-08-01T19:15:54Z</time></trkpt>
<trkpt lat="35.160139" lon="-85.117303"><ele>215.8</ele><time>2026-08-01T19:15:57Z</time></trkpt>
<trkpt lat="35.160111" lon="-85.117293"><ele>215.8</ele><time>2026-08-01T19:15:59Z</time></trkpt>
<trkpt lat="35.160086" lon="-85.11727"><ele>214.9</ele><time>2026-08-01T19:16:01Z</time></trkpt>
<trkpt lat="35.160068" lon="-85.117242"><ele>213.1</ele><time>2026-08-01T19:16:03Z</time></trkpt>
<trkpt lat="35.160052" lon="-85.117213"><ele>212.4</ele><time>2026-08-01T19:16:05Z</time></trkpt>
<trkpt lat="35.160022" lon="-85.117184"><ele>211.5</ele><time>2026-08-01T19:16:08Z</time></trkpt>
<trkpt lat="35.159985" lon="-85.117167"><ele>212.8</ele><time>2026-08-01T19:16:11Z</time></trkpt>
<trkpt lat="35.159957" lon="-85.117147"><ele>212.1</ele><time>2026-08-01T19:16:13Z</time></trkpt>
<trkpt lat="35.159933" lon="-85.117122"><ele>210.0</ele><time>2026-08-01T19:16:15Z</time></trkpt>
<trkpt lat="35.159901" lon="-85.117111"><ele>209.4</ele><time>2026-08-01T19:16:17Z</time></trkpt>
<trkpt lat="35.15987" lon="-85.117108"><ele>210.9</ele><time>2026-08-01T19:16:19Z</time></trkpt>
<trkpt lat="35.159848" lon="-85.117085"><ele>210.3</ele><time>2026-08-01T19:16:21Z</time></trkpt>
<trkpt lat="35.159823" lon="-85.117067"><ele>211.8</ele><time>2026-08-01T19:16:23Z</time></trkpt>
<trkpt lat="35.159797" lon="-85.117043"><ele>212.8</ele><time>2026-08-01T19:16:25Z</time></trkpt>
<trkpt lat="35.159771" lon="-85.117025"><ele>212.4</ele><time>2026-08-01T19:16:27Z</time></trkpt>
<trkpt lat="35.159744" lon="-85.11702"><ele>212.4</ele><time>2026-08-01T19:16:29Z</time></trkpt>
<trkpt lat="35.159706" lon="-85.11702"><ele>213.4</ele><time>2026-08-01T19:16:32Z</time></trkpt>
<trkpt lat="35.159679" lon="-85.117028"><ele>214.0</ele><time>2026-08-01T19:16:34Z</time></trkpt>
<trkpt lat="35.159649" lon="-85.117027"><ele>214.3</ele><time>2026-08-01T19:16:36Z</time></trkpt>
<trkpt lat="35.15962" lon="-85.117025"><ele>214.0</ele><time>2026-08-01T19:16:38Z</time></trkpt>
<trkpt lat="35.159584" lon="-85.117005"><ele>217.3</ele><time>2026-08-01T19:16:41Z</time></trkpt>
<trkpt lat="35.159564" lon="-85.116978"><ele>216.1</ele><time>2026-08-01T19:16:43Z</time></trkpt>
<trkpt lat="35.159542" lon="-85.116953"><ele>215.8</ele><time>2026-08-01T19:16:45Z</time></trkpt>
<trkpt lat="35.159523" lon="-85.116925"><ele>216.4</ele><time>2026-08-01T19:16:47Z</time></trkpt>
<trkpt lat="35.15949" lon="-85.116895"><ele>215.5</ele><time>2026-08-01T19:16:50Z</time></trkpt>
<trkpt lat="35.159464" lon="-85.116877"><ele>215.2</ele><time>2026-08-01T19:16:52Z</time></trkpt>
<trkpt lat="35.159435" lon="-85.116868"><ele>214.3</ele><time>2026-08-01T19:16:54Z</time></trkpt>
<trkpt lat="35.159407" lon="-85.116854"><ele>215.2</ele><time>2026-08-01T19:16:56Z</time></trkpt>
<trkpt lat="35.159381" lon="-85.116839"><ele>216.4</ele><time>2026-08-01T19:16:58Z</time></trkpt>
<trkpt lat="35.159357" lon="-85.116818"><ele>216.7</ele><time>2026-08-01T19:17:00Z</time></trkpt>
<trkpt lat="35.159318" lon="-85.1168"><ele>217.9</ele><time>2026-08-01T19:17:03Z</time></trkpt>
<trkpt lat="35.159288" lon="-85.11679"><ele>217.6</ele><time>2026-08-01T19:17:05Z</time></trkpt>
<trkpt lat="35.15926" lon="-85.116782"><ele>217.3</ele><time>2026-08-01T19:17:07Z</time></trkpt>
<trkpt lat="35.159232" lon="-85.11677"><ele>216.4</ele><time>2026-08-01T19:17:09Z</time></trkpt>
<trkpt lat="35.159191" lon="-85.116761"><ele>215.8</ele><time>2026-08-01T19:17:12Z</time></trkpt>
<trkpt lat="35.159162" lon="-85.116757"><ele>216.4</ele><time>2026-08-01T19:17:14Z</time></trkpt>
<trkpt lat="35.159134" lon="-85.116749"><ele>216.4</ele><time>2026-08-01T19:17:16Z</time></trkpt>
<trkpt lat="35.159112" lon="-85.116721"><ele>214.3</ele><time>2026-08-01T19:17:18Z</time></trkpt>
<trkpt lat="35.159084" lon="-85.116684"><ele>213.7</ele><time>2026-08-01T19:17:21Z</time></trkpt>
<trkpt lat="35.159078" lon="-85.116643"><ele>214.3</ele><time>2026-08-01T19:17:23Z</time></trkpt>
<trkpt lat="35.159075" lon="-85.116603"><ele>213.7</ele><time>2026-08-01T19:17:25Z</time></trkpt>
<trkpt lat="35.159069" lon="-85.116569"><ele>213.1</ele><time>2026-08-01T19:17:27Z</time></trkpt>
<trkpt lat="35.159053" lon="-85.116522"><ele>213.1</ele><time>2026-08-01T19:17:30Z</time></trkpt>
<trkpt lat="35.159034" lon="-85.116493"><ele>215.5</ele><time>2026-08-01T19:17:32Z</time></trkpt>
<trkpt lat="35.159015" lon="-85.116466"><ele>217.9</ele><time>2026-08-01T19:17:34Z</time></trkpt>
<trkpt lat="35.158994" lon="-85.116443"><ele>217.9</ele><time>2026-08-01T19:17:36Z</time></trkpt>
<trkpt lat="35.158977" lon="-85.116416"><ele>216.7</ele><time>2026-08-01T19:17:38Z</time></trkpt>
<trkpt lat="35.158964" lon="-85.116386"><ele>216.4</ele><time>2026-08-01T19:17:40Z</time></trkpt>
<trkpt lat="35.158947" lon="-85.11636"><ele>217.0</ele><time>2026-08-01T19:17:42Z</time></trkpt>
<trkpt lat="35.158928" lon="-85.116334"><ele>217.0</ele><time>2026-08-01T19:17:44Z</time></trkpt>
<trkpt lat="35.158901" lon="-85.116321"><ele>216.7</ele><time>2026-08-01T19:17:46Z</time></trkpt>
<trkpt lat="35.158869" lon="-85.116319"><ele>217.0</ele><time>2026-08-01T19:17:48Z</time></trkpt>
<trkpt lat="35.158835" lon="-85.116324"><ele>217.6</ele><time>2026-08-01T19:17:50Z</time></trkpt>
<trkpt lat="35.158807" lon="-85.116329"><ele>217.6</ele><time>2026-08-01T19:17:52Z</time></trkpt>
<trkpt lat="35.15878" lon="-85.116345"><ele>217.6</ele><time>2026-08-01T19:17:54Z</time></trkpt>
<trkpt lat="35.158754" lon="-85.116366"><ele>217.9</ele><time>2026-08-01T19:17:56Z</time></trkpt>
<trkpt lat="35.158718" lon="-85.116383"><ele>215.5</ele><time>2026-08-01T19:17:59Z</time></trkpt>
<trkpt lat="35.158693" lon="-85.116401"><ele>214.9</ele><time>2026-08-01T19:18:01Z</time></trkpt>
<trkpt lat="35.158669" lon="-85.116419"><ele>214.6</ele><time>2026-08-01T19:18:03Z</time></trkpt>
<trkpt lat="35.158643" lon="-85.116432"><ele>215.2</ele><time>2026-08-01T19:18:05Z</time></trkpt>
<trkpt lat="35.158618" lon="-85.116451"><ele>215.2</ele><time>2026-08-01T19:18:07Z</time></trkpt>
<trkpt lat="35.158596" lon="-85.116471"><ele>212.8</ele><time>2026-08-01T19:18:09Z</time></trkpt>
<trkpt lat="35.158561" lon="-85.116499"><ele>210.0</ele><time>2026-08-01T19:18:12Z</time></trkpt>
<trkpt lat="35.158536" lon="-85.116517"><ele>210.9</ele><time>2026-08-01T19:18:14Z</time></trkpt>
<trkpt lat="35.158507" lon="-85.116522"><ele>210.9</ele><time>2026-08-01T19:18:16Z</time></trkpt>
<trkpt lat="35.158477" lon="-85.116514"><ele>212.1</ele><time>2026-08-01T19:18:18Z</time></trkpt>
<trkpt lat="35.15845" lon="-85.116522"><ele>212.8</ele><time>2026-08-01T19:18:20Z</time></trkpt>
<trkpt lat="35.158421" lon="-85.116523"><ele>212.8</ele><time>2026-08-01T19:18:22Z</time></trkpt>
<trkpt lat="35.158392" lon="-85.116521"><ele>211.8</ele><time>2026-08-01T19:18:24Z</time></trkpt>
<trkpt lat="35.158351" lon="-85.116514"><ele>211.2</ele><time>2026-08-01T19:18:27Z</time></trkpt>
<trkpt lat="35.158322" lon="-85.116508"><ele>210.6</ele><time>2026-08-01T19:18:29Z</time></trkpt>
<trkpt lat="35.158281" lon="-85.116497"><ele>211.2</ele><time>2026-08-01T19:18:32Z</time></trkpt>
<trkpt lat="35.158254" lon="-85.116494"><ele>210.0</ele><time>2026-08-01T19:18:34Z</time></trkpt>
<trkpt lat="35.158224" lon="-85.11649"><ele>210.9</ele><time>2026-08-01T19:18:36Z</time></trkpt>
<trkpt lat="35.158197" lon="-85.11649"><ele>211.5</ele><time>2026-08-01T19:18:38Z</time></trkpt>
<trkpt lat="35.158168" lon="-85.11649"><ele>211.2</ele><time>2026-08-01T19:18:40Z</time></trkpt>
<trkpt lat="35.15814" lon="-85.116483"><ele>210.6</ele><time>2026-08-01T19:18:42Z</time></trkpt>
<trkpt lat="35.158112" lon="-85.116475"><ele>210.9</ele><time>2026-08-01T19:18:44Z</time></trkpt>
<trkpt lat="35.158072" lon="-85.116461"><ele>212.4</ele><time>2026-08-01T19:18:47Z</time></trkpt>
<trkpt lat="35.158044" lon="-85.116451"><ele>212.4</ele><time>2026-08-01T19:18:49Z</time></trkpt>
<trkpt lat="35.158019" lon="-85.116436"><ele>214.0</ele><time>2026-08-01T19:18:51Z</time></trkpt>
<trkpt lat="35.157983" lon="-85.116416"><ele>215.2</ele><time>2026-08-01T19:18:54Z</time></trkpt>
<trkpt lat="35.15796" lon="-85.116394"><ele>213.7</ele><time>2026-08-01T19:18:56Z</time></trkpt>
<trkpt lat="35.157942" lon="-85.116368"><ele>211.2</ele><time>2026-08-01T19:18:58Z</time></trkpt>
<trkpt lat="35.157897" lon="-85.116364"><ele>211.2</ele><time>2026-08-01T19:19:00Z</time></trkpt>
<trkpt lat="35.157867" lon="-85.116375"><ele>210.9</ele><time>2026-08-01T19:19:02Z</time></trkpt>
<trkpt lat="35.157834" lon="-85.116378"><ele>210.9</ele><time>2026-08-01T19:19:05Z</time></trkpt>
<trkpt lat="35.157805" lon="-85.116386"><ele>211.5</ele><time>2026-08-01T19:19:07Z</time></trkpt>
<trkpt lat="35.157766" lon="-85.116394"><ele>210.6</ele><time>2026-08-01T19:19:10Z</time></trkpt>
<trkpt lat="35.157736" lon="-85.1164"><ele>210.0</ele><time>2026-08-01T19:19:12Z</time></trkpt>
<trkpt lat="35.157709" lon="-85.116404"><ele>209.7</ele><time>2026-08-01T19:19:14Z</time></trkpt>
<trkpt lat="35.157681" lon="-85.116403"><ele>210.6</ele><time>2026-08-01T19:19:16Z</time></trkpt>
<trkpt lat="35.157649" lon="-85.116402"><ele>210.3</ele><time>2026-08-01T19:19:18Z</time></trkpt>
<trkpt lat="35.157621" lon="-85.116407"><ele>211.2</ele><time>2026-08-01T19:19:20Z</time></trkpt>
<trkpt lat="35.157585" lon="-85.116409"><ele>209.1</ele><time>2026-08-01T19:19:23Z</time></trkpt>
<trkpt lat="35.157554" lon="-85.116409"><ele>210.0</ele><time>2026-08-01T19:19:25Z</time></trkpt>
<trkpt lat="35.157524" lon="-85.116404"><ele>209.7</ele><time>2026-08-01T19:19:27Z</time></trkpt>
<trkpt lat="35.157495" lon="-85.116394"><ele>210.3</ele><time>2026-08-01T19:19:29Z</time></trkpt>
<trkpt lat="35.157459" lon="-85.116397"><ele>209.4</ele><time>2026-08-01T19:19:32Z</time></trkpt>
<trkpt lat="35.157429" lon="-85.116403"><ele>210.0</ele><time>2026-08-01T19:19:34Z</time></trkpt>
<trkpt lat="35.157399" lon="-85.116401"><ele>209.7</ele><time>2026-08-01T19:19:36Z</time></trkpt>
<trkpt lat="35.157371" lon="-85.116403"><ele>209.1</ele><time>2026-08-01T19:19:38Z</time></trkpt>
<trkpt lat="35.157343" lon="-85.116402"><ele>208.8</ele><time>2026-08-01T19:19:40Z</time></trkpt>
<trkpt lat="35.157314" lon="-85.1164"><ele>208.8</ele><time>2026-08-01T19:19:42Z</time></trkpt>
<trkpt lat="35.157286" lon="-85.116396"><ele>208.8</ele><time>2026-08-01T19:19:44Z</time></trkpt>
<trkpt lat="35.157256" lon="-85.1164"><ele>208.8</ele><time>2026-08-01T19:19:46Z</time></trkpt>
<trkpt lat="35.157228" lon="-85.116392"><ele>208.5</ele><time>2026-08-01T19:19:48Z</time></trkpt>
<trkpt lat="35.157197" lon="-85.116402"><ele>209.7</ele><time>2026-08-01T19:19:50Z</time></trkpt>
<trkpt lat="35.157158" lon="-85.116394"><ele>209.7</ele><time>2026-08-01T19:19:53Z</time></trkpt>
<trkpt lat="35.157131" lon="-85.116387"><ele>208.5</ele><time>2026-08-01T19:19:55Z</time></trkpt>
<trkpt lat="35.157102" lon="-85.116392"><ele>210.6</ele><time>2026-08-01T19:19:57Z</time></trkpt>
<trkpt lat="35.157074" lon="-85.1164"><ele>209.1</ele><time>2026-08-01T19:19:59Z</time></trkpt>
<trkpt lat="35.157044" lon="-85.116397"><ele>208.2</ele><time>2026-08-01T19:20:01Z</time></trkpt>
<trkpt lat="35.157017" lon="-85.1164"><ele>208.8</ele><time>2026-08-01T19:20:03Z</time></trkpt>
<trkpt lat="35.15699" lon="-85.116411"><ele>209.1</ele><time>2026-08-01T19:20:05Z</time></trkpt>
<trkpt lat="35.156952" lon="-85.116419"><ele>210.0</ele><time>2026-08-01T19:20:08Z</time></trkpt>
<trkpt lat="35.156923" lon="-85.116411"><ele>209.7</ele><time>2026-08-01T19:20:10Z</time></trkpt>
<trkpt lat="35.156885" lon="-85.1164"><ele>211.5</ele><time>2026-08-01T19:20:13Z</time></trkpt>
<trkpt lat="35.156849" lon="-85.116383"><ele>211.8</ele><time>2026-08-01T19:20:16Z</time></trkpt>
<trkpt lat="35.156811" lon="-85.116372"><ele>213.1</ele><time>2026-08-01T19:20:19Z</time></trkpt>
<trkpt lat="35.156772" lon="-85.116372"><ele>213.4</ele><time>2026-08-01T19:20:22Z</time></trkpt>
<trkpt lat="35.156742" lon="-85.116369"><ele>213.4</ele><time>2026-08-01T19:20:24Z</time></trkpt>
<trkpt lat="35.156714" lon="-85.116358"><ele>213.1</ele><time>2026-08-01T19:20:26Z</time></trkpt>
<trkpt lat="35.156673" lon="-85.11635"><ele>212.8</ele><time>2026-08-01T19:20:29Z</time></trkpt>
<trkpt lat="35.156644" lon="-85.116358"><ele>211.5</ele><time>2026-08-01T19:20:31Z</time></trkpt>
<trkpt lat="35.156615" lon="-85.11637"><ele>211.5</ele><time>2026-08-01T19:20:33Z</time></trkpt>
<trkpt lat="35.156585" lon="-85.116366"><ele>211.2</ele><time>2026-08-01T19:20:35Z</time></trkpt>
<trkpt lat="35.156552" lon="-85.116346"><ele>210.9</ele><time>2026-08-01T19:20:38Z</time></trkpt>
<trkpt lat="35.156524" lon="-85.116311"><ele>211.2</ele><time>2026-08-01T19:20:41Z</time></trkpt>
<trkpt lat="35.156507" lon="-85.116282"><ele>210.0</ele><time>2026-08-01T19:20:43Z</time></trkpt>
<trkpt lat="35.156485" lon="-85.116255"><ele>210.3</ele><time>2026-08-01T19:20:45Z</time></trkpt>
<trkpt lat="35.156464" lon="-85.116231"><ele>209.7</ele><time>2026-08-01T19:20:47Z</time></trkpt>
<trkpt lat="35.156437" lon="-85.116214"><ele>209.7</ele><time>2026-08-01T19:20:49Z</time></trkpt>
<trkpt lat="35.1564" lon="-85.116188"><ele>210.6</ele><time>2026-08-01T19:20:52Z</time></trkpt>
<trkpt lat="35.156371" lon="-85.116178"><ele>211.2</ele><time>2026-08-01T19:20:54Z</time></trkpt>
<trkpt lat="35.156344" lon="-85.116169"><ele>211.8</ele><time>2026-08-01T19:20:56Z</time></trkpt>
<trkpt lat="35.156317" lon="-85.116159"><ele>211.8</ele><time>2026-08-01T19:20:58Z</time></trkpt>
<trkpt lat="35.15629" lon="-85.116152"><ele>211.5</ele><time>2026-08-01T19:21:00Z</time></trkpt>
<trkpt lat="35.156264" lon="-85.116137"><ele>210.9</ele><time>2026-08-01T19:21:02Z</time></trkpt>
<trkpt lat="35.156231" lon="-85.116114"><ele>212.8</ele><time>2026-08-01T19:21:05Z</time></trkpt>
<trkpt lat="35.156206" lon="-85.116095"><ele>213.4</ele><time>2026-08-01T19:21:07Z</time></trkpt>
<trkpt lat="35.156183" lon="-85.116072"><ele>214.0</ele><time>2026-08-01T19:21:09Z</time></trkpt>
<trkpt lat="35.156151" lon="-85.116047"><ele>215.8</ele><time>2026-08-01T19:21:12Z</time></trkpt>
<trkpt lat="35.156124" lon="-85.116035"><ele>216.4</ele><time>2026-08-01T19:21:14Z</time></trkpt>
<trkpt lat="35.156097" lon="-85.116031"><ele>216.4</ele><time>2026-08-01T19:21:16Z</time></trkpt>
<trkpt lat="35.156069" lon="-85.116019"><ele>217.6</ele><time>2026-08-01T19:21:18Z</time></trkpt>
<trkpt lat="35.156032" lon="-85.116014"><ele>219.2</ele><time>2026-08-01T19:21:21Z</time></trkpt>
<trkpt lat="35.155999" lon="-85.116004"><ele>218.5</ele><time>2026-08-01T19:21:24Z</time></trkpt>
<trkpt lat="35.155966" lon="-85.115981"><ele>217.3</ele><time>2026-08-01T19:21:27Z</time></trkpt>
<trkpt lat="35.155939" lon="-85.115967"><ele>217.6</ele><time>2026-08-01T19:21:29Z</time></trkpt>
<trkpt lat="35.155912" lon="-85.115952"><ele>215.8</ele><time>2026-08-01T19:21:31Z</time></trkpt>
<trkpt lat="35.155886" lon="-85.115938"><ele>216.1</ele><time>2026-08-01T19:21:33Z</time></trkpt>
<trkpt lat="35.155857" lon="-85.115911"><ele>215.2</ele><time>2026-08-01T19:21:36Z</time></trkpt>
<trkpt lat="35.155834" lon="-85.115873"><ele>215.5</ele><time>2026-08-01T19:21:39Z</time></trkpt>
<trkpt lat="35.155827" lon="-85.115824"><ele>216.1</ele><time>2026-08-01T19:21:42Z</time></trkpt>
<trkpt lat="35.155823" lon="-85.115787"><ele>217.0</ele><time>2026-08-01T19:21:44Z</time></trkpt>
<trkpt lat="35.155816" lon="-85.11575"><ele>217.0</ele><time>2026-08-01T19:21:46Z</time></trkpt>
<trkpt lat="35.155805" lon="-85.115719"><ele>216.7</ele><time>2026-08-01T19:21:48Z</time></trkpt>
<trkpt lat="35.155796" lon="-85.115686"><ele>217.9</ele><time>2026-08-01T19:21:50Z</time></trkpt>
<trkpt lat="35.155793" lon="-85.115638"><ele>217.9</ele><time>2026-08-01T19:21:53Z</time></trkpt>
<trkpt lat="35.155795" lon="-85.115605"><ele>218.8</ele><time>2026-08-01T19:21:55Z</time></trkpt>
<trkpt lat="35.155788" lon="-85.115559"><ele>218.2</ele><time>2026-08-01T19:21:58Z</time></trkpt>
<trkpt lat="35.155772" lon="-85.115515"><ele>218.2</ele><time>2026-08-01T19:22:01Z</time></trkpt>
<trkpt lat="35.155762" lon="-85.115482"><ele>218.5</ele><time>2026-08-01T19:22:03Z</time></trkpt>
<trkpt lat="35.155748" lon="-85.115435"><ele>218.2</ele><time>2026-08-01T19:22:06Z</time></trkpt>
<trkpt lat="35.155745" lon="-85.1154"><ele>218.2</ele><time>2026-08-01T19:22:08Z</time></trkpt>
<trkpt lat="35.155748" lon="-85.115364"><ele>219.2</ele><time>2026-08-01T19:22:10Z</time></trkpt>
<trkpt lat="35.155753" lon="-85.115329"><ele>218.5</ele><time>2026-08-01T19:22:12Z</time></trkpt>
<trkpt lat="35.155765" lon="-85.115297"><ele>218.2</ele><time>2026-08-01T19:22:14Z</time></trkpt>
<trkpt lat="35.155778" lon="-85.115267"><ele>217.6</ele><time>2026-08-01T19:22:16Z</time></trkpt>
<trkpt lat="35.155793" lon="-85.115237"><ele>217.3</ele><time>2026-08-01T19:22:18Z</time></trkpt>
<trkpt lat="35.155814" lon="-85.115195"><ele>216.7</ele><time>2026-08-01T19:22:21Z</time></trkpt>
<trkpt lat="35.155828" lon="-85.115162"><ele>215.5</ele><time>2026-08-01T19:22:23Z</time></trkpt>
<trkpt lat="35.155835" lon="-85.115126"><ele>214.9</ele><time>2026-08-01T19:22:25Z</time></trkpt>
<trkpt lat="35.155837" lon="-85.11509"><ele>215.2</ele><time>2026-08-01T19:22:27Z</time></trkpt>
<trkpt lat="35.155845" lon="-85.115047"><ele>215.5</ele><time>2026-08-01T19:22:29Z</time></trkpt>
<trkpt lat="35.155861" lon="-85.115009"><ele>215.2</ele><time>2026-08-01T19:22:31Z</time></trkpt>
<trkpt lat="35.155898" lon="-85.114993"><ele>214.9</ele><time>2026-08-01T19:22:33Z</time></trkpt>
<trkpt lat="35.155931" lon="-85.114991"><ele>212.8</ele><time>2026-08-01T19:22:35Z</time></trkpt>
<trkpt lat="35.155971" lon="-85.114991"><ele>213.1</ele><time>2026-08-01T19:22:38Z</time></trkpt>
<trkpt lat="35.156009" lon="-85.114979"><ele>213.4</ele><time>2026-08-01T19:22:41Z</time></trkpt>
<trkpt lat="35.156039" lon="-85.114974"><ele>212.4</ele><time>2026-08-01T19:22:43Z</time></trkpt>
<trkpt lat="35.156066" lon="-85.11496"><ele>213.7</ele><time>2026-08-01T19:22:45Z</time></trkpt>
<trkpt lat="35.156096" lon="-85.114952"><ele>212.8</ele><time>2026-08-01T19:22:47Z</time></trkpt>
<trkpt lat="35.156126" lon="-85.114948"><ele>212.1</ele><time>2026-08-01T19:22:49Z</time></trkpt>
<trkpt lat="35.156157" lon="-85.114944"><ele>211.8</ele><time>2026-08-01T19:22:51Z</time></trkpt>
<trkpt lat="35.15619" lon="-85.114949"><ele>210.6</ele><time>2026-08-01T19:22:53Z</time></trkpt>
<trkpt lat="35.15622" lon="-85.114951"><ele>210.0</ele><time>2026-08-01T19:22:55Z</time></trkpt>
<trkpt lat="35.156248" lon="-85.114954"><ele>210.0</ele><time>2026-08-01T19:22:57Z</time></trkpt>
<trkpt lat="35.156277" lon="-85.114966"><ele>209.4</ele><time>2026-08-01T19:22:59Z</time></trkpt>
<trkpt lat="35.156304" lon="-85.114977"><ele>208.8</ele><time>2026-08-01T19:23:01Z</time></trkpt>
<trkpt lat="35.156323" lon="-85.115004"><ele>208.8</ele><time>2026-08-01T19:23:03Z</time></trkpt>
<trkpt lat="35.156332" lon="-85.115043"><ele>209.7</ele><time>2026-08-01T19:23:05Z</time></trkpt>
<trkpt lat="35.156343" lon="-85.11508"><ele>209.7</ele><time>2026-08-01T19:23:07Z</time></trkpt>
<trkpt lat="35.156365" lon="-85.115107"><ele>211.2</ele><time>2026-08-01T19:23:09Z</time></trkpt>
<trkpt lat="35.156389" lon="-85.115126"><ele>213.4</ele><time>2026-08-01T19:23:11Z</time></trkpt>
<trkpt lat="35.156424" lon="-85.115151"><ele>212.4</ele><time>2026-08-01T19:23:14Z</time></trkpt>
<trkpt lat="35.156452" lon="-85.115159"><ele>212.1</ele><time>2026-08-01T19:23:16Z</time></trkpt>
<trkpt lat="35.156479" lon="-85.11517"><ele>212.8</ele><time>2026-08-01T19:23:18Z</time></trkpt>
<trkpt lat="35.156502" lon="-85.115192"><ele>213.1</ele><time>2026-08-01T19:23:20Z</time></trkpt>
<trkpt lat="35.156527" lon="-85.115208"><ele>213.4</ele><time>2026-08-01T19:23:22Z</time></trkpt>
<trkpt lat="35.156551" lon="-85.115232"><ele>213.4</ele><time>2026-08-01T19:23:24Z</time></trkpt>
<trkpt lat="35.156575" lon="-85.115257"><ele>213.1</ele><time>2026-08-01T19:23:26Z</time></trkpt>
<trkpt lat="35.156596" lon="-85.115288"><ele>210.9</ele><time>2026-08-01T19:23:28Z</time></trkpt>
<trkpt lat="35.156619" lon="-85.115313"><ele>210.0</ele><time>2026-08-01T19:23:30Z</time></trkpt>
<trkpt lat="35.15665" lon="-85.115346"><ele>209.4</ele><time>2026-08-01T19:23:33Z</time></trkpt>
<trkpt lat="35.15667" lon="-85.115373"><ele>210.3</ele><time>2026-08-01T19:23:35Z</time></trkpt>
<trkpt lat="35.156692" lon="-85.115397"><ele>210.6</ele><time>2026-08-01T19:23:37Z</time></trkpt>
<trkpt lat="35.156719" lon="-85.115433"><ele>209.7</ele><time>2026-08-01T19:23:40Z</time></trkpt>
<trkpt lat="35.156742" lon="-85.115454"><ele>209.7</ele><time>2026-08-01T19:23:42Z</time></trkpt>
<trkpt lat="35.156762" lon="-85.115479"><ele>209.7</ele><time>2026-08-01T19:23:44Z</time></trkpt>
<trkpt lat="35.15679" lon="-85.115515"><ele>209.4</ele><time>2026-08-01T19:23:47Z</time></trkpt>
<trkpt lat="35.156806" lon="-85.115546"><ele>208.8</ele><time>2026-08-01T19:23:49Z</time></trkpt>
<trkpt lat="35.156837" lon="-85.115583"><ele>208.8</ele><time>2026-08-01T19:23:52Z</time></trkpt>
<trkpt lat="35.156868" lon="-85.115611"><ele>208.8</ele><time>2026-08-01T19:23:55Z</time></trkpt>
<trkpt lat="35.156903" lon="-85.115635"><ele>207.9</ele><time>2026-08-01T19:23:58Z</time></trkpt>
<trkpt lat="35.156928" lon="-85.115652"><ele>207.9</ele><time>2026-08-01T19:24:00Z</time></trkpt>
<trkpt lat="35.156951" lon="-85.115673"><ele>208.8</ele><time>2026-08-01T19:24:02Z</time></trkpt>
<trkpt lat="35.15697" lon="-85.1157"><ele>208.8</ele><time>2026-08-01T19:24:04Z</time></trkpt>
<trkpt lat="35.156986" lon="-85.11573"><ele>208.5</ele><time>2026-08-01T19:24:06Z</time></trkpt>
<trkpt lat="35.157006" lon="-85.115759"><ele>209.4</ele><time>2026-08-01T19:24:08Z</time></trkpt>
<trkpt lat="35.157017" lon="-85.115795"><ele>208.8</ele><time>2026-08-01T19:24:10Z</time></trkpt>
<trkpt lat="35.157034" lon="-85.115823"><ele>208.5</ele><time>2026-08-01T19:24:12Z</time></trkpt>
<trkpt lat="35.15705" lon="-85.115853"><ele>208.2</ele><time>2026-08-01T19:24:14Z</time></trkpt>
<trkpt lat="35.157064" lon="-85.115882"><ele>208.8</ele><time>2026-08-01T19:24:16Z</time></trkpt>
<trkpt lat="35.157085" lon="-85.115908"><ele>208.5</ele><time>2026-08-01T19:24:18Z</time></trkpt>
<trkpt lat="35.157125" lon="-85.115918"><ele>208.2</ele><time>2026-08-01T19:24:21Z</time></trkpt>
<trkpt lat="35.157164" lon="-85.115916"><ele>208.5</ele><time>2026-08-01T19:24:24Z</time></trkpt>
<trkpt lat="35.157199" lon="-85.115912"><ele>208.5</ele><time>2026-08-01T19:24:27Z</time></trkpt>
<trkpt lat="35.157232" lon="-85.115907"><ele>208.5</ele><time>2026-08-01T19:24:30Z</time></trkpt>
<trkpt lat="35.157264" lon="-85.115911"><ele>208.2</ele><time>2026-08-01T19:24:33Z</time></trkpt>
<trkpt lat="35.157307" lon="-85.115905"><ele>209.1</ele><time>2026-08-01T19:24:36Z</time></trkpt>
<trkpt lat="35.157337" lon="-85.115907"><ele>210.0</ele><time>2026-08-01T19:24:38Z</time></trkpt>
<trkpt lat="35.157365" lon="-85.115916"><ele>209.7</ele><time>2026-08-01T19:24:40Z</time></trkpt>
<trkpt lat="35.157392" lon="-85.115923"><ele>210.0</ele><time>2026-08-01T19:24:42Z</time></trkpt>
<trkpt lat="35.157433" lon="-85.115924"><ele>210.0</ele><time>2026-08-01T19:24:45Z</time></trkpt>
<trkpt lat="35.157471" lon="-85.115917"><ele>209.4</ele><time>2026-08-01T19:24:48Z</time></trkpt>
<trkpt lat="35.157506" lon="-85.11591"><ele>209.7</ele><time>2026-08-01T19:24:51Z</time></trkpt>
<trkpt lat="35.157539" lon="-85.115888"><ele>210.3</ele><time>2026-08-01T19:24:54Z</time></trkpt>
<trkpt lat="35.157574" lon="-85.115867"><ele>211.5</ele><time>2026-08-01T19:24:57Z</time></trkpt>
<trkpt lat="35.157606" lon="-85.115836"><ele>213.4</ele><time>2026-08-01T19:25:00Z</time></trkpt>
<trkpt lat="35.157623" lon="-85.115805"><ele>214.3</ele><time>2026-08-01T19:25:02Z</time></trkpt>
<trkpt lat="35.157636" lon="-85.115773"><ele>213.1</ele><time>2026-08-01T19:25:04Z</time></trkpt>
<trkpt lat="35.157647" lon="-85.115735"><ele>214.0</ele><time>2026-08-01T19:25:07Z</time></trkpt>
<trkpt lat="35.157645" lon="-85.115773"><ele>213.7</ele><time>2026-08-01T19:25:10Z</time></trkpt>
<trkpt lat="35.157625" lon="-85.115806"><ele>214.0</ele><time>2026-08-01T19:25:12Z</time></trkpt>
<trkpt lat="35.157602" lon="-85.11584"><ele>212.8</ele><time>2026-08-01T19:25:14Z</time></trkpt>
<trkpt lat="35.157566" lon="-85.115863"><ele>214.0</ele><time>2026-08-01T19:25:16Z</time></trkpt>
<trkpt lat="35.157531" lon="-85.115879"><ele>214.3</ele><time>2026-08-01T19:25:18Z</time></trkpt>
<trkpt lat="35.157504" lon="-85.115898"><ele>214.6</ele><time>2026-08-01T19:25:22Z</time></trkpt>
<trkpt lat="35.157539" lon="-85.115895"><ele>217.3</ele><time>2026-08-01T19:25:27Z</time></trkpt>
<trkpt lat="35.157564" lon="-85.115876"><ele>216.7</ele><time>2026-08-01T19:25:28Z</time></trkpt>
<trkpt lat="35.157592" lon="-85.11583"><ele>217.0</ele><time>2026-08-01T19:25:30Z</time></trkpt>
<trkpt lat="35.157613" lon="-85.115791"><ele>215.5</ele><time>2026-08-01T19:25:32Z</time></trkpt>
<trkpt lat="35.157645" lon="-85.115741"><ele>214.6</ele><time>2026-08-01T19:25:34Z</time></trkpt>
<trkpt lat="35.157667" lon="-85.115694"><ele>215.2</ele><time>2026-08-01T19:25:36Z</time></trkpt>
<trkpt lat="35.157696" lon="-85.115654"><ele>213.4</ele><time>2026-08-01T19:25:38Z</time></trkpt>
<trkpt lat="35.157712" lon="-85.115617"><ele>213.7</ele><time>2026-08-01T19:25:40Z</time></trkpt>
<trkpt lat="35.157723" lon="-85.115574"><ele>212.8</ele><time>2026-08-01T19:25:42Z</time></trkpt>
<trkpt lat="35.157721" lon="-85.115527"><ele>213.1</ele><time>2026-08-01T19:25:45Z</time></trkpt>
<trkpt lat="35.157713" lon="-85.115488"><ele>212.8</ele><time>2026-08-01T19:25:47Z</time></trkpt>
<trkpt lat="35.157681" lon="-85.115463"><ele>215.2</ele><time>2026-08-01T19:25:49Z</time></trkpt>
<trkpt lat="35.157643" lon="-85.115456"><ele>217.0</ele><time>2026-08-01T19:25:51Z</time></trkpt>
<trkpt lat="35.157609" lon="-85.115449"><ele>217.6</ele><time>2026-08-01T19:25:53Z</time></trkpt>
<trkpt lat="35.157579" lon="-85.115436"><ele>217.9</ele><time>2026-08-01T19:25:55Z</time></trkpt>
<trkpt lat="35.157548" lon="-85.115406"><ele>217.9</ele><time>2026-08-01T19:25:58Z</time></trkpt>
<trkpt lat="35.157547" lon="-85.115362"><ele>219.5</ele><time>2026-08-01T19:26:00Z</time></trkpt>
<trkpt lat="35.157553" lon="-85.115326"><ele>219.5</ele><time>2026-08-01T19:26:02Z</time></trkpt>
<trkpt lat="35.157566" lon="-85.115293"><ele>218.5</ele><time>2026-08-01T19:26:04Z</time></trkpt>
<trkpt lat="35.157583" lon="-85.115261"><ele>218.2</ele><time>2026-08-01T19:26:06Z</time></trkpt>
<trkpt lat="35.157605" lon="-85.115233"><ele>218.2</ele><time>2026-08-01T19:26:08Z</time></trkpt>
<trkpt lat="35.157631" lon="-85.115211"><ele>216.7</ele><time>2026-08-01T19:26:10Z</time></trkpt>
<trkpt lat="35.15765" lon="-85.115184"><ele>217.0</ele><time>2026-08-01T19:26:12Z</time></trkpt>
<trkpt lat="35.157667" lon="-85.115149"><ele>217.0</ele><time>2026-08-01T19:26:14Z</time></trkpt>
<trkpt lat="35.157681" lon="-85.115108"><ele>216.4</ele><time>2026-08-01T19:26:16Z</time></trkpt>
<trkpt lat="35.157692" lon="-85.115072"><ele>216.4</ele><time>2026-08-01T19:26:18Z</time></trkpt>
<trkpt lat="35.157695" lon="-85.115035"><ele>215.8</ele><time>2026-08-01T19:26:20Z</time></trkpt>
<trkpt lat="35.157702" lon="-85.114986"><ele>215.8</ele><time>2026-08-01T19:26:23Z</time></trkpt>
<trkpt lat="35.157712" lon="-85.114955"><ele>216.1</ele><time>2026-08-01T19:26:25Z</time></trkpt>
<trkpt lat="35.157728" lon="-85.114926"><ele>215.8</ele><time>2026-08-01T19:26:27Z</time></trkpt>
<trkpt lat="35.157757" lon="-85.114907"><ele>215.5</ele><time>2026-08-01T19:26:29Z</time></trkpt>
<trkpt lat="35.157782" lon="-85.11489"><ele>215.5</ele><time>2026-08-01T19:26:31Z</time></trkpt>
<trkpt lat="35.157804" lon="-85.114869"><ele>215.8</ele><time>2026-08-01T19:26:33Z</time></trkpt>
<trkpt lat="35.157825" lon="-85.114843"><ele>216.7</ele><time>2026-08-01T19:26:35Z</time></trkpt>
<trkpt lat="35.157842" lon="-85.114816"><ele>217.3</ele><time>2026-08-01T19:26:37Z</time></trkpt>
<trkpt lat="35.157852" lon="-85.114783"><ele>217.6</ele><time>2026-08-01T19:26:39Z</time></trkpt>
<trkpt lat="35.157864" lon="-85.114735"><ele>217.3</ele><time>2026-08-01T19:26:42Z</time></trkpt>
<trkpt lat="35.157877" lon="-85.114704"><ele>217.9</ele><time>2026-08-01T19:26:44Z</time></trkpt>
<trkpt lat="35.157906" lon="-85.11467"><ele>217.6</ele><time>2026-08-01T19:26:47Z</time></trkpt>
<trkpt lat="35.157938" lon="-85.114648"><ele>216.7</ele><time>2026-08-01T19:26:50Z</time></trkpt>
<trkpt lat="35.157973" lon="-85.114659"><ele>216.4</ele><time>2026-08-01T19:26:53Z</time></trkpt>
<trkpt lat="35.158002" lon="-85.114664"><ele>216.4</ele><time>2026-08-01T19:26:55Z</time></trkpt>
<trkpt lat="35.15803" lon="-85.11468"><ele>216.7</ele><time>2026-08-01T19:26:57Z</time></trkpt>
<trkpt lat="35.158059" lon="-85.114681"><ele>217.3</ele><time>2026-08-01T19:26:59Z</time></trkpt>
<trkpt lat="35.158085" lon="-85.114668"><ele>218.2</ele><time>2026-08-01T19:27:01Z</time></trkpt>
<trkpt lat="35.158115" lon="-85.114665"><ele>217.3</ele><time>2026-08-01T19:27:03Z</time></trkpt>
<trkpt lat="35.158145" lon="-85.114666"><ele>217.3</ele><time>2026-08-01T19:27:05Z</time></trkpt>
<trkpt lat="35.158175" lon="-85.114668"><ele>216.7</ele><time>2026-08-01T19:27:07Z</time></trkpt>
<trkpt lat="35.158203" lon="-85.114673"><ele>215.5</ele><time>2026-08-01T19:27:09Z</time></trkpt>
<trkpt lat="35.158231" lon="-85.114678"><ele>212.8</ele><time>2026-08-01T19:27:11Z</time></trkpt>
<trkpt lat="35.15827" lon="-85.114677"><ele>212.1</ele><time>2026-08-01T19:27:14Z</time></trkpt>
<trkpt lat="35.158308" lon="-85.114673"><ele>212.8</ele><time>2026-08-01T19:27:17Z</time></trkpt>
<trkpt lat="35.158336" lon="-85.114665"><ele>214.0</ele><time>2026-08-01T19:27:19Z</time></trkpt>
<trkpt lat="35.158369" lon="-85.114667"><ele>214.0</ele><time>2026-08-01T19:27:22Z</time></trkpt>
<trkpt lat="35.158408" lon="-85.114671"><ele>213.4</ele><time>2026-08-01T19:27:25Z</time></trkpt>
<trkpt lat="35.158447" lon="-85.114685"><ele>212.8</ele><time>2026-08-01T19:27:28Z</time></trkpt>
<trkpt lat="35.158475" lon="-85.114694"><ele>213.7</ele><time>2026-08-01T19:27:30Z</time></trkpt>
<trkpt lat="35.158502" lon="-85.114704"><ele>214.0</ele><time>2026-08-01T19:27:32Z</time></trkpt>
<trkpt lat="35.158542" lon="-85.114714"><ele>214.3</ele><time>2026-08-01T19:27:35Z</time></trkpt>
<trkpt lat="35.158582" lon="-85.114726"><ele>214.0</ele><time>2026-08-01T19:27:38Z</time></trkpt>
<trkpt lat="35.158611" lon="-85.114733"><ele>214.6</ele><time>2026-08-01T19:27:40Z</time></trkpt>
<trkpt lat="35.158641" lon="-85.114743"><ele>214.0</ele><time>2026-08-01T19:27:42Z</time></trkpt>
<trkpt lat="35.158669" lon="-85.114752"><ele>214.6</ele><time>2026-08-01T19:27:44Z</time></trkpt>
<trkpt lat="35.158698" lon="-85.114761"><ele>215.2</ele><time>2026-08-01T19:27:46Z</time></trkpt>
<trkpt lat="35.158727" lon="-85.114776"><ele>214.3</ele><time>2026-08-01T19:27:48Z</time></trkpt>
<trkpt lat="35.158758" lon="-85.114778"><ele>214.6</ele><time>2026-08-01T19:27:50Z</time></trkpt>
<trkpt lat="35.158788" lon="-85.114767"><ele>215.2</ele><time>2026-08-01T19:27:52Z</time></trkpt>
<trkpt lat="35.158813" lon="-85.114753"><ele>213.7</ele><time>2026-08-01T19:27:54Z</time></trkpt>
<trkpt lat="35.158839" lon="-85.114738"><ele>213.1</ele><time>2026-08-01T19:27:56Z</time></trkpt>
<trkpt lat="35.158868" lon="-85.114726"><ele>214.6</ele><time>2026-08-01T19:27:58Z</time></trkpt>
<trkpt lat="35.158901" lon="-85.114726"><ele>213.7</ele><time>2026-08-01T19:28:00Z</time></trkpt>
<trkpt lat="35.158936" lon="-85.114721"><ele>213.7</ele><time>2026-08-01T19:28:02Z</time></trkpt>
<trkpt lat="35.158968" lon="-85.114716"><ele>213.7</ele><time>2026-08-01T19:28:04Z</time></trkpt>
<trkpt lat="35.158996" lon="-85.114711"><ele>215.2</ele><time>2026-08-01T19:28:06Z</time></trkpt>
<trkpt lat="35.15903" lon="-85.114688"><ele>215.5</ele><time>2026-08-01T19:28:09Z</time></trkpt>
<trkpt lat="35.159068" lon="-85.114675"><ele>216.4</ele><time>2026-08-01T19:28:12Z</time></trkpt>
<trkpt lat="35.159097" lon="-85.114669"><ele>215.8</ele><time>2026-08-01T19:28:14Z</time></trkpt>
<trkpt lat="35.159135" lon="-85.114669"><ele>215.5</ele><time>2026-08-01T19:28:17Z</time></trkpt>
<trkpt lat="35.159174" lon="-85.114676"><ele>215.8</ele><time>2026-08-01T19:28:20Z</time></trkpt>
<trkpt lat="35.159215" lon="-85.114689"><ele>216.7</ele><time>2026-08-01T19:28:23Z</time></trkpt>
<trkpt lat="35.159243" lon="-85.114703"><ele>217.3</ele><time>2026-08-01T19:28:25Z</time></trkpt>
<trkpt lat="35.159273" lon="-85.114717"><ele>218.2</ele><time>2026-08-01T19:28:27Z</time></trkpt>
<trkpt lat="35.159301" lon="-85.114728"><ele>217.6</ele><time>2026-08-01T19:28:29Z</time></trkpt>
<trkpt lat="35.15933" lon="-85.114737"><ele>218.5</ele><time>2026-08-01T19:28:31Z</time></trkpt>
<trkpt lat="35.159359" lon="-85.114748"><ele>217.0</ele><time>2026-08-01T19:28:33Z</time></trkpt>
<trkpt lat="35.159386" lon="-85.114763"><ele>216.7</ele><time>2026-08-01T19:28:35Z</time></trkpt>
<trkpt lat="35.159412" lon="-85.114779"><ele>217.0</ele><time>2026-08-01T19:28:37Z</time></trkpt>
<trkpt lat="35.159448" lon="-85.1148"><ele>218.2</ele><time>2026-08-01T19:28:40Z</time></trkpt>
<trkpt lat="35.159476" lon="-85.114807"><ele>217.3</ele><time>2026-08-01T19:28:42Z</time></trkpt>
<trkpt lat="35.159514" lon="-85.11481"><ele>216.1</ele><time>2026-08-01T19:28:45Z</time></trkpt>
<trkpt lat="35.159553" lon="-85.114799"><ele>215.5</ele><time>2026-08-01T19:28:48Z</time></trkpt>
<trkpt lat="35.159579" lon="-85.114783"><ele>214.0</ele><time>2026-08-01T19:28:50Z</time></trkpt>
<trkpt lat="35.159603" lon="-85.114764"><ele>213.1</ele><time>2026-08-01T19:28:52Z</time></trkpt>
<trkpt lat="35.159633" lon="-85.114754"><ele>213.4</ele><time>2026-08-01T19:28:54Z</time></trkpt>
<trkpt lat="35.159662" lon="-85.114754"><ele>214.3</ele><time>2026-08-01T19:28:56Z</time></trkpt>
<trkpt lat="35.159688" lon="-85.114737"><ele>212.8</ele><time>2026-08-01T19:28:58Z</time></trkpt>
<trkpt lat="35.159714" lon="-85.114718"><ele>211.2</ele><time>2026-08-01T19:29:00Z</time></trkpt>
<trkpt lat="35.159742" lon="-85.114706"><ele>209.7</ele><time>2026-08-01T19:29:02Z</time></trkpt>
<trkpt lat="35.15977" lon="-85.114694"><ele>210.6</ele><time>2026-08-01T19:29:04Z</time></trkpt>
<trkpt lat="35.159799" lon="-85.114694"><ele>210.6</ele><time>2026-08-01T19:29:06Z</time></trkpt>
<trkpt lat="35.159827" lon="-85.114717"><ele>210.3</ele><time>2026-08-01T19:29:08Z</time></trkpt>
<trkpt lat="35.159856" lon="-85.114742"><ele>210.9</ele><time>2026-08-01T19:29:10Z</time></trkpt>
<trkpt lat="35.159881" lon="-85.114771"><ele>211.2</ele><time>2026-08-01T19:29:12Z</time></trkpt>
<trkpt lat="35.159906" lon="-85.1148"><ele>210.9</ele><time>2026-08-01T19:29:14Z</time></trkpt>
<trkpt lat="35.159931" lon="-85.114823"><ele>210.9</ele><time>2026-08-01T19:29:16Z</time></trkpt>
<trkpt lat="35.159951" lon="-85.114849"><ele>210.6</ele><time>2026-08-01T19:29:18Z</time></trkpt>
<trkpt lat="35.159973" lon="-85.11487"><ele>209.7</ele><time>2026-08-01T19:29:20Z</time></trkpt>
<trkpt lat="35.160001" lon="-85.11488"><ele>211.2</ele><time>2026-08-01T19:29:22Z</time></trkpt>
<trkpt lat="35.160031" lon="-85.114881"><ele>211.8</ele><time>2026-08-01T19:29:24Z</time></trkpt>
<trkpt lat="35.160063" lon="-85.114884"><ele>211.2</ele><time>2026-08-01T19:29:26Z</time></trkpt>
<trkpt lat="35.160093" lon="-85.114887"><ele>211.5</ele><time>2026-08-01T19:29:28Z</time></trkpt>
<trkpt lat="35.160123" lon="-85.114896"><ele>209.7</ele><time>2026-08-01T19:29:30Z</time></trkpt>
<trkpt lat="35.160151" lon="-85.114903"><ele>209.4</ele><time>2026-08-01T19:29:32Z</time></trkpt>
<trkpt lat="35.16018" lon="-85.114909"><ele>210.3</ele><time>2026-08-01T19:29:34Z</time></trkpt>
<trkpt lat="35.160209" lon="-85.114912"><ele>209.7</ele><time>2026-08-01T19:29:36Z</time></trkpt>
<trkpt lat="35.160239" lon="-85.114906"><ele>210.0</ele><time>2026-08-01T19:29:38Z</time></trkpt>
<trkpt lat="35.160266" lon="-85.114895"><ele>209.4</ele><time>2026-08-01T19:29:40Z</time></trkpt>
<trkpt lat="35.160305" lon="-85.114888"><ele>210.3</ele><time>2026-08-01T19:29:43Z</time></trkpt>
<trkpt lat="35.160347" lon="-85.114886"><ele>211.8</ele><time>2026-08-01T19:29:46Z</time></trkpt>
<trkpt lat="35.160376" lon="-85.114891"><ele>211.8</ele><time>2026-08-01T19:29:48Z</time></trkpt>
<trkpt lat="35.160407" lon="-85.114883"><ele>210.9</ele><time>2026-08-01T19:29:50Z</time></trkpt>
<trkpt lat="35.160435" lon="-85.11488"><ele>211.5</ele><time>2026-08-01T19:29:52Z</time></trkpt>
<trkpt lat="35.160466" lon="-85.114883"><ele>211.8</ele><time>2026-08-01T19:29:54Z</time></trkpt>
<trkpt lat="35.160503" lon="-85.114888"><ele>210.6</ele><time>2026-08-01T19:29:57Z</time></trkpt>
<trkpt lat="35.160531" lon="-85.114884"><ele>210.6</ele><time>2026-08-01T19:29:59Z</time></trkpt>
<trkpt lat="35.16056" lon="-85.114875"><ele>211.2</ele><time>2026-08-01T19:30:01Z</time></trkpt>
<trkpt lat="35.160587" lon="-85.114873"><ele>211.8</ele><time>2026-08-01T19:30:03Z</time></trkpt>
<trkpt lat="35.160616" lon="-85.114878"><ele>212.1</ele><time>2026-08-01T19:30:05Z</time></trkpt>
<trkpt lat="35.160647" lon="-85.114878"><ele>211.8</ele><time>2026-08-01T19:30:07Z</time></trkpt>
<trkpt lat="35.160676" lon="-85.114869"><ele>213.4</ele><time>2026-08-01T19:30:09Z</time></trkpt>
<trkpt lat="35.160705" lon="-85.114865"><ele>212.4</ele><time>2026-08-01T19:30:11Z</time></trkpt>
<trkpt lat="35.160735" lon="-85.114863"><ele>211.8</ele><time>2026-08-01T19:30:13Z</time></trkpt>
<trkpt lat="35.160764" lon="-85.11487"><ele>210.6</ele><time>2026-08-01T19:30:15Z</time></trkpt>
<trkpt lat="35.160794" lon="-85.114876"><ele>210.6</ele><time>2026-08-01T19:30:17Z</time></trkpt>
<trkpt lat="35.160826" lon="-85.114874"><ele>210.9</ele><time>2026-08-01T19:30:19Z</time></trkpt>
<trkpt lat="35.160854" lon="-85.114866"><ele>211.2</ele><time>2026-08-01T19:30:21Z</time></trkpt>
<trkpt lat="35.160884" lon="-85.114871"><ele>210.9</ele><time>2026-08-01T19:30:23Z</time></trkpt>
<trkpt lat="35.16091" lon="-85.114884"><ele>210.0</ele><time>2026-08-01T19:30:25Z</time></trkpt>
<trkpt lat="35.160951" lon="-85.1149"><ele>210.3</ele><time>2026-08-01T19:30:28Z</time></trkpt>
<trkpt lat="35.160981" lon="-85.114911"><ele>210.3</ele><time>2026-08-01T19:30:30Z</time></trkpt>
<trkpt lat="35.161009" lon="-85.114928"><ele>210.3</ele><time>2026-08-01T19:30:32Z</time></trkpt>
<trkpt lat="35.161036" lon="-85.114938"><ele>210.3</ele><time>2026-08-01T19:30:34Z</time></trkpt>
<trkpt lat="35.161064" lon="-85.114941"><ele>210.3</ele><time>2026-08-01T19:30:36Z</time></trkpt>
<trkpt lat="35.161099" lon="-85.114959"><ele>210.6</ele><time>2026-08-01T19:30:39Z</time></trkpt>
<trkpt lat="35.161136" lon="-85.114976"><ele>211.5</ele><time>2026-08-01T19:30:42Z</time></trkpt>
<trkpt lat="35.161171" lon="-85.115001"><ele>210.3</ele><time>2026-08-01T19:30:45Z</time></trkpt>
<trkpt lat="35.161195" lon="-85.115022"><ele>210.0</ele><time>2026-08-01T19:30:47Z</time></trkpt>
<trkpt lat="35.161221" lon="-85.115038"><ele>208.8</ele><time>2026-08-01T19:30:49Z</time></trkpt>
<trkpt lat="35.161243" lon="-85.115061"><ele>209.4</ele><time>2026-08-01T19:30:51Z</time></trkpt>
<trkpt lat="35.161262" lon="-85.115088"><ele>210.0</ele><time>2026-08-01T19:30:53Z</time></trkpt>
<trkpt lat="35.161286" lon="-85.115109"><ele>209.7</ele><time>2026-08-01T19:30:55Z</time></trkpt>
<trkpt lat="35.161309" lon="-85.115131"><ele>210.9</ele><time>2026-08-01T19:30:57Z</time></trkpt>
<trkpt lat="35.161334" lon="-85.115149"><ele>211.5</ele><time>2026-08-01T19:30:59Z</time></trkpt>
<trkpt lat="35.16136" lon="-85.115169"><ele>213.7</ele><time>2026-08-01T19:31:01Z</time></trkpt>
<trkpt lat="35.161388" lon="-85.115182"><ele>212.8</ele><time>2026-08-01T19:31:03Z</time></trkpt>
<trkpt lat="35.161416" lon="-85.115194"><ele>212.4</ele><time>2026-08-01T19:31:05Z</time></trkpt>
<trkpt lat="35.161445" lon="-85.115177"><ele>211.5</ele><time>2026-08-01T19:31:07Z</time></trkpt>
<trkpt lat="35.161473" lon="-85.115158"><ele>210.9</ele><time>2026-08-01T19:31:09Z</time></trkpt>
<trkpt lat="35.1615" lon="-85.115147"><ele>210.6</ele><time>2026-08-01T19:31:11Z</time></trkpt>
<trkpt lat="35.16153" lon="-85.115145"><ele>210.3</ele><time>2026-08-01T19:31:13Z</time></trkpt>
<trkpt lat="35.161569" lon="-85.115154"><ele>210.6</ele><time>2026-08-01T19:31:16Z</time></trkpt>
<trkpt lat="35.161596" lon="-85.11516"><ele>211.2</ele><time>2026-08-01T19:31:18Z</time></trkpt>
<trkpt lat="35.161625" lon="-85.115165"><ele>211.5</ele><time>2026-08-01T19:31:20Z</time></trkpt>
<trkpt lat="35.161656" lon="-85.115169"><ele>210.6</ele><time>2026-08-01T19:31:22Z</time></trkpt>
<trkpt lat="35.161683" lon="-85.115177"><ele>211.2</ele><time>2026-08-01T19:31:24Z</time></trkpt>
<trkpt lat="35.161721" lon="-85.115194"><ele>213.1</ele><time>2026-08-01T19:31:27Z</time></trkpt>
<trkpt lat="35.161741" lon="-85.115223"><ele>212.8</ele><time>2026-08-01T19:31:29Z</time></trkpt>
<trkpt lat="35.161764" lon="-85.115247"><ele>213.4</ele><time>2026-08-01T19:31:31Z</time></trkpt>
<trkpt lat="35.161793" lon="-85.115253"><ele>213.4</ele><time>2026-08-01T19:31:33Z</time></trkpt>
<trkpt lat="35.161825" lon="-85.115256"><ele>212.4</ele><time>2026-08-01T19:31:35Z</time></trkpt>
<trkpt lat="35.161853" lon="-85.115258"><ele>213.1</ele><time>2026-08-01T19:31:37Z</time></trkpt>
<trkpt lat="35.161881" lon="-85.115268"><ele>212.8</ele><time>2026-08-01T19:31:39Z</time></trkpt>
<trkpt lat="35.161911" lon="-85.11528"><ele>211.8</ele><time>2026-08-01T19:31:41Z</time></trkpt>
<trkpt lat="35.16194" lon="-85.115295"><ele>211.8</ele><time>2026-08-01T19:31:43Z</time></trkpt>
<trkpt lat="35.161969" lon="-85.115312"><ele>212.1</ele><time>2026-08-01T19:31:45Z</time></trkpt>
<trkpt lat="35.16199" lon="-85.115337"><ele>213.1</ele><time>2026-08-01T19:31:47Z</time></trkpt>
<trkpt lat="35.162003" lon="-85.115366"><ele>212.4</ele><time>2026-08-01T19:31:49Z</time></trkpt>
<trkpt lat="35.162023" lon="-85.115395"><ele>213.1</ele><time>2026-08-01T19:31:51Z</time></trkpt>
<trkpt lat="35.162041" lon="-85.115422"><ele>213.1</ele><time>2026-08-01T19:31:53Z</time></trkpt>
<trkpt lat="35.162064" lon="-85.115446"><ele>213.7</ele><time>2026-08-01T19:31:55Z</time></trkpt>
<trkpt lat="35.162091" lon="-85.115459"><ele>214.6</ele><time>2026-08-01T19:31:57Z</time></trkpt>
<trkpt lat="35.162121" lon="-85.115471"><ele>214.6</ele><time>2026-08-01T19:31:59Z</time></trkpt>
<trkpt lat="35.16215" lon="-85.115479"><ele>214.9</ele><time>2026-08-01T19:32:01Z</time></trkpt>
<trkpt lat="35.162181" lon="-85.115485"><ele>214.0</ele><time>2026-08-01T19:32:03Z</time></trkpt>
<trkpt lat="35.162208" lon="-85.115494"><ele>215.5</ele><time>2026-08-01T19:32:05Z</time></trkpt>
<trkpt lat="35.162234" lon="-85.115512"><ele>215.5</ele><time>2026-08-01T19:32:07Z</time></trkpt>
<trkpt lat="35.162262" lon="-85.115547"><ele>214.9</ele><time>2026-08-01T19:32:10Z</time></trkpt>
<trkpt lat="35.162276" lon="-85.11558"><ele>215.5</ele><time>2026-08-01T19:32:12Z</time></trkpt>
<trkpt lat="35.162282" lon="-85.115614"><ele>214.6</ele><time>2026-08-01T19:32:14Z</time></trkpt>
<trkpt lat="35.162305" lon="-85.115638"><ele>214.0</ele><time>2026-08-01T19:32:16Z</time></trkpt>
<trkpt lat="35.162336" lon="-85.11564"><ele>214.6</ele><time>2026-08-01T19:32:18Z</time></trkpt>
<trkpt lat="35.162368" lon="-85.115635"><ele>214.9</ele><time>2026-08-01T19:32:20Z</time></trkpt>
<trkpt lat="35.162395" lon="-85.115614"><ele>214.9</ele><time>2026-08-01T19:32:22Z</time></trkpt>
<trkpt lat="35.162422" lon="-85.115599"><ele>215.5</ele><time>2026-08-01T19:32:24Z</time></trkpt>
<trkpt lat="35.162452" lon="-85.115594"><ele>216.1</ele><time>2026-08-01T19:32:26Z</time></trkpt>
<trkpt lat="35.16248" lon="-85.115589"><ele>215.8</ele><time>2026-08-01T19:32:28Z</time></trkpt>
<trkpt lat="35.162511" lon="-85.115592"><ele>213.7</ele><time>2026-08-01T19:32:30Z</time></trkpt>
<trkpt lat="35.162541" lon="-85.115594"><ele>213.7</ele><time>2026-08-01T19:32:32Z</time></trkpt>
<trkpt lat="35.16257" lon="-85.115597"><ele>213.7</ele><time>2026-08-01T19:32:34Z</time></trkpt>
<trkpt lat="35.162596" lon="-85.115608"><ele>213.1</ele><time>2026-08-01T19:32:36Z</time></trkpt>
<trkpt lat="35.16263" lon="-85.115613"><ele>213.7</ele><time>2026-08-01T19:32:38Z</time></trkpt>
<trkpt lat="35.162663" lon="-85.115615"><ele>213.4</ele><time>2026-08-01T19:32:40Z</time></trkpt>
<trkpt lat="35.162698" lon="-85.115613"><ele>213.4</ele><time>2026-08-01T19:32:42Z</time></trkpt>
<trkpt lat="35.16273" lon="-85.115608"><ele>213.1</ele><time>2026-08-01T19:32:44Z</time></trkpt>
<trkpt lat="35.162764" lon="-85.115612"><ele>213.1</ele><time>2026-08-01T19:32:46Z</time></trkpt>
<trkpt lat="35.162793" lon="-85.115617"><ele>212.1</ele><time>2026-08-01T19:32:48Z</time></trkpt>
<trkpt lat="35.162821" lon="-85.115626"><ele>211.8</ele><time>2026-08-01T19:32:50Z</time></trkpt>
<trkpt lat="35.162847" lon="-85.115646"><ele>212.1</ele><time>2026-08-01T19:32:52Z</time></trkpt>
<trkpt lat="35.162874" lon="-85.115661"><ele>212.8</ele><time>2026-08-01T19:32:54Z</time></trkpt>
<trkpt lat="35.1629" lon="-85.115681"><ele>213.4</ele><time>2026-08-01T19:32:56Z</time></trkpt>
<trkpt lat="35.162928" lon="-85.115691"><ele>212.1</ele><time>2026-08-01T19:32:58Z</time></trkpt>
<trkpt lat="35.162959" lon="-85.115704"><ele>212.8</ele><time>2026-08-01T19:33:00Z</time></trkpt>
<trkpt lat="35.162987" lon="-85.115716"><ele>214.3</ele><time>2026-08-01T19:33:02Z</time></trkpt>
<trkpt lat="35.163011" lon="-85.115735"><ele>215.5</ele><time>2026-08-01T19:33:04Z</time></trkpt>
<trkpt lat="35.163037" lon="-85.115744"><ele>215.5</ele><time>2026-08-01T19:33:06Z</time></trkpt>
<trkpt lat="35.163067" lon="-85.115746"><ele>214.6</ele><time>2026-08-01T19:33:08Z</time></trkpt>
<trkpt lat="35.163098" lon="-85.11575"><ele>214.0</ele><time>2026-08-01T19:33:10Z</time></trkpt>
<trkpt lat="35.163129" lon="-85.11576"><ele>213.7</ele><time>2026-08-01T19:33:12Z</time></trkpt>
<trkpt lat="35.163156" lon="-85.115782"><ele>214.0</ele><time>2026-08-01T19:33:14Z</time></trkpt>
<trkpt lat="35.163178" lon="-85.115804"><ele>212.4</ele><time>2026-08-01T19:33:16Z</time></trkpt>
<trkpt lat="35.163198" lon="-85.115828"><ele>214.0</ele><time>2026-08-01T19:33:18Z</time></trkpt>
<trkpt lat="35.163211" lon="-85.115862"><ele>213.1</ele><time>2026-08-01T19:33:20Z</time></trkpt>
<trkpt lat="35.163217" lon="-85.1159"><ele>212.1</ele><time>2026-08-01T19:33:22Z</time></trkpt>
<trkpt lat="35.163227" lon="-85.115937"><ele>211.5</ele><time>2026-08-01T19:33:24Z</time></trkpt>
<trkpt lat="35.163222" lon="-85.115976"><ele>210.6</ele><time>2026-08-01T19:33:26Z</time></trkpt>
<trkpt lat="35.163216" lon="-85.116011"><ele>210.9</ele><time>2026-08-01T19:33:28Z</time></trkpt>
<trkpt lat="35.163207" lon="-85.116047"><ele>210.9</ele><time>2026-08-01T19:33:30Z</time></trkpt>
<trkpt lat="35.16319" lon="-85.116076"><ele>210.9</ele><time>2026-08-01T19:33:32Z</time></trkpt>
<trkpt lat="35.163159" lon="-85.11611"><ele>209.1</ele><time>2026-08-01T19:33:35Z</time></trkpt>
<trkpt lat="35.163134" lon="-85.116131"><ele>209.4</ele><time>2026-08-01T19:33:37Z</time></trkpt>
<trkpt lat="35.163109" lon="-85.116149"><ele>209.4</ele><time>2026-08-01T19:33:39Z</time></trkpt>
<trkpt lat="35.163091" lon="-85.116177"><ele>208.5</ele><time>2026-08-01T19:33:41Z</time></trkpt>
<trkpt lat="35.163073" lon="-85.116204"><ele>209.1</ele><time>2026-08-01T19:33:43Z</time></trkpt>
<trkpt lat="35.163058" lon="-85.116236"><ele>212.4</ele><time>2026-08-01T19:33:45Z</time></trkpt>
<trkpt lat="35.163038" lon="-85.116263"><ele>215.5</ele><time>2026-08-01T19:33:47Z</time></trkpt>
<trkpt lat="35.163029" lon="-85.116296"><ele>216.1</ele><time>2026-08-01T19:33:49Z</time></trkpt>
<trkpt lat="35.163041" lon="-85.116335"><ele>214.6</ele><time>2026-08-01T19:33:51Z</time></trkpt>
<trkpt lat="35.163057" lon="-85.116374"><ele>213.1</ele><time>2026-08-01T19:33:53Z</time></trkpt>
<trkpt lat="35.16307" lon="-85.116408"><ele>213.1</ele><time>2026-08-01T19:33:55Z</time></trkpt>
<trkpt lat="35.163092" lon="-85.116439"><ele>211.2</ele><time>2026-08-01T19:33:57Z</time></trkpt>
<trkpt lat="35.163114" lon="-85.116469"><ele>211.8</ele><time>2026-08-01T19:33:59Z</time></trkpt>
<trkpt lat="35.163143" lon="-85.11649"><ele>211.8</ele><time>2026-08-01T19:34:01Z</time></trkpt>
<trkpt lat="35.16317" lon="-85.116506"><ele>210.9</ele><time>2026-08-01T19:34:03Z</time></trkpt>
<trkpt lat="35.163198" lon="-85.116516"><ele>211.2</ele><time>2026-08-01T19:34:05Z</time></trkpt>
<trkpt lat="35.163225" lon="-85.116529"><ele>211.5</ele><time>2026-08-01T19:34:07Z</time></trkpt>
<trkpt lat="35.163253" lon="-85.116543"><ele>213.4</ele><time>2026-08-01T19:34:09Z</time></trkpt>
<trkpt lat="35.163283" lon="-85.116549"><ele>210.3</ele><time>2026-08-01T19:34:11Z</time></trkpt>
<trkpt lat="35.163312" lon="-85.116557"><ele>210.0</ele><time>2026-08-01T19:34:13Z</time></trkpt>
<trkpt lat="35.163338" lon="-85.116575"><ele>210.3</ele><time>2026-08-01T19:34:15Z</time></trkpt>
<trkpt lat="35.163364" lon="-85.116597"><ele>210.0</ele><time>2026-08-01T19:34:17Z</time></trkpt>
<trkpt lat="35.163392" lon="-85.116614"><ele>209.1</ele><time>2026-08-01T19:34:19Z</time></trkpt>
<trkpt lat="35.163414" lon="-85.116634"><ele>209.7</ele><time>2026-08-01T19:34:21Z</time></trkpt>
<trkpt lat="35.163438" lon="-85.116655"><ele>210.9</ele><time>2026-08-01T19:34:23Z</time></trkpt>
<trkpt lat="35.163468" lon="-85.116667"><ele>211.5</ele><time>2026-08-01T19:34:25Z</time></trkpt>
<trkpt lat="35.163489" lon="-85.116693"><ele>211.2</ele><time>2026-08-01T19:34:27Z</time></trkpt>
<trkpt lat="35.163499" lon="-85.116725"><ele>209.1</ele><time>2026-08-01T19:34:29Z</time></trkpt>
<trkpt lat="35.163513" lon="-85.116755"><ele>208.8</ele><time>2026-08-01T19:34:31Z</time></trkpt>
<trkpt lat="35.163547" lon="-85.11678"><ele>207.6</ele><time>2026-08-01T19:34:34Z</time></trkpt>
<trkpt lat="35.163576" lon="-85.116777"><ele>207.9</ele><time>2026-08-01T19:34:36Z</time></trkpt>
<trkpt lat="35.16361" lon="-85.116765"><ele>207.6</ele><time>2026-08-01T19:34:38Z</time></trkpt>
<trkpt lat="35.163644" lon="-85.116759"><ele>208.8</ele><time>2026-08-01T19:34:40Z</time></trkpt>
<trkpt lat="35.163675" lon="-85.116754"><ele>210.0</ele><time>2026-08-01T19:34:42Z</time></trkpt>
<trkpt lat="35.163705" lon="-85.116741"><ele>210.0</ele><time>2026-08-01T19:34:44Z</time></trkpt>
<trkpt lat="35.163733" lon="-85.116726"><ele>211.2</ele><time>2026-08-01T19:34:46Z</time></trkpt>
<trkpt lat="35.163763" lon="-85.116724"><ele>211.8</ele><time>2026-08-01T19:34:48Z</time></trkpt>
<trkpt lat="35.163794" lon="-85.116725"><ele>212.1</ele><time>2026-08-01T19:34:50Z</time></trkpt>
<trkpt lat="35.163824" lon="-85.116722"><ele>212.8</ele><time>2026-08-01T19:34:52Z</time></trkpt>
<trkpt lat="35.163855" lon="-85.116717"><ele>212.4</ele><time>2026-08-01T19:34:54Z</time></trkpt>
<trkpt lat="35.163886" lon="-85.116713"><ele>213.1</ele><time>2026-08-01T19:34:56Z</time></trkpt>
<trkpt lat="35.163916" lon="-85.116706"><ele>214.0</ele><time>2026-08-01T19:34:58Z</time></trkpt>
<trkpt lat="35.163946" lon="-85.116701"><ele>214.0</ele><time>2026-08-01T19:35:00Z</time></trkpt>
<trkpt lat="35.163977" lon="-85.116704"><ele>213.4</ele><time>2026-08-01T19:35:02Z</time></trkpt>
<trkpt lat="35.16401" lon="-85.116711"><ele>213.4</ele><time>2026-08-01T19:35:04Z</time></trkpt>
<trkpt lat="35.164041" lon="-85.116725"><ele>213.7</ele><time>2026-08-01T19:35:06Z</time></trkpt>
<trkpt lat="35.164069" lon="-85.116744"><ele>214.0</ele><time>2026-08-01T19:35:08Z</time></trkpt>
<trkpt lat="35.164095" lon="-85.116755"><ele>214.0</ele><time>2026-08-01T19:35:10Z</time></trkpt>
<trkpt lat="35.164121" lon="-85.11679"><ele>212.8</ele><time>2026-08-01T19:35:13Z</time></trkpt>
<trkpt lat="35.164135" lon="-85.116819"><ele>212.8</ele><time>2026-08-01T19:35:15Z</time></trkpt>
<trkpt lat="35.164137" lon="-85.116855"><ele>213.1</ele><time>2026-08-01T19:35:17Z</time></trkpt>
<trkpt lat="35.164146" lon="-85.11689"><ele>212.4</ele><time>2026-08-01T19:35:19Z</time></trkpt>
<trkpt lat="35.164152" lon="-85.116925"><ele>211.5</ele><time>2026-08-01T19:35:21Z</time></trkpt>
<trkpt lat="35.164164" lon="-85.116957"><ele>211.5</ele><time>2026-08-01T19:35:23Z</time></trkpt>
<trkpt lat="35.16417" lon="-85.116991"><ele>212.1</ele><time>2026-08-01T19:35:25Z</time></trkpt>
<trkpt lat="35.164183" lon="-85.117024"><ele>212.8</ele><time>2026-08-01T19:35:27Z</time></trkpt>
<trkpt lat="35.164193" lon="-85.117056"><ele>212.4</ele><time>2026-08-01T19:35:29Z</time></trkpt>
<trkpt lat="35.164209" lon="-85.117086"><ele>213.1</ele><time>2026-08-01T19:35:31Z</time></trkpt>
<trkpt lat="35.164229" lon="-85.117114"><ele>213.4</ele><time>2026-08-01T19:35:33Z</time></trkpt>
<trkpt lat="35.164251" lon="-85.11714"><ele>214.0</ele><time>2026-08-01T19:35:35Z</time></trkpt>
<trkpt lat="35.164271" lon="-85.117169"><ele>215.5</ele><time>2026-08-01T19:35:37Z</time></trkpt>
<trkpt lat="35.16429" lon="-85.117199"><ele>216.1</ele><time>2026-08-01T19:35:39Z</time></trkpt>
<trkpt lat="35.164308" lon="-85.117229"><ele>214.9</ele><time>2026-08-01T19:35:41Z</time></trkpt>
<trkpt lat="35.16433" lon="-85.117255"><ele>214.0</ele><time>2026-08-01T19:35:43Z</time></trkpt>
<trkpt lat="35.164345" lon="-85.117284"><ele>214.6</ele><time>2026-08-01T19:35:45Z</time></trkpt>
<trkpt lat="35.164342" lon="-85.117321"><ele>214.6</ele><time>2026-08-01T19:35:47Z</time></trkpt>
<trkpt lat="35.16433" lon="-85.117367"><ele>214.6</ele><time>2026-08-01T19:35:50Z</time></trkpt>
<trkpt lat="35.164326" lon="-85.117419"><ele>214.0</ele><time>2026-08-01T19:35:53Z</time></trkpt>
<trkpt lat="35.164339" lon="-85.117452"><ele>214.0</ele><time>2026-08-01T19:35:55Z</time></trkpt>
<trkpt lat="35.164351" lon="-85.117486"><ele>214.9</ele><time>2026-08-01T19:35:57Z</time></trkpt>
<trkpt lat="35.164363" lon="-85.117518"><ele>214.0</ele><time>2026-08-01T19:35:59Z</time></trkpt>
<trkpt lat="35.164371" lon="-85.117555"><ele>214.3</ele><time>2026-08-01T19:36:01Z</time></trkpt>
<trkpt lat="35.164377" lon="-85.11759"><ele>214.9</ele><time>2026-08-01T19:36:03Z</time></trkpt>
<trkpt lat="35.164384" lon="-85.117626"><ele>216.1</ele><time>2026-08-01T19:36:05Z</time></trkpt>
<trkpt lat="35.164389" lon="-85.117662"><ele>217.3</ele><time>2026-08-01T19:36:07Z</time></trkpt>
<trkpt lat="35.164387" lon="-85.117696"><ele>216.7</ele><time>2026-08-01T19:36:09Z</time></trkpt>
<trkpt lat="35.164385" lon="-85.117732"><ele>216.1</ele><time>2026-08-01T19:36:11Z</time></trkpt>
<trkpt lat="35.164371" lon="-85.117774"><ele>214.3</ele><time>2026-08-01T19:36:14Z</time></trkpt>
<trkpt lat="35.164371" lon="-85.11777"><ele>214.3</ele><time>2026-08-01T19:36:15Z</time></trkpt>
<trkpt lat="35.164371" lon="-85.117754"><ele>212.8</ele><time>2026-08-01T19:36:48Z</time></trkpt>
<trkpt lat="35.16437" lon="-85.117755"><ele>212.1</ele><time>2026-08-01T19:36:49Z</time></trkpt>
<trkpt lat="35.164341" lon="-85.117791"><ele>211.5</ele><time>2026-08-01T19:36:53Z</time></trkpt>
<trkpt lat="35.164332" lon="-85.117838"><ele>208.8</ele><time>2026-08-01T19:36:56Z</time></trkpt>
<trkpt lat="35.164349" lon="-85.117875"><ele>207.9</ele><time>2026-08-01T19:36:58Z</time></trkpt>
<trkpt lat="35.164383" lon="-85.117899"><ele>207.0</ele><time>2026-08-01T19:37:00Z</time></trkpt>
<trkpt lat="35.16441" lon="-85.117915"><ele>208.2</ele><time>2026-08-01T19:37:02Z</time></trkpt>
<trkpt lat="35.164441" lon="-85.117926"><ele>207.3</ele><time>2026-08-01T19:37:04Z</time></trkpt>
<trkpt lat="35.164473" lon="-85.117926"><ele>207.9</ele><time>2026-08-01T19:37:06Z</time></trkpt>
<trkpt lat="35.164502" lon="-85.117931"><ele>209.7</ele><time>2026-08-01T19:37:08Z</time></trkpt>
<trkpt lat="35.16453" lon="-85.11794"><ele>210.6</ele><time>2026-08-01T19:37:10Z</time></trkpt>
<trkpt lat="35.164558" lon="-85.117957"><ele>211.8</ele><time>2026-08-01T19:37:12Z</time></trkpt>
<trkpt lat="35.164585" lon="-85.117978"><ele>212.8</ele><time>2026-08-01T19:37:14Z</time></trkpt>
<trkpt lat="35.164609" lon="-85.118002"><ele>212.8</ele><time>2026-08-01T19:37:16Z</time></trkpt>
<trkpt lat="35.164632" lon="-85.118026"><ele>214.6</ele><time>2026-08-01T19:37:18Z</time></trkpt>
<trkpt lat="35.164655" lon="-85.118045"><ele>215.2</ele><time>2026-08-01T19:37:20Z</time></trkpt>
<trkpt lat="35.164686" lon="-85.118054"><ele>215.2</ele><time>2026-08-01T19:37:22Z</time></trkpt>
<trkpt lat="35.164715" lon="-85.118058"><ele>215.5</ele><time>2026-08-01T19:37:24Z</time></trkpt>
<trkpt lat="35.164748" lon="-85.118055"><ele>215.5</ele><time>2026-08-01T19:37:26Z</time></trkpt>
<trkpt lat="35.164779" lon="-85.118062"><ele>215.8</ele><time>2026-08-01T19:37:28Z</time></trkpt>
<trkpt lat="35.164804" lon="-85.118075"><ele>215.2</ele><time>2026-08-01T19:37:30Z</time></trkpt>
<trkpt lat="35.16483" lon="-85.118088"><ele>215.2</ele><time>2026-08-01T19:37:32Z</time></trkpt>
<trkpt lat="35.164855" lon="-85.118108"><ele>215.2</ele><time>2026-08-01T19:37:34Z</time></trkpt>
<trkpt lat="35.164884" lon="-85.118107"><ele>214.9</ele><time>2026-08-01T19:37:36Z</time></trkpt>
<trkpt lat="35.164913" lon="-85.118104"><ele>214.6</ele><time>2026-08-01T19:37:38Z</time></trkpt>
<trkpt lat="35.164952" lon="-85.118107"><ele>215.5</ele><time>2026-08-01T19:37:41Z</time></trkpt>
<trkpt lat="35.164993" lon="-85.118107"><ele>214.9</ele><time>2026-08-01T19:37:44Z</time></trkpt>
<trkpt lat="35.165019" lon="-85.118095"><ele>214.9</ele><time>2026-08-01T19:37:46Z</time></trkpt>
<trkpt lat="35.165048" lon="-85.118058"><ele>214.6</ele><time>2026-08-01T19:37:49Z</time></trkpt>
<trkpt lat="35.165066" lon="-85.118029"><ele>214.3</ele><time>2026-08-01T19:37:51Z</time></trkpt>
<trkpt lat="35.165089" lon="-85.118009"><ele>213.1</ele><time>2026-08-01T19:37:53Z</time></trkpt>
<trkpt lat="35.165112" lon="-85.117986"><ele>211.8</ele><time>2026-08-01T19:37:55Z</time></trkpt>
<trkpt lat="35.165145" lon="-85.117958"><ele>211.2</ele><time>2026-08-01T19:37:58Z</time></trkpt>
<trkpt lat="35.165167" lon="-85.117938"><ele>210.9</ele><time>2026-08-01T19:38:00Z</time></trkpt>
<trkpt lat="35.165188" lon="-85.117913"><ele>211.8</ele><time>2026-08-01T19:38:02Z</time></trkpt>
<trkpt lat="35.165209" lon="-85.117889"><ele>211.2</ele><time>2026-08-01T19:38:04Z</time></trkpt>
<trkpt lat="35.165236" lon="-85.117877"><ele>210.9</ele><time>2026-08-01T19:38:06Z</time></trkpt>
<trkpt lat="35.165265" lon="-85.117875"><ele>211.2</ele><time>2026-08-01T19:38:08Z</time></trkpt>
<trkpt lat="35.165295" lon="-85.117871"><ele>211.2</ele><time>2026-08-01T19:38:10Z</time></trkpt>
<trkpt lat="35.165327" lon="-85.117871"><ele>211.5</ele><time>2026-08-01T19:38:12Z</time></trkpt>
<trkpt lat="35.165355" lon="-85.117863"><ele>211.8</ele><time>2026-08-01T19:38:14Z</time></trkpt>
<trkpt lat="35.165385" lon="-85.11786"><ele>213.1</ele><time>2026-08-01T19:38:16Z</time></trkpt>
<trkpt lat="35.165416" lon="-85.117861"><ele>212.1</ele><time>2026-08-01T19:38:18Z</time></trkpt>
<trkpt lat="35.165443" lon="-85.117858"><ele>212.8</ele><time>2026-08-01T19:38:20Z</time></trkpt>
<trkpt lat="35.165466" lon="-85.117822"><ele>212.1</ele><time>2026-08-01T19:38:23Z</time></trkpt>
<trkpt lat="35.16549" lon="-85.117804"><ele>215.2</ele><time>2026-08-01T19:38:26Z</time></trkpt>
<trkpt lat="35.165522" lon="-85.117802"><ele>214.6</ele><time>2026-08-01T19:38:29Z</time></trkpt>
<trkpt lat="35.16555" lon="-85.117805"><ele>215.2</ele><time>2026-08-01T19:38:31Z</time></trkpt>
<trkpt lat="35.165591" lon="-85.117799"><ele>216.7</ele><time>2026-08-01T19:38:34Z</time></trkpt>
<trkpt lat="35.165625" lon="-85.117804"><ele>216.4</ele><time>2026-08-01T19:38:36Z</time></trkpt>
<trkpt lat="35.16566" lon="-85.117814"><ele>217.0</ele><time>2026-08-01T19:38:38Z</time></trkpt>
<trkpt lat="35.165692" lon="-85.117816"><ele>217.3</ele><time>2026-08-01T19:38:40Z</time></trkpt>
<trkpt lat="35.16572" lon="-85.117821"><ele>217.0</ele><time>2026-08-01T19:38:42Z</time></trkpt>
<trkpt lat="35.16575" lon="-85.11783"><ele>217.0</ele><time>2026-08-01T19:38:44Z</time></trkpt>
<trkpt lat="35.165781" lon="-85.117831"><ele>217.3</ele><time>2026-08-01T19:38:46Z</time></trkpt>
<trkpt lat="35.165821" lon="-85.117844"><ele>218.2</ele><time>2026-08-01T19:38:49Z</time></trkpt>
<trkpt lat="35.165854" lon="-85.117852"><ele>216.4</ele><time>2026-08-01T19:38:51Z</time></trkpt>
<trkpt lat="35.165881" lon="-85.117864"><ele>215.8</ele><time>2026-08-01T19:38:53Z</time></trkpt>
<trkpt lat="35.165912" lon="-85.117873"><ele>214.3</ele><time>2026-08-01T19:38:55Z</time></trkpt>
<trkpt lat="35.165944" lon="-85.117873"><ele>214.0</ele><time>2026-08-01T19:38:57Z</time></trkpt>
<trkpt lat="35.165976" lon="-85.117872"><ele>213.1</ele><time>2026-08-01T19:38:59Z</time></trkpt>
<trkpt lat="35.166007" lon="-85.117868"><ele>212.8</ele><time>2026-08-01T19:39:01Z</time></trkpt>
<trkpt lat="35.166037" lon="-85.117866"><ele>213.1</ele><time>2026-08-01T19:39:03Z</time></trkpt>
<trkpt lat="35.16607" lon="-85.117869"><ele>212.4</ele><time>2026-08-01T19:39:05Z</time></trkpt>
<trkpt lat="35.166098" lon="-85.117876"><ele>212.4</ele><time>2026-08-01T19:39:07Z</time></trkpt>
<trkpt lat="35.166127" lon="-85.117897"><ele>210.9</ele><time>2026-08-01T19:39:09Z</time></trkpt>
<trkpt lat="35.166154" lon="-85.11791"><ele>211.8</ele><time>2026-08-01T19:39:11Z</time></trkpt>
<trkpt lat="35.166182" lon="-85.117919"><ele>212.4</ele><time>2026-08-01T19:39:13Z</time></trkpt>
<trkpt lat="35.16621" lon="-85.117926"><ele>213.7</ele><time>2026-08-01T19:39:15Z</time></trkpt>
<trkpt lat="35.166243" lon="-85.117923"><ele>215.5</ele><time>2026-08-01T19:39:17Z</time></trkpt>
<trkpt lat="35.166273" lon="-85.117909"><ele>215.2</ele><time>2026-08-01T19:39:19Z</time></trkpt>
<trkpt lat="35.166302" lon="-85.117905"><ele>215.5</ele><time>2026-08-01T19:39:21Z</time></trkpt>
<trkpt lat="35.166332" lon="-85.1179"><ele>214.6</ele><time>2026-08-01T19:39:23Z</time></trkpt>
<trkpt lat="35.166372" lon="-85.117899"><ele>216.4</ele><time>2026-08-01T19:39:26Z</time></trkpt>
<trkpt lat="35.166407" lon="-85.117897"><ele>218.5</ele><time>2026-08-01T19:39:29Z</time></trkpt>
<trkpt lat="35.166438" lon="-85.117889"><ele>219.5</ele><time>2026-08-01T19:39:31Z</time></trkpt>
<trkpt lat="35.166467" lon="-85.117884"><ele>219.2</ele><time>2026-08-01T19:39:33Z</time></trkpt>
<trkpt lat="35.166497" lon="-85.117884"><ele>218.2</ele><time>2026-08-01T19:39:35Z</time></trkpt>
<trkpt lat="35.166538" lon="-85.117884"><ele>218.8</ele><time>2026-08-01T19:39:38Z</time></trkpt>
<trkpt lat="35.166575" lon="-85.117887"><ele>217.3</ele><time>2026-08-01T19:39:41Z</time></trkpt>
<trkpt lat="35.166614" lon="-85.117894"><ele>217.0</ele><time>2026-08-01T19:39:44Z</time></trkpt>
<trkpt lat="35.166651" lon="-85.117889"><ele>216.4</ele><time>2026-08-01T19:39:47Z</time></trkpt>
<trkpt lat="35.166691" lon="-85.117886"><ele>217.6</ele><time>2026-08-01T19:39:50Z</time></trkpt>
<trkpt lat="35.166719" lon="-85.117885"><ele>217.6</ele><time>2026-08-01T19:39:52Z</time></trkpt>
<trkpt lat="35.166748" lon="-85.117883"><ele>216.1</ele><time>2026-08-01T19:39:54Z</time></trkpt>
<trkpt lat="35.166782" lon="-85.117883"><ele>215.2</ele><time>2026-08-01T19:39:56Z</time></trkpt>
<trkpt lat="35.166814" lon="-85.117882"><ele>216.4</ele><time>2026-08-01T19:39:58Z</time></trkpt>
<trkpt lat="35.166847" lon="-85.117886"><ele>213.4</ele><time>2026-08-01T19:40:00Z</time></trkpt>
<trkpt lat="35.166877" lon="-85.117899"><ele>214.0</ele><time>2026-08-01T19:40:02Z</time></trkpt>
<trkpt lat="35.166903" lon="-85.117923"><ele>213.4</ele><time>2026-08-01T19:40:04Z</time></trkpt>
<trkpt lat="35.166929" lon="-85.117938"><ele>213.7</ele><time>2026-08-01T19:40:06Z</time></trkpt>
<trkpt lat="35.166958" lon="-85.117952"><ele>213.4</ele><time>2026-08-01T19:40:08Z</time></trkpt>
<trkpt lat="35.166989" lon="-85.117961"><ele>212.8</ele><time>2026-08-01T19:40:10Z</time></trkpt>
<trkpt lat="35.167021" lon="-85.117958"><ele>213.7</ele><time>2026-08-01T19:40:12Z</time></trkpt>
<trkpt lat="35.167052" lon="-85.117968"><ele>212.8</ele><time>2026-08-01T19:40:14Z</time></trkpt>
<trkpt lat="35.167079" lon="-85.117977"><ele>213.4</ele><time>2026-08-01T19:40:16Z</time></trkpt>
<trkpt lat="35.167105" lon="-85.117986"><ele>213.4</ele><time>2026-08-01T19:40:18Z</time></trkpt>
<trkpt lat="35.167131" lon="-85.118"><ele>214.6</ele><time>2026-08-01T19:40:20Z</time></trkpt>
<trkpt lat="35.167159" lon="-85.118009"><ele>215.5</ele><time>2026-08-01T19:40:22Z</time></trkpt>
<trkpt lat="35.167185" lon="-85.118027"><ele>216.1</ele><time>2026-08-01T19:40:24Z</time></trkpt>
<trkpt lat="35.16721" lon="-85.118043"><ele>216.4</ele><time>2026-08-01T19:40:26Z</time></trkpt>
<trkpt lat="35.167231" lon="-85.118066"><ele>214.9</ele><time>2026-08-01T19:40:28Z</time></trkpt>
<trkpt lat="35.16725" lon="-85.118093"><ele>215.2</ele><time>2026-08-01T19:40:30Z</time></trkpt>
<trkpt lat="35.167265" lon="-85.118122"><ele>214.9</ele><time>2026-08-01T19:40:32Z</time></trkpt>
<trkpt lat="35.167276" lon="-85.118155"><ele>219.8</ele><time>2026-08-01T19:40:34Z</time></trkpt>
<trkpt lat="35.167283" lon="-85.118189"><ele>219.2</ele><time>2026-08-01T19:40:36Z</time></trkpt>
<trkpt lat="35.167298" lon="-85.118235"><ele>219.5</ele><time>2026-08-01T19:40:39Z</time></trkpt>
<trkpt lat="35.167308" lon="-85.118274"><ele>217.0</ele><time>2026-08-01T19:40:41Z</time></trkpt>
<trkpt lat="35.167322" lon="-85.118309"><ele>216.1</ele><time>2026-08-01T19:40:43Z</time></trkpt>
<trkpt lat="35.167326" lon="-85.118348"><ele>214.9</ele><time>2026-08-01T19:40:45Z</time></trkpt>
<trkpt lat="35.167335" lon="-85.118381"><ele>214.3</ele><time>2026-08-01T19:40:47Z</time></trkpt>
<trkpt lat="35.167346" lon="-85.118417"><ele>213.1</ele><time>2026-08-01T19:40:49Z</time></trkpt>
<trkpt lat="35.167357" lon="-85.118451"><ele>212.4</ele><time>2026-08-01T19:40:51Z</time></trkpt>
<trkpt lat="35.167365" lon="-85.118485"><ele>211.5</ele><time>2026-08-01T19:40:53Z</time></trkpt>
<trkpt lat="35.167382" lon="-85.118515"><ele>212.4</ele><time>2026-08-01T19:40:55Z</time></trkpt>
<trkpt lat="35.167394" lon="-85.118548"><ele>213.4</ele><time>2026-08-01T19:40:57Z</time></trkpt>
<trkpt lat="35.167399" lon="-85.118585"><ele>213.7</ele><time>2026-08-01T19:40:59Z</time></trkpt>
<trkpt lat="35.16741" lon="-85.118622"><ele>212.4</ele><time>2026-08-01T19:41:01Z</time></trkpt>
<trkpt lat="35.167416" lon="-85.11866"><ele>211.8</ele><time>2026-08-01T19:41:03Z</time></trkpt>
<trkpt lat="35.167424" lon="-85.118698"><ele>211.8</ele><time>2026-08-01T19:41:05Z</time></trkpt>
<trkpt lat="35.167433" lon="-85.11873"><ele>211.2</ele><time>2026-08-01T19:41:07Z</time></trkpt>
<trkpt lat="35.167447" lon="-85.118765"><ele>212.1</ele><time>2026-08-01T19:41:09Z</time></trkpt>
<trkpt lat="35.167433" lon="-85.118798"><ele>210.6</ele><time>2026-08-01T19:41:11Z</time></trkpt>
<trkpt lat="35.167432" lon="-85.118803"><ele>209.4</ele><time>2026-08-01T19:41:12Z</time></trkpt>
<trkpt lat="35.167442" lon="-85.118802"><ele>209.4</ele><time>2026-08-01T19:41:15Z</time></trkpt>
<trkpt lat="35.167442" lon="-85.118803"><ele>209.7</ele><time>2026-08-01T19:41:16Z</time></trkpt>
<trkpt lat="35.167441" lon="-85.118817"><ele>210.6</ele><time>2026-08-01T19:41:18Z</time></trkpt>
<trkpt lat="35.16744" lon="-85.118815"><ele>210.6</ele><time>2026-08-01T19:41:19Z</time></trkpt>
<trkpt lat="35.16744" lon="-85.118814"><ele>210.6</ele><time>2026-08-01T19:41:28Z</time></trkpt>
<trkpt lat="35.167445" lon="-85.11882"><ele>211.2</ele><time>2026-08-01T19:41:29Z</time></trkpt>
<trkpt lat="35.167477" lon="-85.118845"><ele>213.1</ele><time>2026-08-01T19:41:32Z</time></trkpt>
<trkpt lat="35.167504" lon="-85.118865"><ele>212.8</ele><time>2026-08-01T19:41:34Z</time></trkpt>
<trkpt lat="35.167534" lon="-85.11887"><ele>213.7</ele><time>2026-08-01T19:41:36Z</time></trkpt>
<trkpt lat="35.16757" lon="-85.11888"><ele>214.3</ele><time>2026-08-01T19:41:39Z</time></trkpt>
<trkpt lat="35.167595" lon="-85.1189"><ele>216.4</ele><time>2026-08-01T19:41:41Z</time></trkpt>
<trkpt lat="35.167626" lon="-85.118922"><ele>218.5</ele><time>2026-08-01T19:41:44Z</time></trkpt>
<trkpt lat="35.167654" lon="-85.118952"><ele>219.5</ele><time>2026-08-01T19:41:47Z</time></trkpt>
<trkpt lat="35.167675" lon="-85.118975"><ele>219.2</ele><time>2026-08-01T19:41:49Z</time></trkpt>
<trkpt lat="35.167695" lon="-85.119005"><ele>219.8</ele><time>2026-08-01T19:41:51Z</time></trkpt>
<trkpt lat="35.167717" lon="-85.119033"><ele>219.8</ele><time>2026-08-01T19:41:53Z</time></trkpt>
<trkpt lat="35.167742" lon="-85.119052"><ele>219.2</ele><time>2026-08-01T19:41:55Z</time></trkpt>
<trkpt lat="35.16777" lon="-85.119071"><ele>217.0</ele><time>2026-08-01T19:41:58Z</time></trkpt>
<trkpt lat="35.167797" lon="-85.119107"><ele>214.0</ele><time>2026-08-01T19:42:01Z</time></trkpt>
<trkpt lat="35.167824" lon="-85.11914"><ele>214.6</ele><time>2026-08-01T19:42:04Z</time></trkpt>
<trkpt lat="35.167851" lon="-85.119175"><ele>213.1</ele><time>2026-08-01T19:42:07Z</time></trkpt>
<trkpt lat="35.167875" lon="-85.119196"><ele>212.4</ele><time>2026-08-01T19:42:09Z</time></trkpt>
<trkpt lat="35.167905" lon="-85.119228"><ele>213.4</ele><time>2026-08-01T19:42:12Z</time></trkpt>
<trkpt lat="35.167935" lon="-85.119259"><ele>212.4</ele><time>2026-08-01T19:42:15Z</time></trkpt>
<trkpt lat="35.167964" lon="-85.119293"><ele>212.1</ele><time>2026-08-01T19:42:18Z</time></trkpt>
<trkpt lat="35.167984" lon="-85.119317"><ele>211.8</ele><time>2026-08-01T19:42:20Z</time></trkpt>
<trkpt lat="35.168002" lon="-85.119344"><ele>211.8</ele><time>2026-08-01T19:42:22Z</time></trkpt>
<trkpt lat="35.168025" lon="-85.119383"><ele>212.4</ele><time>2026-08-01T19:42:25Z</time></trkpt>
<trkpt lat="35.168048" lon="-85.119423"><ele>213.1</ele><time>2026-08-01T19:42:28Z</time></trkpt>
<trkpt lat="35.168068" lon="-85.119464"><ele>215.2</ele><time>2026-08-01T19:42:31Z</time></trkpt>
<trkpt lat="35.16809" lon="-85.119504"><ele>214.0</ele><time>2026-08-01T19:42:34Z</time></trkpt>
<trkpt lat="35.168109" lon="-85.119532"><ele>213.4</ele><time>2026-08-01T19:42:36Z</time></trkpt>
<trkpt lat="35.168127" lon="-85.119562"><ele>212.4</ele><time>2026-08-01T19:42:38Z</time></trkpt>
<trkpt lat="35.168147" lon="-85.11959"><ele>210.9</ele><time>2026-08-01T19:42:40Z</time></trkpt>
<trkpt lat="35.168169" lon="-85.119614"><ele>210.6</ele><time>2026-08-01T19:42:42Z</time></trkpt>
<trkpt lat="35.168185" lon="-85.119645"><ele>210.3</ele><time>2026-08-01T19:42:44Z</time></trkpt>
<trkpt lat="35.168207" lon="-85.119671"><ele>210.3</ele><time>2026-08-01T19:42:46Z</time></trkpt>
<trkpt lat="35.168233" lon="-85.119688"><ele>210.6</ele><time>2026-08-01T19:42:48Z</time></trkpt>
<trkpt lat="35.168258" lon="-85.119702"><ele>210.3</ele><time>2026-08-01T19:42:50Z</time></trkpt>
<trkpt lat="35.168286" lon="-85.119713"><ele>210.0</ele><time>2026-08-01T19:42:52Z</time></trkpt>
<trkpt lat="35.168326" lon="-85.119709"><ele>210.3</ele><time>2026-08-01T19:42:55Z</time></trkpt>
</trkseg></trk></gpx>